Provisional Data: Bowman Creek near Noxen, PA


Please select a monitoring station.
Please select start date.
Please select start date.

Toggle Unit: C/F Toggle Unit: C/F
Sample Time Temperature (C) Temperature (F) Specific Conductivity (mS/cm) pH   Turbidity (NTU+) DO (mg/L)
10/20/2020 12:00:00 AM 11.63 52.934 0.082 6.95 17.26 10.44
10/20/2020 12:15:00 AM 11.61 52.898 0.084 6.96 16.93 10.6
10/20/2020 12:30:00 AM 11.61 52.898 0.084 6.97 17.46 10.28
10/20/2020 12:45:00 AM 11.6 52.88 0.084 6.97 16.2 10.36
10/20/2020 1:00:00 AM 11.59 52.862 0.084 6.96 17.59 10.14
10/20/2020 1:15:00 AM 11.6 52.88 0.084 6.96 17.55 10.11
10/20/2020 1:30:00 AM 11.6 52.88 0.084 6.96 17.96 10.37
10/20/2020 1:45:00 AM 11.6 52.88 0.084 6.97 17.45 10.35
10/20/2020 2:00:00 AM 11.61 52.898 0.084 6.97 17.6 9.39
10/20/2020 2:15:00 AM 11.62 52.916 0.084 6.96 19.28 10.68
10/20/2020 2:30:00 AM 11.63 52.934 0.083 6.97 18.59 10.45
10/20/2020 2:45:00 AM 11.64 52.952 0.083 6.98 17.54 10.75
10/20/2020 3:00:00 AM 11.65 52.97 0.083 6.97 16.89 10.66
10/20/2020 3:15:00 AM 11.66 52.988 0.083 6.97 17.2 9.87
10/20/2020 3:30:00 AM 11.67 53.006 0.082 6.97 17.24 10.23
10/20/2020 3:45:00 AM 11.68 53.024 0.082 6.97 17.66 10.75
10/20/2020 4:00:00 AM 11.69 53.042 0.082 6.97 17.57 10.81
10/20/2020 4:15:00 AM 11.7 53.06 0.082 6.96 18.22 10.72
10/20/2020 4:30:00 AM 11.71 53.078 0.081 6.95 18.31 10.7
10/20/2020 4:45:00 AM 11.72 53.096 0.081 6.95 18.58 10.69
10/20/2020 5:00:00 AM 11.73 53.114 0.081 6.96 17.94 10.73
10/20/2020 5:15:00 AM 11.74 53.132 0.081 6.96 18.4 10.72
10/20/2020 5:30:00 AM 11.76 53.168 0.08 6.95 18.15 10.7
10/20/2020 5:45:00 AM 11.77 53.186 0.08 6.95 18.11 10.77
10/20/2020 6:00:00 AM 11.78 53.204 0.08 6.96 18.44 10.72
10/20/2020 6:15:00 AM 11.8 53.24 0.08 6.95 19 10.71
10/20/2020 6:30:00 AM 11.81 53.258 0.079 6.96 18.5 10.77
10/20/2020 6:45:00 AM 11.81 53.258 0.079 6.96 18.07 10.79
10/20/2020 7:00:00 AM 11.82 53.276 0.079 6.95 17.4 10.71
10/20/2020 7:15:00 AM 11.83 53.294 0.079 6.94 19.34 10.78
10/20/2020 7:30:00 AM 11.84 53.312 0.078 6.95 18.68 10.85
10/20/2020 7:45:00 AM 11.86 53.348 0.078 6.94 18.51 11.01
10/20/2020 8:00:00 AM 11.87 53.366 0.078 6.95 18.05 11.2
10/20/2020 8:15:00 AM 11.9 53.42 0.077 6.95 18.38 12.42
10/20/2020 8:30:00 AM 11.94 53.492 0.077 6.95 18.75 12.78
10/20/2020 8:45:00 AM 11.98 53.564 0.077 6.97 18.42 12.94
10/20/2020 9:00:00 AM 12.05 53.69 0.076 6.99 18.28 13.12
10/20/2020 9:15:00 AM 12.1 53.78 0.076 7.01 18.5 13.65
10/20/2020 9:30:00 AM 12.17 53.906 0.076 7.02 18 15.29
10/20/2020 9:45:00 AM 12.24 54.032 0.075 7.04 16.94 15.5
10/20/2020 10:00:00 AM 12.32 54.176 0.075 7.07 15.06 15.67
10/20/2020 10:15:00 AM 12.39 54.302 0.075 7.08 15.65 13.02
10/20/2020 10:30:00 AM 12.44 54.392 0.075 7.09 15.52 12.73
10/20/2020 10:45:00 AM 12.48 54.464 0.075 7.09 15.82 13.06
10/20/2020 11:00:00 AM 12.52 54.536 0.074 7.09 15.97 14.53
10/20/2020 11:15:00 AM 12.59 54.662 0.074 7.11 15.39 22.32
10/20/2020 11:30:00 AM 12.69 54.842 0.074 7.12 15.36 17.68
10/20/2020 11:45:00 AM 12.78 55.004 0.074 7.13 15.55 16.51
10/20/2020 12:00:00 PM 12.88 55.184 0.074 7.15 14.98 18.58
10/20/2020 12:15:00 PM 12.96 55.328 0.073 7.16 15.47 15.55
10/20/2020 12:30:00 PM 13.05 55.49 0.073 7.17 16.19 16.36
10/20/2020 12:45:00 PM 13.16 55.688 0.073 7.18 15.8 18.19
10/20/2020 1:00:00 PM 13.25 55.85 0.073 7.19 14.33 14.88
10/20/2020 1:15:00 PM 13.33 55.994 0.073 7.19 15.67 16.07
10/20/2020 1:30:00 PM 13.38 56.084 0.073 7.19 14.91 14.53
10/20/2020 1:45:00 PM 13.41 56.138 0.073 7.19 15.31 13.43
10/20/2020 2:00:00 PM 13.42 56.156 0.073 7.18 14.5 13.52
10/20/2020 2:15:00 PM 13.41 56.138 0.074 7.17 15.91 14.12
10/20/2020 2:30:00 PM 13.42 56.156 0.073 7.16 15.66 15.57
10/20/2020 2:45:00 PM 13.46 56.228 0.073 7.15 15.22 15.65
10/20/2020 3:00:00 PM 13.51 56.318 0.073 7.16 16.67 14.67
10/20/2020 3:15:00 PM 13.56 56.408 0.073 7.16 16.5 14.44
10/20/2020 3:30:00 PM 13.59 56.462 0.072 7.16 16.26 13.82
10/20/2020 3:45:00 PM 13.61 56.498 0.072 7.16 15.38 15.29
10/20/2020 4:00:00 PM 13.65 56.57 0.072 7.15 15.7 14.53
10/20/2020 4:15:00 PM 13.68 56.624 0.072 7.15 15.4 13.81
10/20/2020 4:30:00 PM 13.69 56.642 0.072 7.14 16.15 13.65
10/20/2020 4:45:00 PM 13.69 56.642 0.072 7.13 16.01 13.67
10/20/2020 5:00:00 PM 13.67 56.606 0.072 7.11 15.56 12.44
10/20/2020 5:15:00 PM 13.66 56.588 0.072 7.1 16.57 12.45
10/20/2020 5:30:00 PM 13.63 56.534 0.072 7.09 17.04 11.37
10/20/2020 5:45:00 PM 13.6 56.48 0.072 7.06 16.63 10.94
10/20/2020 6:00:00 PM 13.55 56.39 0.072 7.03 16.86 10.73
10/20/2020 6:15:00 PM 13.53 56.354 0.072 7.01 16.25 10.4
10/20/2020 6:30:00 PM 13.5 56.3 0.072 6.99 16.79 10.43
10/20/2020 6:45:00 PM 13.47 56.246 0.073 6.96 16.85 10.36
10/20/2020 7:00:00 PM 13.45 56.21 0.073 6.95 16.86 10.3
10/20/2020 7:15:00 PM 13.42 56.156 0.072 6.92 17.37 10.27
10/20/2020 7:30:00 PM 13.41 56.138 0.072 6.91 18.13 10.16
10/20/2020 7:45:00 PM 13.39 56.102 0.072 6.9 17.76 10.19
10/20/2020 8:00:00 PM 13.38 56.084 0.072 6.9 20.27 9.85
10/20/2020 8:15:00 PM 13.36 56.048 0.072 6.89 19.14 9.72
10/20/2020 8:30:00 PM 13.35 56.03 0.072 6.88 18.56 9.81
10/20/2020 8:45:00 PM 13.33 55.994 0.072 6.88 18.79 10.05
10/20/2020 9:00:00 PM 13.32 55.976 0.072 6.88 18.18 10.05
10/20/2020 9:15:00 PM 13.31 55.958 0.07 6.89 19.42 9.97
10/20/2020 9:30:00 PM 13.28 55.904 0.072 6.88 18.72 9.96
10/20/2020 9:45:00 PM 13.25 55.85 0.072 6.88 19.84 9.95
10/20/2020 10:00:00 PM 13.2 55.76 0.072 6.87 19.85 10
10/20/2020 10:15:00 PM 13.15 55.67 0.072 6.89 19.96 10.09
10/20/2020 10:30:00 PM 13.1 55.58 0.072 6.88 19 10.03
10/20/2020 10:45:00 PM 13.04 55.472 0.072 6.87 19.28 9.96
10/20/2020 11:00:00 PM 12.99 55.382 0.072 6.88 18.63 9.67
10/20/2020 11:15:00 PM 12.93 55.274 0.072 6.87 19.27 9.63
10/20/2020 11:30:00 PM 12.9 55.22 0.072 6.87 21.38 9.94
10/20/2020 11:45:00 PM 12.86 55.148 0.071 6.86 17.78 10.01
10/21/2020 12:00:00 AM 12.82 55.076 0.071 6.86 18.27 10
10/21/2020 12:15:00 AM 12.79 55.022 0.071 6.86 18.96 9.87
10/21/2020 12:30:00 AM 12.76 54.968 0.071 6.86 18.85 9.87
10/21/2020 12:45:00 AM 12.72 54.896 0.073 6.85 19.3 10.17
10/21/2020 1:00:00 AM 12.67 54.806 0.071 6.85 19.05 9.22
10/21/2020 1:15:00 AM 12.63 54.734 0.071 6.85 19.38 9.9
10/21/2020 1:30:00 AM 12.57 54.626 0.071 6.84 18.57 10.24
10/21/2020 1:45:00 AM 12.54 54.572 0.071 6.84 19.27 10.28
10/21/2020 2:00:00 AM 12.51 54.518 0.071 6.84 19.66 10.32
10/21/2020 2:15:00 AM 12.49 54.482 0.071 6.85 19.47 10.04
10/21/2020 2:30:00 AM 12.47 54.446 0.071 6.85 20.25 10.01
10/21/2020 2:45:00 AM 12.45 54.41 0.071 6.85 23.03 10.17
10/21/2020 3:00:00 AM 12.43 54.374 0.071 6.85 19.71 10.06
10/21/2020 3:15:00 AM 12.41 54.338 0.071 6.85 20.22 9.97
10/21/2020 3:30:00 AM 12.39 54.302 0.07 6.85 18.6 10.02
10/21/2020 3:45:00 AM 12.35 54.23 0.07 6.85 18.65 10.32
10/21/2020 4:00:00 AM 12.33 54.194 0.071 6.86 20.14 10.34
10/21/2020 4:15:00 AM 12.3 54.14 0.07 6.85 20.53 10.24
10/21/2020 4:30:00 AM 12.27 54.086 0.07 6.85 20.27 10.25
10/21/2020 4:45:00 AM 12.25 54.05 0.07 6.86 20.04 10.37
10/21/2020 5:00:00 AM 12.23 54.014 0.07 6.86 20.25 10.12
10/21/2020 5:15:00 AM 12.22 53.996 0.07 6.86 19.98 10.18
10/21/2020 5:30:00 AM 12.21 53.978 0.07 6.86 19.94 10.23
10/21/2020 5:45:00 AM 12.21 53.978 0.07 6.86 19.68 10.42
10/21/2020 6:00:00 AM 12.2 53.96 0.07 6.86 20.26 10.33
10/21/2020 6:15:00 AM 12.19 53.942 0.07 6.87 21.05 10.26
10/21/2020 6:30:00 AM 12.18 53.924 0.07 6.86 19.98 10.41
10/21/2020 6:45:00 AM 12.15 53.87 0.07 6.87 20.43 10.22
10/21/2020 7:00:00 AM 12.14 53.852 0.07 6.86 20.48 10.08
10/21/2020 7:15:00 AM 12.13 53.834 0.07 6.86 22.42 10.09
10/21/2020 7:30:00 AM 12.13 53.834 0.07 6.87 19.87 10.46
10/21/2020 7:45:00 AM 12.14 53.852 0.07 6.87 19.97 10.7
10/21/2020 8:00:00 AM 12.15 53.87 0.07 6.87 20.14 10.87
10/21/2020 8:15:00 AM 12.18 53.924 0.07 6.88 19.1 11.55
10/21/2020 8:30:00 AM 12.21 53.978 0.07 6.89 20.03 11.37
10/21/2020 8:45:00 AM 12.24 54.032 0.069 6.91 20.28 11.37
10/21/2020 9:00:00 AM 12.28 54.104 0.07 6.91 20.25 11.54
10/21/2020 9:15:00 AM 12.33 54.194 0.069 6.93 19.64 14.2
10/21/2020 9:30:00 AM 12.41 54.338 0.069 6.94 18.36 14.88
10/21/2020 9:45:00 AM 12.51 54.518 0.069 6.96 19.21 17.29
10/21/2020 10:00:00 AM 12.63 54.734 0.068 6.99 18.97 16.18
10/21/2020 10:15:00 AM 12.77 54.986 0.068 7.02 18.5 18.16
10/21/2020 10:30:00 AM 12.89 55.202 0.068 7.05 18.54 19.36
10/21/2020 10:45:00 AM 13.04 55.472 0.068 7.08 18.56 21.57
10/21/2020 11:00:00 AM 13.2 55.76 0.068 7.1 18.26 21.41
10/21/2020 11:15:00 AM 13.36 56.048 0.068 7.12 18.36 18.38
10/21/2020 11:30:00 AM 13.45 56.21 0.068 7.12 18.51 20.96
10/21/2020 11:45:00 AM 13.48 56.264 0.068 7.12 18.59 19.43
10/21/2020 12:00:00 PM 13.59 56.462 0.068 7.14 17.93 20.01
10/21/2020 12:15:00 PM 13.79 56.822 0.068 7.17 18.07 20.32
10/21/2020 12:30:00 PM 14.1 57.38 0.068 7.25 18.54 19.41
10/21/2020 12:45:00 PM 14.35 57.83 0.068 7.23 18.15 18.14
10/21/2020 1:00:00 PM 14.59 58.262 0.068 7.29 18.53 17.15
10/21/2020 1:15:00 PM 14.87 58.766 0.067 7.35 17.9 15.47
10/21/2020 1:30:00 PM 15.08 59.144 0.068 7.32 18.81 14.29
10/21/2020 1:45:00 PM 15.35 59.63 0.068 7.34 17.36 13.47
10/21/2020 2:00:00 PM 15.54 59.972 0.068 7.29 19.36 13.13
10/21/2020 2:15:00 PM 15.76 60.368 0.068 7.24 18.44 13.18
10/21/2020 2:30:00 PM 15.93 60.674 0.068 7.22 19.16 13.55
10/21/2020 2:45:00 PM 16.11 60.998 0.068 7.21 17.85 13.37
10/21/2020 3:00:00 PM 16.26 61.268 0.068 7.2 18.98 12.81
10/21/2020 3:15:00 PM 16.38 61.484 0.068 7.2 18.85 11.9
10/21/2020 3:30:00 PM 16.46 61.628 0.068 7.18 19.21 12.75
10/21/2020 3:45:00 PM 16.47 61.646 0.068 7.17 18.64 12.2
10/21/2020 4:00:00 PM 16.43 61.574 0.068 7.15 19.35 12.78
10/21/2020 4:15:00 PM 16.32 61.376 0.068 7.13 18.37 12.07
10/21/2020 4:30:00 PM 16.21 61.178 0.068 7.1 19.5 8.43
10/21/2020 4:45:00 PM 16.02 60.836 0.068 7.09 326.76 12.07
10/21/2020 5:00:00 PM 15.86 60.548 0.068 7.07 427.75 10.97
10/21/2020 5:15:00 PM 15.73 60.314 0.068 7.06 15963.91 10.21
10/21/2020 5:30:00 PM 15.55 59.99 0.068 7.04 8179.93 11.39
10/21/2020 5:45:00 PM 15.44 59.792 0.068 7.02 7537.74 10.57
10/21/2020 6:00:00 PM 15.34 59.612 0.068 7 7116.82 9.8
10/21/2020 6:15:00 PM 15.22 59.396 0.068 6.98 31.83 10.06
10/21/2020 6:30:00 PM 15.13 59.234 0.068 6.96 28.02 10.03
10/21/2020 6:45:00 PM 15.02 59.036 0.068 6.93 28.39 10.13
10/21/2020 7:00:00 PM 14.94 58.892 0.069 6.92 28.33 9.67
10/21/2020 7:15:00 PM 14.87 58.766 0.069 6.89 27.51 9.68
10/21/2020 7:30:00 PM 14.8 58.64 0.069 6.87 26.95 9.64
10/21/2020 7:45:00 PM 14.74 58.532 0.069 6.84 28.18 9.44
10/21/2020 8:00:00 PM 14.67 58.406 0.069 6.82 22.7 9.55
10/21/2020 8:15:00 PM 14.63 58.334 0.069 6.8 22 9.08
10/21/2020 8:30:00 PM 14.57 58.226 0.069 6.8 22.19 8.96
10/21/2020 8:45:00 PM 14.53 58.154 0.069 6.79 21.81 9.37
10/21/2020 9:00:00 PM 14.49 58.082 0.069 6.79 21.97 9.41
10/21/2020 9:15:00 PM 14.44 57.992 0.069 6.79 21.88 9.31
10/21/2020 9:30:00 PM 14.41 57.938 0.069 6.79 20.93 9.43
10/21/2020 9:45:00 PM 14.37 57.866 0.069 6.79 22 9.43
10/21/2020 10:00:00 PM 14.32 57.776 0.069 6.79 21.61 9.22
10/21/2020 10:15:00 PM 14.28 57.704 0.069 6.79 21.29 9.44
10/21/2020 10:30:00 PM 14.24 57.632 0.069 6.79 21.49 9.31
10/21/2020 10:45:00 PM 14.19 57.542 0.069 6.79 20.83 9.05
10/21/2020 11:00:00 PM 14.13 57.434 0.069 6.78 20.17 9.3
10/21/2020 11:15:00 PM 14.09 57.362 0.069 6.79 20.81 9.49
10/21/2020 11:30:00 PM 14.04 57.272 0.069 6.79 20.98 9.5
10/21/2020 11:45:00 PM 13.99 57.182 0.069 6.79 21.47 9.69
10/22/2020 12:00:00 AM 13.94 57.092 0.069 6.79 21.04 9.63
10/22/2020 12:15:00 AM 13.9 57.02 0.069 6.79 21.46 9.3
10/22/2020 12:30:00 AM 13.85 56.93 0.069 6.79 19.81 9.43
10/22/2020 12:45:00 AM 13.81 56.858 0.069 6.79 20.64 9.65
10/22/2020 1:00:00 AM 13.79 56.822 0.068 6.79 21.34 9.7
10/22/2020 1:15:00 AM 13.76 56.768 0.068 6.8 21.66 9.7
10/22/2020 1:30:00 AM 13.74 56.732 0.068 6.8 20.87 9.64
10/22/2020 1:45:00 AM 13.7 56.66 0.068 6.8 20.64 9.61
10/22/2020 2:00:00 AM 13.7 56.66 0.068 6.8 21.17 9.66
10/22/2020 2:15:00 AM 13.68 56.624 0.068 6.81 19.64 9.21
10/22/2020 2:30:00 AM 13.65 56.57 0.068 6.8 20.77 9.15
10/22/2020 2:45:00 AM 13.64 56.552 0.068 6.81 20.55 9.55
10/22/2020 3:00:00 AM 13.62 56.516 0.068 6.81 20.88 9.75
10/22/2020 3:15:00 AM 13.61 56.498 0.068 6.81 20.47 9.88
10/22/2020 3:30:00 AM 13.6 56.48 0.068 6.81 20.83 9.79
10/22/2020 3:45:00 AM 13.58 56.444 0.068 6.81 20.78 9.77
10/22/2020 4:00:00 AM 13.58 56.444 0.068 6.81 20.35 9.65
10/22/2020 4:15:00 AM 13.57 56.426 0.068 6.81 21.54 9.87
10/22/2020 4:30:00 AM 13.56 56.408 0.068 6.81 20.91 9.9
10/22/2020 4:45:00 AM 13.55 56.39 0.068 6.81 20.55 9.89
10/22/2020 5:00:00 AM 13.54 56.372 0.068 6.82 21.11 9.75
10/22/2020 5:15:00 AM 13.54 56.372 0.068 6.81 23.11 9.51
10/22/2020 5:30:00 AM 13.53 56.354 0.068 6.82 20.75 9.85
10/22/2020 5:45:00 AM 13.51 56.318 0.068 6.81 19.81 9.67
10/22/2020 6:00:00 AM 13.5 56.3 0.068 6.81 21.97 9.76
10/22/2020 6:15:00 AM 13.49 56.282 0.068 6.81 21.65 9.75
10/22/2020 6:30:00 AM 13.48 56.264 0.068 6.81 21.21 9.81
10/22/2020 6:45:00 AM 13.47 56.246 0.068 6.81 21.07 9.45
10/22/2020 7:00:00 AM 13.46 56.228 0.068 6.82 22.56 9.33
10/22/2020 7:15:00 AM 13.46 56.228 0.068 6.82 24.15 9.27
10/22/2020 7:30:00 AM 13.45 56.21 0.068 6.82 24.04 9.3
10/22/2020 7:45:00 AM 13.45 56.21 0.068 6.82 25.13 8.39
10/22/2020 8:00:00 AM 13.45 56.21 0.068 6.82 24.59 9.02
10/22/2020 8:15:00 AM 13.46 56.228 0.068 6.83 23.38 8.57
10/22/2020 8:30:00 AM 13.47 56.246 0.068 6.84 22.66 9.99
10/22/2020 8:45:00 AM 13.48 56.264 0.068 6.85 19.92 11.31
10/22/2020 9:00:00 AM 13.52 56.336 0.068 6.86 20.09 11.65
10/22/2020 9:15:00 AM 13.54 56.372 0.068 6.87 20.04 11.92
10/22/2020 9:30:00 AM 13.57 56.426 0.068 6.89 19.95 12.97
10/22/2020 9:45:00 AM 13.62 56.516 0.067 6.91 18.77 13.04
10/22/2020 10:00:00 AM 13.68 56.624 0.067 6.93 19.05 13.6
10/22/2020 10:15:00 AM 13.74 56.732 0.067 6.96 19.47 14.66
10/22/2020 10:30:00 AM 13.83 56.894 0.067 6.99 18 15.33
10/22/2020 10:45:00 AM 13.95 57.11 0.067 7.02 17.43 21.03
10/22/2020 11:00:00 AM 14.12 57.416 0.067 7.06 16.72 20.82
10/22/2020 11:15:00 AM 14.22 57.596 0.067 7.09 17.68 21.42
10/22/2020 11:30:00 AM 14.37 57.866 0.067 7.1 17.31 17.17
10/22/2020 11:45:00 AM 14.52 58.136 0.067 7.13 18.2 17.68
10/22/2020 12:00:00 PM 14.69 58.442 0.067 7.17 17.61 19.13
10/22/2020 12:15:00 PM 14.84 58.712 0.067 7.2 17.11 16.08
10/22/2020 12:30:00 PM 15.02 59.036 0.067 7.3 16.6 15.24
10/22/2020 12:45:00 PM 15.21 59.378 0.067 7.34 16.88 15.68
10/22/2020 1:00:00 PM 15.45 59.81 0.067 7.37 16.67 15.82
10/22/2020 1:15:00 PM 15.78 60.404 0.067 7.46 16.35 15.31
10/22/2020 1:30:00 PM 16.04 60.872 0.067 7.5 16.75 15.01
10/22/2020 1:45:00 PM 16.3 61.34 0.067 7.47 16.57 14.02
10/22/2020 2:00:00 PM 16.54 61.772 0.067 7.39 16.59 13.84
10/22/2020 2:15:00 PM 16.74 62.132 0.067 7.28 16.36 13.38
10/22/2020 2:30:00 PM 16.95 62.51 0.067 7.25 16.53 13.2
10/22/2020 2:45:00 PM 17.13 62.834 0.067 7.23 16.13 13.31
10/22/2020 3:00:00 PM 17.28 63.104 0.067 7.21 16.01 13.04
10/22/2020 3:15:00 PM 17.34 63.212 0.067 7.21 16.37 12.65
10/22/2020 3:30:00 PM 17.37 63.266 0.067 7.19 16.6 12.41
10/22/2020 3:45:00 PM 17.35 63.23 0.067 7.16 16.74 12.65
10/22/2020 4:00:00 PM 17.31 63.158 0.067 7.14 17.89 12.44
10/22/2020 4:15:00 PM 17.26 63.068 0.067 7.13 16.2 13.14
10/22/2020 4:30:00 PM 17.15 62.87 0.067 7.11 18 11.65
10/22/2020 4:45:00 PM 16.97 62.546 0.067 7.09 18.18 12.15
10/22/2020 5:00:00 PM 16.83 62.294 0.068 7.07 18.66 10.84
10/22/2020 5:15:00 PM 16.64 61.952 0.068 7.04 18.95 11.08
10/22/2020 5:30:00 PM 16.46 61.628 0.068 7.01 18.87 10.81
10/22/2020 5:45:00 PM 16.25 61.25 0.068 6.98 18.74 10.67
10/22/2020 6:00:00 PM 16.1 60.98 0.068 6.96 19.18 9.79
10/22/2020 6:15:00 PM 15.94 60.692 0.068 6.93 19.08 9.76
10/22/2020 6:30:00 PM 15.82 60.476 0.068 6.91 18.75 9.85
10/22/2020 6:45:00 PM 15.73 60.314 0.068 6.87 18.75 9.74
10/22/2020 7:00:00 PM 15.65 60.17 0.069 6.83 18.84 9.54
10/22/2020 7:15:00 PM 15.58 60.044 0.069 6.81 19.27 9.4
10/22/2020 7:30:00 PM 15.51 59.918 0.069 6.79 19.23 9.39
10/22/2020 7:45:00 PM 15.45 59.81 0.069 6.78 19.26 9.29
10/22/2020 8:00:00 PM 15.39 59.702 0.069 6.78 19.1 9.3
10/22/2020 8:15:00 PM 15.33 59.594 0.069 6.78 18.98 9.35
10/22/2020 8:30:00 PM 15.28 59.504 0.069 6.77 18.8 9.31
10/22/2020 8:45:00 PM 15.22 59.396 0.069 6.77 19.23 9.31
10/22/2020 9:00:00 PM 15.15 59.27 0.069 6.76 19.24 9.35
10/22/2020 9:15:00 PM 15.08 59.144 0.069 6.77 19.08 9.32
10/22/2020 9:30:00 PM 15.01 59.018 0.069 6.76 19.42 9.26
10/22/2020 9:45:00 PM 14.94 58.892 0.069 6.76 19.29 9.27
10/22/2020 10:00:00 PM 14.86 58.748 0.069 6.76 19.43 9.37
10/22/2020 10:15:00 PM 14.79 58.622 0.069 6.76 19.28 9.42
10/22/2020 10:30:00 PM 14.72 58.496 0.069 6.77 19.23 9.41
10/22/2020 10:45:00 PM 14.65 58.37 0.069 6.77 19.37 9.36
10/22/2020 11:00:00 PM 14.57 58.226 0.069 6.76 19.78 9.3
10/22/2020 11:15:00 PM 14.51 58.118 0.069 6.77 19.16 9.03
10/22/2020 11:30:00 PM 14.44 57.992 0.068 6.77 19.23 9.14
10/22/2020 11:45:00 PM 14.38 57.884 0.069 6.77 19.38 9.18
10/23/2020 12:00:00 AM 14.32 57.776 0.068 6.77 19.37 9.43
10/23/2020 12:15:00 AM 14.3 57.74 0.069 6.78 19.96 8.77
10/23/2020 12:30:00 AM 14.29 57.722 0.068 6.78 19.34 9.17
10/23/2020 12:45:00 AM 14.28 57.704 0.068 6.79 19.25 9.27
10/23/2020 1:00:00 AM 14.27 57.686 0.068 6.8 18.94 9.31
10/23/2020 1:15:00 AM 14.27 57.686 0.068 6.81 19.79 9.46
10/23/2020 1:30:00 AM 14.27 57.686 0.068 6.81 20.1 8.96
10/23/2020 1:45:00 AM 14.27 57.686 0.068 6.82 19.87 9.47
10/23/2020 2:00:00 AM 14.26 57.668 0.068 6.82 19.11 9.6
10/23/2020 2:15:00 AM 14.25 57.65 0.068 6.82 19.46 9.64
10/23/2020 2:30:00 AM 14.25 57.65 0.068 6.81 19.86 9.51
10/23/2020 2:45:00 AM 14.24 57.632 0.068 6.81 19.87 9.15
10/23/2020 3:00:00 AM 14.24 57.632 0.067 6.81 19.8 8.58
10/23/2020 3:15:00 AM 14.23 57.614 0.068 6.81 19.81 9.02
10/23/2020 3:30:00 AM 14.22 57.596 0.068 6.82 19.58 9.05
10/23/2020 3:45:00 AM 14.22 57.596 0.067 6.81 19.77 8.95
10/23/2020 4:00:00 AM 14.22 57.596 0.068 6.81 20.19 8.85
10/23/2020 4:15:00 AM 14.22 57.596 0.068 6.81 19.57 9.03
10/23/2020 4:30:00 AM 14.22 57.596 0.068 6.81 20.74 9.28
10/23/2020 4:45:00 AM 14.22 57.596 0.068 6.81 19.93 9.44
10/23/2020 5:00:00 AM 14.23 57.614 0.068 6.81 20.31 8.86
10/23/2020 5:15:00 AM 14.23 57.614 0.067 6.81 20.56 9.02
10/23/2020 5:30:00 AM 14.23 57.614 0.066 6.81 20.75 9.11
10/23/2020 5:45:00 AM 14.23 57.614 0.068 6.81 20.63 9.3
10/23/2020 6:00:00 AM 14.23 57.614 0.068 6.81 20.54 9.6
10/23/2020 6:15:00 AM 14.23 57.614 0.068 6.8 19.96 9.49
10/23/2020 6:30:00 AM 14.23 57.614 0.068 6.8 20.33 9.41
10/23/2020 6:45:00 AM 14.23 57.614 0.067 6.81 20.29 9.57
10/23/2020 7:00:00 AM 14.22 57.596 0.067 6.81 20.05 9.43
10/23/2020 7:15:00 AM 14.21 57.578 0.067 6.81 24.05 9.63
10/23/2020 7:30:00 AM 14.19 57.542 0.067 6.8 20.77 9.46
10/23/2020 7:45:00 AM 14.17 57.506 0.067 6.8 20.02 9.67
10/23/2020 8:00:00 AM 14.14 57.452 0.067 6.8 19.76 11.28
10/23/2020 8:15:00 AM 14.14 57.452 0.067 6.81 19.5 11.78
10/23/2020 8:30:00 AM 14.17 57.506 0.067 6.83 19.03 11.83
10/23/2020 8:45:00 AM 14.2 57.56 0.067 6.86 19.3 12.22
10/23/2020 9:00:00 AM 14.24 57.632 0.066 6.88 18.95 11.74
10/23/2020 9:15:00 AM 14.28 57.704 0.066 6.89 19.12 12.48
10/23/2020 9:30:00 AM 14.33 57.794 0.066 6.9 18.16 13.71
10/23/2020 9:45:00 AM 14.44 57.992 0.066 6.94 17.61 17.16
10/23/2020 10:00:00 AM 14.54 58.172 0.066 6.99 18.15 15.81
10/23/2020 10:15:00 AM 14.62 58.316 0.066 7.01 17.19 16.92
10/23/2020 10:30:00 AM 14.69 58.442 0.066 7.03 17.96 18.2
10/23/2020 10:45:00 AM 14.79 58.622 0.066 7.05 17.77 21.25
10/23/2020 11:00:00 AM 14.96 58.928 0.065 7.09 18.07 22.38
10/23/2020 11:15:00 AM 15.06 59.108 0.065 7.11 19.78 21.31
10/23/2020 11:30:00 AM 15.21 59.378 0.065 7.13 18.41 21.93
10/23/2020 11:45:00 AM 15.36 59.648 0.065 7.16 18.4 19.95
10/23/2020 12:00:00 PM 15.5 59.9 0.065 7.17 19.19 12.8
10/23/2020 12:15:00 PM 15.63 60.134 0.065 7.15 17.94 13.25
10/23/2020 12:30:00 PM 15.79 60.422 0.065 7.18 18 19.42
10/23/2020 12:45:00 PM 15.98 60.764 0.065 7.23 17.91 18.39
10/23/2020 1:00:00 PM 16.18 61.124 0.065 7.29 15.9 18.19
10/23/2020 1:15:00 PM 16.42 61.556 0.065 7.34 16.3 15.19
10/23/2020 1:30:00 PM 16.61 61.898 0.065 7.39 16.06 17.5
10/23/2020 1:45:00 PM 16.8 62.24 0.065 7.43 16.03 15.49
10/23/2020 2:00:00 PM 17 62.6 0.065 7.34 15.84 13.66
10/23/2020 2:15:00 PM 17.16 62.888 0.065 7.29 16.12 11.92
10/23/2020 2:30:00 PM 17.24 63.032 0.065 7.23 16.1 12.19
10/23/2020 2:45:00 PM 17.31 63.158 0.065 7.21 16.18 12.52
10/23/2020 3:00:00 PM 17.36 63.248 0.065 7.17 16.26 12.03
10/23/2020 3:15:00 PM 17.42 63.356 0.065 7.17 16.41 11.73
10/23/2020 3:30:00 PM 17.48 63.464 0.065 7.16 16.38 11.53
10/23/2020 3:45:00 PM 17.53 63.554 0.065 7.14 16.78 10.99
10/23/2020 4:00:00 PM 17.45 63.41 0.065 7.11 16.72 11.61
10/23/2020 4:15:00 PM 17.37 63.266 0.066 7.11 16.91 11.44
10/23/2020 4:30:00 PM 17.21 62.978 0.066 7.07 16.86 11.44
10/23/2020 4:45:00 PM 17.03 62.654 0.066 7.05 17.06 10.86
10/23/2020 5:00:00 PM 16.86 62.348 0.066 7.03 17.11 10.6
10/23/2020 5:15:00 PM 16.7 62.06 0.066 7.01 17.23 10.31
10/23/2020 5:30:00 PM 16.54 61.772 0.066 6.98 17.31 10.05
10/23/2020 5:45:00 PM 16.43 61.574 0.067 6.94 17.54 10.01
10/23/2020 6:00:00 PM 16.33 61.394 0.067 6.93 17.44 9.78
10/23/2020 6:15:00 PM 16.25 61.25 0.067 6.9 17.42 9.14
10/23/2020 6:30:00 PM 16.17 61.106 0.067 6.88 17.86 8.33
10/23/2020 6:45:00 PM 16.07 60.926 0.067 6.86 17.77 9.15
10/23/2020 7:00:00 PM 15.99 60.782 0.068 6.82 17.75 9.17
10/23/2020 7:15:00 PM 15.91 60.638 0.068 6.81 18.02 8.83
10/23/2020 7:30:00 PM 15.84 60.512 0.068 6.79 18.03 9.09
10/23/2020 7:45:00 PM 15.8 60.44 0.068 6.78 19.28 9.04
10/23/2020 8:00:00 PM 15.75 60.35 0.068 6.78 18.37 8.82
10/23/2020 8:15:00 PM 15.7 60.26 0.068 6.78 20.75 8.38
10/23/2020 8:30:00 PM 15.66 60.188 0.068 6.77 20.86 8.03
10/23/2020 8:45:00 PM 15.62 60.116 0.068 6.77 12.15 8.68
10/23/2020 9:00:00 PM 15.59 60.062 0.068 6.78 12.48 7.54
10/23/2020 9:15:00 PM 15.56 60.008 0.068 6.78 10.26 7.99
10/23/2020 9:30:00 PM 15.53 59.954 0.068 6.79 10.26 8.13
10/23/2020 9:45:00 PM 15.51 59.918 0.068 6.79 10.3 8.32
10/23/2020 10:00:00 PM 15.48 59.864 0.068 6.8 10.41 8.23
10/23/2020 10:15:00 PM 15.45 59.81 0.068 6.8 15.56 8.34
10/23/2020 10:30:00 PM 15.43 59.774 0.068 6.8 17 8.33
10/23/2020 10:45:00 PM 15.41 59.738 0.068 6.81 11.86 7.97
10/23/2020 11:00:00 PM 15.38 59.684 0.068 6.8 10.31 8.45
10/23/2020 11:15:00 PM 15.36 59.648 0.068 6.81 10.64 8.59
10/23/2020 11:30:00 PM 15.34 59.612 0.068 6.8 10.66 7.15
10/23/2020 11:45:00 PM 15.32 59.576 0.068 6.81 11.57 7.71
10/24/2020 12:00:00 AM 15.3 59.54 0.068 6.81 10.94 7.56
10/24/2020 12:15:00 AM 15.28 59.504 0.068 6.81 10.44 8.7
10/24/2020 12:30:00 AM 15.26 59.468 0.068 6.8 10.42 7.88
10/24/2020 12:45:00 AM 15.23 59.414 0.068 6.81 10.43 7.9
10/24/2020 1:00:00 AM 15.21 59.378 0.068 6.81 10.4 8
10/24/2020 1:15:00 AM 15.19 59.342 0.068 6.81 10.5 7.67
10/24/2020 1:30:00 AM 15.17 59.306 0.068 6.81 10.72 7.67
10/24/2020 1:45:00 AM 15.16 59.288 0.068 6.81 10.44 8.21
10/24/2020 2:00:00 AM 15.13 59.234 0.068 6.81 10.49 8.62
10/24/2020 2:15:00 AM 15.09 59.162 0.068 6.81 10.52 8.11
10/24/2020 2:30:00 AM 15.05 59.09 0.068 6.81 10.66 9.2
10/24/2020 2:45:00 AM 15 59 0.068 6.8 10.46 8.35
10/24/2020 3:00:00 AM 14.95 58.91 0.068 6.81 10.55 7.73
10/24/2020 3:15:00 AM 14.89 58.802 0.068 6.8 10.57 8.2
10/24/2020 3:30:00 AM 14.83 58.694 0.068 6.79 10.57 9.1
10/24/2020 3:45:00 AM 14.78 58.604 0.068 6.8 11.38 9.09
10/24/2020 4:00:00 AM 14.74 58.532 0.068 6.8 11.24 8.49
10/24/2020 4:15:00 AM 14.7 58.46 0.068 6.8 11.42 8.99
10/24/2020 4:30:00 AM 14.68 58.424 0.068 6.81 13.7 8.75
10/24/2020 4:45:00 AM 14.67 58.406 0.068 6.81 11.82 8.65
10/24/2020 5:00:00 AM 14.66 58.388 0.068 6.81 11.94 8.74
10/24/2020 5:15:00 AM 14.65 58.37 0.068 6.82 11.89 8.54
10/24/2020 5:30:00 AM 14.65 58.37 0.068 6.82 11.85 8.67
10/24/2020 5:45:00 AM 14.65 58.37 0.068 6.83 11.97 9.09
10/24/2020 6:00:00 AM 14.65 58.37 0.068 6.83 11.66 8.74
10/24/2020 6:15:00 AM 14.64 58.352 0.068 6.83 11.85 9.15
10/24/2020 6:30:00 AM 14.64 58.352 0.068 6.83 12.13 9.12
10/24/2020 6:45:00 AM 14.64 58.352 0.068 6.83 11.97 9.22
10/24/2020 7:00:00 AM 14.63 58.334 0.068 6.83 12.09 8.92
10/24/2020 7:15:00 AM 14.62 58.316 0.068 6.83 12.14 8.81
10/24/2020 7:30:00 AM 14.61 58.298 0.068 6.83 12.18 8.32
10/24/2020 7:45:00 AM 14.6 58.28 0.068 6.82 12.22 7.86
10/24/2020 8:00:00 AM 14.6 58.28 0.068 6.83 11.46 8.45
10/24/2020 8:15:00 AM 14.6 58.28 0.068 6.84 11.56 8.66
10/24/2020 8:30:00 AM 14.6 58.28 0.068 6.84 11.46 8.55
10/24/2020 8:45:00 AM 14.61 58.298 0.068 6.85 11.39 9.12
10/24/2020 9:00:00 AM 14.62 58.316 0.068 6.86 11.48 8.96
10/24/2020 9:15:00 AM 14.61 58.298 0.067 6.85 11.64 9.66
10/24/2020 9:30:00 AM 14.58 58.244 0.067 6.86 11.55 10.13
10/24/2020 9:45:00 AM 14.57 58.226 0.067 6.85 11.46 9.9
10/24/2020 10:00:00 AM 14.55 58.19 0.068 6.81 11.4 9.51
10/24/2020 10:15:00 AM 14.51 58.118 0.068 6.8 11.37 9.18
10/24/2020 10:30:00 AM 14.5 58.1 0.068 6.78 11.14 8.56
10/24/2020 10:45:00 AM 14.46 58.028 0.068 6.77 11.25 10.98
10/24/2020 11:00:00 AM 14.45 58.01 0.068 6.8 11.02 12.22
10/24/2020 11:15:00 AM 14.45 58.01 0.068 6.81 10.96 12.37
10/24/2020 11:30:00 AM 14.43 57.974 0.068 6.81 10.49 14.88
10/24/2020 11:45:00 AM 14.44 57.992 0.067 6.84 10.24 15.7
10/24/2020 12:00:00 PM 14.44 57.992 0.067 6.87 9.91 17.81
10/24/2020 12:15:00 PM 14.42 57.956 0.067 6.89 10.28 12.65
10/24/2020 12:30:00 PM 14.4 57.92 0.067 6.89 10.21 13.17
10/24/2020 12:45:00 PM 14.34 57.812 0.067 6.88 10.09 13.47
10/24/2020 1:00:00 PM 14.32 57.776 0.067 6.9 9.95 14.81
10/24/2020 1:15:00 PM 14.36 57.848 0.067 6.93 9.74 18.97
10/24/2020 1:30:00 PM 14.4 57.92 0.067 6.97 9.99 15.5
10/24/2020 1:45:00 PM 14.42 57.956 0.066 7 9.46 19.69
10/24/2020 2:00:00 PM 14.44 57.992 0.066 7.02 9.51 15.83
10/24/2020 2:15:00 PM 14.39 57.902 0.066 7.01 9.85 13
10/24/2020 2:30:00 PM 14.34 57.812 0.066 7 10.7 10.59
10/24/2020 2:45:00 PM 14.27 57.686 0.066 6.98 11.09 11.02
10/24/2020 3:00:00 PM 14.19 57.542 0.066 6.96 11.08 12.51
10/24/2020 3:15:00 PM 14.12 57.416 0.066 6.93 11.27 13.5
10/24/2020 3:30:00 PM 14.06 57.308 0.066 6.93 10.96 14.83
10/24/2020 3:45:00 PM 14.02 57.236 0.066 6.93 11.04 12.78
10/24/2020 4:00:00 PM 14 57.2 0.066 6.93 11.08 12.2
10/24/2020 4:15:00 PM 13.97 57.146 0.066 6.96 11.26 14.18
10/24/2020 4:30:00 PM 13.91 57.038 0.066 6.96 11.73 13.04
10/24/2020 4:45:00 PM 13.86 56.948 0.066 6.97 11.68 12.3
10/24/2020 5:00:00 PM 13.93 57.074 0.066 7.01 11.78 12.04
10/24/2020 5:15:00 PM 13.91 57.038 0.066 7.02 13.52 11.82
10/24/2020 5:30:00 PM 13.8 56.84 0.066 6.97 11.48 10.87
10/24/2020 5:45:00 PM 13.67 56.606 0.067 6.89 11.58 10.97
10/24/2020 6:00:00 PM 13.61 56.498 0.068 6.84 12.12 10.28
10/24/2020 6:15:00 PM 13.55 56.39 0.069 6.78 12.04 9.73
10/24/2020 6:30:00 PM 13.45 56.21 0.069 6.73 12.21 9.72
10/24/2020 6:45:00 PM 13.32 55.976 0.069 6.7 12.35 9.23
10/24/2020 7:00:00 PM 13.19 55.742 0.069 6.67 12.69 9.18
10/24/2020 7:15:00 PM 13.1 55.58 0.07 6.67 12.43 9.25
10/24/2020 7:30:00 PM 13.02 55.436 0.07 6.66 12.62 8.65
10/24/2020 7:45:00 PM 12.92 55.256 0.071 6.64 12.59 8.19
10/24/2020 8:00:00 PM 12.81 55.058 0.07 6.64 12.68 9.47
10/24/2020 8:15:00 PM 12.7 54.86 0.07 6.65 12.56 9.45
10/24/2020 8:30:00 PM 12.63 54.734 0.07 6.68 12.61 8.27
10/24/2020 8:45:00 PM 12.61 54.698 0.069 6.68 12.54 7.93
10/24/2020 9:00:00 PM 12.52 54.536 0.07 6.68 12.71 7.93
10/24/2020 9:15:00 PM 12.47 54.446 0.07 6.68 12.65 7.41
10/24/2020 9:30:00 PM 12.45 54.41 0.069 6.7 12.79 6.99
10/24/2020 9:45:00 PM 12.4 54.32 0.07 6.7 12.68 7.58
10/24/2020 10:00:00 PM 12.29 54.122 0.069 6.69 12.66 8.19
10/24/2020 10:15:00 PM 12.15 53.87 0.069 6.68 12.68 9.04
10/24/2020 10:30:00 PM 11.99 53.582 0.069 6.69 12.78 9.51
10/24/2020 10:45:00 PM 11.85 53.33 0.068 6.73 12.72 9.7
10/24/2020 11:00:00 PM 11.74 53.132 0.068 6.76 12.58 9.6
10/24/2020 11:15:00 PM 11.63 52.934 0.068 6.78 12.59 10.02
10/24/2020 11:30:00 PM 11.54 52.772 0.068 6.78 12.64 9.87
10/24/2020 11:45:00 PM 11.45 52.61 0.068 6.78 12.65 8.98
10/25/2020 12:00:00 AM 11.42 52.556 0.067 6.8 13.26 10.11
10/25/2020 12:15:00 AM 11.37 52.466 0.068 6.81 12.67 9.31
10/25/2020 12:30:00 AM 11.32 52.376 0.068 6.82 12.66 9.4
10/25/2020 12:45:00 AM 11.28 52.304 0.068 6.82 12.77 10.09
10/25/2020 1:00:00 AM 11.22 52.196 0.068 6.82 13.16 10.12
10/25/2020 1:15:00 AM 11.17 52.106 0.068 6.83 16.54 10.15
10/25/2020 1:30:00 AM 11.12 52.016 0.068 6.83 17 10.28
10/25/2020 1:45:00 AM 11.1 51.98 0.068 6.83 16.49 9.61
10/25/2020 2:00:00 AM 11.02 51.836 0.068 6.82 16.3 10
10/25/2020 2:15:00 AM 10.97 51.746 0.068 6.81 16.59 10.25
10/25/2020 2:30:00 AM 10.92 51.656 0.068 6.81 16.21 10.22
10/25/2020 2:45:00 AM 10.87 51.566 0.067 6.82 14.68 9.82
10/25/2020 3:00:00 AM 10.81 51.458 0.068 6.83 15.03 10.06
10/25/2020 3:15:00 AM 10.77 51.386 0.068 6.83 15.3 10.09
10/25/2020 3:30:00 AM 10.74 51.332 0.068 6.82 15.12 10.43
10/25/2020 3:45:00 AM 10.69 51.242 0.068 6.83 14.7 10.53
10/25/2020 4:00:00 AM 10.63 51.134 0.068 6.83 14.66 10.5
10/25/2020 4:15:00 AM 10.59 51.062 0.068 6.83 14.88 10.47
10/25/2020 4:30:00 AM 10.55 50.99 0.067 6.84 14.87 10.46
10/25/2020 4:45:00 AM 10.52 50.936 0.068 6.83 14.84 10.33
10/25/2020 5:00:00 AM 10.44 50.792 0.068 6.83 15.04 10.3
10/25/2020 5:15:00 AM 10.39 50.702 0.068 6.83 15.08 10.04
10/25/2020 5:30:00 AM 10.33 50.594 0.068 6.83 15.14 8.87
10/25/2020 5:45:00 AM 10.3 50.54 0.068 6.83 14.89 9.36
10/25/2020 6:00:00 AM 10.26 50.468 0.068 6.84 16.97 10.26
10/25/2020 6:15:00 AM 10.2 50.36 0.068 6.83 14.99 10.15
10/25/2020 6:30:00 AM 10.17 50.306 0.068 6.82 14.76 10.19
10/25/2020 6:45:00 AM 10.15 50.27 0.068 6.84 14.66 10.24
10/25/2020 7:00:00 AM 10.1 50.18 0.068 6.84 14.58 8.98
10/25/2020 7:15:00 AM 10.05 50.09 0.068 6.84 14.3 9.38
10/25/2020 7:30:00 AM 10.04 50.072 0.067 6.84 14.17 10.77
10/25/2020 7:45:00 AM 10 50 0.067 6.85 14.11 9.49
10/25/2020 8:00:00 AM 9.96 49.928 0.067 6.85 13.08 9.82
10/25/2020 8:15:00 AM 9.96 49.928 0.067 6.85 13.58 10.44
10/25/2020 8:30:00 AM 9.98 49.964 0.067 6.87 13.36 10.5
10/25/2020 8:45:00 AM 10.02 50.036 0.067 6.89 13.2 11.66
10/25/2020 9:00:00 AM 10.04 50.072 0.067 6.91 12.95 13.12
10/25/2020 9:15:00 AM 10.11 50.198 0.066 6.94 12.74 13.91
10/25/2020 9:30:00 AM 10.11 50.198 0.066 6.95 12.68 14.66
10/25/2020 9:45:00 AM 10.15 50.27 0.066 6.97 12.38 16.71
10/25/2020 10:00:00 AM 10.2 50.36 0.066 6.99 12.19 17.98
10/25/2020 10:15:00 AM 10.26 50.468 0.066 7.02 12.15 18.56
10/25/2020 10:30:00 AM 10.3 50.54 0.066 7.04 12.05 20.68
10/25/2020 10:45:00 AM 10.36 50.648 0.065 7.07 12.19 22.6
10/25/2020 11:00:00 AM 10.42 50.756 0.065 7.09 12.18 22.74
10/25/2020 11:15:00 AM 10.46 50.828 0.065 7.1 12.16 23.01
10/25/2020 11:30:00 AM 10.52 50.936 0.065 7.12 12.22 22.65
10/25/2020 11:45:00 AM 10.59 51.062 0.065 7.14 12.22 23.22
10/25/2020 12:00:00 PM 10.66 51.188 0.065 7.18 12.19 23.22
10/25/2020 12:15:00 PM 10.75 51.35 0.065 7.22 12.2 22.46
10/25/2020 12:30:00 PM 10.86 51.548 0.065 7.27 12.27 20.77
10/25/2020 12:45:00 PM 10.99 51.782 0.065 7.33 12.25 20.7
10/25/2020 1:00:00 PM 11.11 51.998 0.065 7.38 12.58 22
10/25/2020 1:15:00 PM 11.29 52.322 0.065 7.45 12.5 22.29
10/25/2020 1:30:00 PM 11.45 52.61 0.065 7.49 12.52 17.73
10/25/2020 1:45:00 PM 11.58 52.844 0.065 7.48 12.65 16.35
10/25/2020 2:00:00 PM 11.74 53.132 0.065 7.46 12.6 17.12
10/25/2020 2:15:00 PM 11.88 53.384 0.065 7.39 12.47 18.13
10/25/2020 2:30:00 PM 12.04 53.672 0.065 7.33 12.6 16.16
10/25/2020 2:45:00 PM 12.22 53.996 0.065 7.29 12.67 16
10/25/2020 3:00:00 PM 12.38 54.284 0.065 7.26 12.82 14.92
10/25/2020 3:15:00 PM 12.48 54.464 0.065 7.24 12.89 12.51
10/25/2020 3:30:00 PM 12.52 54.536 0.065 7.22 12.74 13.64
10/25/2020 3:45:00 PM 12.58 54.644 0.065 7.21 12.83 13.45
10/25/2020 4:00:00 PM 12.54 54.572 0.065 7.18 12.84 13.96
10/25/2020 4:15:00 PM 12.51 54.518 0.065 7.16 12.67 13.62
10/25/2020 4:30:00 PM 12.46 54.428 0.065 7.15 12.71 12.68
10/25/2020 4:45:00 PM 12.34 54.212 0.065 7.12 12.81 10.55
10/25/2020 5:00:00 PM 12.21 53.978 0.065 7.07 12.84 9.25
10/25/2020 5:15:00 PM 12.07 53.726 0.065 7.04 12.93 11.94
10/25/2020 5:30:00 PM 11.94 53.492 0.065 7 12.98 6.13
10/25/2020 5:45:00 PM 11.85 53.33 0.066 6.97 12.94 10.58
10/25/2020 6:00:00 PM 11.77 53.186 0.066 6.95 13.1 10.97
10/25/2020 6:15:00 PM 11.71 53.078 0.066 6.94 13.39 9.32
10/25/2020 6:30:00 PM 11.66 52.988 0.067 6.92 13.41 10.41
10/25/2020 6:45:00 PM 11.63 52.934 0.067 6.91 13.65 10.6
10/25/2020 7:00:00 PM 11.6 52.88 0.067 6.9 13.73 10.42
10/25/2020 7:15:00 PM 11.57 52.826 0.067 6.89 13.93 10.29
10/25/2020 7:30:00 PM 11.55 52.79 0.067 6.89 13.88 9.73
10/25/2020 7:45:00 PM 11.53 52.754 0.067 6.88 13.97 10.12
10/25/2020 8:00:00 PM 11.5 52.7 0.067 6.87 14.08 9.43
10/25/2020 8:15:00 PM 11.48 52.664 0.068 6.87 14.29 9.33
10/25/2020 8:30:00 PM 11.46 52.628 0.067 6.87 14.14 9.79
10/25/2020 8:45:00 PM 11.43 52.574 0.067 6.87 14.2 10.11
10/25/2020 9:00:00 PM 11.39 52.502 0.068 6.86 14.2 8.84
10/25/2020 9:15:00 PM 11.37 52.466 0.067 6.86 14.17 9.02
10/25/2020 9:30:00 PM 11.33 52.394 0.068 6.86 16.25 9.65
10/25/2020 9:45:00 PM 11.31 52.358 0.068 6.85 15.18 10.14
10/25/2020 10:00:00 PM 11.27 52.286 0.068 6.85 15.4 10.23
10/25/2020 10:15:00 PM 11.23 52.214 0.068 6.85 15.9 10.03
10/25/2020 10:30:00 PM 11.21 52.178 0.068 6.84 15.47 9.15
10/25/2020 10:45:00 PM 11.18 52.124 0.069 6.85 15.32 9.81
10/25/2020 11:00:00 PM 11.14 52.052 0.068 6.84 15.34 10.07
10/25/2020 11:15:00 PM 11.11 51.998 0.068 6.84 15.38 10.35
10/25/2020 11:30:00 PM 11.09 51.962 0.068 6.85 15.27 10.06
10/25/2020 11:45:00 PM 11.06 51.908 0.068 6.84 15.27 10.38
10/26/2020 12:00:00 AM 11.03 51.854 0.068 6.85 15.47 10.37
10/26/2020 12:15:00 AM 11.01 51.818 0.067 6.85 15.42 10.17
10/26/2020 12:30:00 AM 10.99 51.782 0.067 6.85 15.49 9.19
10/26/2020 12:45:00 AM 10.97 51.746 0.067 6.85 15.49 9.42
10/26/2020 1:00:00 AM 10.95 51.71 0.067 6.85 15.52 8.92
10/26/2020 1:15:00 AM 10.94 51.692 0.067 6.85 15.43 8.7
10/26/2020 1:30:00 AM 10.91 51.638 0.067 6.85 15.79 10.21
10/26/2020 1:45:00 AM 10.89 51.602 0.067 6.85 15.77 10.08
10/26/2020 2:00:00 AM 10.87 51.566 0.067 6.84 15.61 9.94
10/26/2020 2:15:00 AM 10.85 51.53 0.067 6.84 15.71 10.4
10/26/2020 2:30:00 AM 10.83 51.494 0.067 6.84 16.17 10.19
10/26/2020 2:45:00 AM 10.82 51.476 0.067 6.84 16.57 10.16
10/26/2020 3:00:00 AM 10.79 51.422 0.067 6.84 16.47 9.79
10/26/2020 3:15:00 AM 10.79 51.422 0.067 6.84 16.44 8.95
10/26/2020 3:30:00 AM 10.78 51.404 0.067 6.84 16.6 9.41
10/26/2020 3:45:00 AM 10.77 51.386 0.067 6.85 16.5 9.99
10/26/2020 4:00:00 AM 10.75 51.35 0.067 6.84 16.57 10.39
10/26/2020 4:15:00 AM 10.76 51.368 0.067 6.85 16.8 9.76
10/26/2020 4:30:00 AM 10.75 51.35 0.067 6.85 16.75 9.45
10/26/2020 4:45:00 AM 10.75 51.35 0.067 6.85 16.55 10.19
10/26/2020 5:00:00 AM 10.75 51.35 0.067 6.85 16.89 9.55
10/26/2020 5:15:00 AM 10.73 51.314 0.067 6.85 16.82 10.07
10/26/2020 5:30:00 AM 10.73 51.314 0.067 6.85 16.87 9.89
10/26/2020 5:45:00 AM 10.73 51.314 0.067 6.84 17.22 10.71
10/26/2020 6:00:00 AM 10.72 51.296 0.067 6.85 16.95 10.21
10/26/2020 6:15:00 AM 10.72 51.296 0.067 6.85 16.96 9.69
10/26/2020 6:30:00 AM 10.7 51.26 0.067 6.85 18.04 9.75
10/26/2020 6:45:00 AM 10.71 51.278 0.067 6.86 18.52 8.78
10/26/2020 7:00:00 AM 10.7 51.26 0.067 6.86 17.73 9.62
10/26/2020 7:15:00 AM 10.7 51.26 0.067 6.86 490.79 9.12
10/26/2020 7:30:00 AM 10.71 51.278 0.067 6.86 19.08 8.33
10/26/2020 7:45:00 AM 10.7 51.26 0.067 6.86 18.84 9.02
10/26/2020 8:00:00 AM 10.71 51.278 0.067 6.86 18.99 10.09
10/26/2020 8:15:00 AM 10.72 51.296 0.067 6.87 18.98 10.86
10/26/2020 8:30:00 AM 10.73 51.314 0.066 6.87 18.96 9.77
10/26/2020 8:45:00 AM 10.75 51.35 0.066 6.88 18.89 11.04
10/26/2020 9:00:00 AM 10.77 51.386 0.066 6.88 19.39 11.31
10/26/2020 9:15:00 AM 10.79 51.422 0.066 6.89 19.29 11.39
10/26/2020 9:30:00 AM 10.81 51.458 0.066 6.91 19.27 9.67
10/26/2020 9:45:00 AM 10.84 51.512 0.066 6.91 19.06 11.73
10/26/2020 10:00:00 AM 10.87 51.566 0.066 6.92 19.27 12.06
10/26/2020 10:15:00 AM 10.9 51.62 0.066 6.93 18.79 11.05
10/26/2020 10:30:00 AM 10.94 51.692 0.066 6.95 18.7 12.48
10/26/2020 10:45:00 AM 10.98 51.764 0.066 6.96 18.87 11.8
10/26/2020 11:00:00 AM 11.01 51.818 0.066 6.96 18.65 11.55
10/26/2020 11:15:00 AM 11.04 51.872 0.066 6.97 19.34 11.37
10/26/2020 11:30:00 AM 11.07 51.926 0.066 6.98 19.27 12.05
10/26/2020 11:45:00 AM 11.12 52.016 0.066 6.99 17.6 12.65
10/26/2020 12:00:00 PM 11.16 52.088 0.066 6.99 17.69 11.74
10/26/2020 12:15:00 PM 11.2 52.16 0.066 7 17.5 13.07
10/26/2020 12:30:00 PM 11.26 52.268 0.066 7.01 17.24 12.47
10/26/2020 12:45:00 PM 11.32 52.376 0.066 7.02 17.36 12.32
10/26/2020 1:00:00 PM 11.38 52.484 0.065 7.04 17.49 14.04
10/26/2020 1:15:00 PM 11.43 52.574 0.066 7.04 17.56 13.09
10/26/2020 1:30:00 PM 11.49 52.682 0.065 7.05 17.33 13.6
10/26/2020 1:45:00 PM 11.54 52.772 0.065 7.06 17.49 13.39
10/26/2020 2:00:00 PM 11.6 52.88 0.065 7.06 17.58 14.12
10/26/2020 2:15:00 PM 11.65 52.97 0.066 7.07 17.51 14.14
10/26/2020 2:30:00 PM 11.7 53.06 0.065 7.07 17.86 12.75
10/26/2020 2:45:00 PM 11.73 53.114 0.065 7.07 17.67 12.74
10/26/2020 3:00:00 PM 11.76 53.168 0.066 7.07 17.66 12.76
10/26/2020 3:15:00 PM 11.79 53.222 0.066 7.06 17.6 13
10/26/2020 3:30:00 PM 11.81 53.258 0.066 7.06 17.77 13.12
10/26/2020 3:45:00 PM 11.83 53.294 0.066 7.05 17.59 11.95
10/26/2020 4:00:00 PM 11.85 53.33 0.066 7.04 17.63 12.14
10/26/2020 4:15:00 PM 11.86 53.348 0.066 7.04 17.68 11.81
10/26/2020 4:30:00 PM 11.87 53.366 0.066 7.03 17.87 10.35
10/26/2020 4:45:00 PM 11.88 53.384 0.066 7.01 17.89 11.67
10/26/2020 5:00:00 PM 11.89 53.402 0.064 7 17.53 10.86
10/26/2020 5:15:00 PM 11.89 53.402 0.066 6.99 17.66 11.08
10/26/2020 5:30:00 PM 11.9 53.42 0.066 6.98 18.14 10.77
10/26/2020 5:45:00 PM 11.89 53.402 0.066 6.97 18.05 10.93
10/26/2020 6:00:00 PM 11.9 53.42 0.067 6.96 18.05 10.03
10/26/2020 6:15:00 PM 11.89 53.402 0.067 6.95 18.03 10.69
10/26/2020 6:30:00 PM 11.88 53.384 0.067 6.94 18.09 10.38
10/26/2020 6:45:00 PM 11.88 53.384 0.067 6.93 18.32 10.62
10/26/2020 7:00:00 PM 11.88 53.384 0.067 6.92 18.21 10.56
10/26/2020 7:15:00 PM 11.87 53.366 0.067 6.91 19.14 10.71
10/26/2020 7:30:00 PM 11.87 53.366 0.067 6.9 18.32 10.39
10/26/2020 7:45:00 PM 11.87 53.366 0.067 6.89 18.31 10.4
10/26/2020 8:00:00 PM 11.86 53.348 0.067 6.89 18.35 10.41
10/26/2020 8:15:00 PM 11.86 53.348 0.067 6.88 18.44 10.45
10/26/2020 8:30:00 PM 11.86 53.348 0.067 6.88 27.89 10.11
10/26/2020 8:45:00 PM 11.86 53.348 0.067 6.86 18.73 10.24
10/26/2020 9:00:00 PM 11.86 53.348 0.067 6.87 18.59 10.18
10/26/2020 9:15:00 PM 11.85 53.33 0.067 6.86 18.74 10.25
10/26/2020 9:30:00 PM 11.84 53.312 0.067 6.87 18.85 10.34
10/26/2020 9:45:00 PM 11.84 53.312 0.067 6.87 18.79 10.46
10/26/2020 10:00:00 PM 11.83 53.294 0.067 6.87 19.04 10.06
10/26/2020 10:15:00 PM 11.83 53.294 0.067 6.86 19.24 9.83
10/26/2020 10:30:00 PM 11.83 53.294 0.067 6.86 19.25 9.76
10/26/2020 10:45:00 PM 11.83 53.294 0.067 6.86 19.24 9.57
10/26/2020 11:00:00 PM 11.83 53.294 0.067 6.85 18.95 10.11
10/26/2020 11:15:00 PM 11.82 53.276 0.067 6.85 19.09 9.98
10/26/2020 11:30:00 PM 11.82 53.276 0.067 6.86 19.3 10.3
10/26/2020 11:45:00 PM 11.82 53.276 0.067 6.86 19.4 10.09
10/27/2020 12:00:00 AM 11.82 53.276 0.067 6.85 19.38 10.36
10/27/2020 12:15:00 AM 11.82 53.276 0.067 6.85 19.34 10.47
10/27/2020 12:30:00 AM 11.81 53.258 0.067 6.85 19.37 10.46
10/27/2020 12:45:00 AM 11.78 53.204 0.067 6.85 19.18 10.5
10/27/2020 1:00:00 AM 11.74 53.132 0.067 6.86 19.36 10.35
10/27/2020 1:15:00 AM 11.69 53.042 0.067 6.85 18.97 10.1
10/27/2020 1:30:00 AM 11.64 52.952 0.067 6.85 19.62 8.09
10/27/2020 1:45:00 AM 11.61 52.898 0.067 6.86 19.3 9.19
10/27/2020 2:00:00 AM 11.57 52.826 0.067 6.85 19.83 9.63
10/27/2020 2:15:00 AM 11.52 52.736 0.067 6.86 19.79 9.95
10/27/2020 2:30:00 AM 11.49 52.682 0.067 6.86 19.65 8.49
10/27/2020 2:45:00 AM 11.48 52.664 0.067 6.86 20.31 8.18
10/27/2020 3:00:00 AM 11.45 52.61 0.067 6.86 19.64 9.34
10/27/2020 3:15:00 AM 11.43 52.574 0.067 6.86 20.29 8.71
10/27/2020 3:30:00 AM 11.39 52.502 0.067 6.85 20.27 10.33
10/27/2020 3:45:00 AM 11.37 52.466 0.067 6.85 19.95 10.03
10/27/2020 4:00:00 AM 11.34 52.412 0.067 6.85 20.5 9
10/27/2020 4:15:00 AM 11.29 52.322 0.067 6.86 19.94 10.27
10/27/2020 4:30:00 AM 11.26 52.268 0.067 6.85 19.94 10.35
10/27/2020 4:45:00 AM 11.24 52.232 0.067 6.85 20.18 10.7
10/27/2020 5:00:00 AM 11.21 52.178 0.067 6.85 20.11 10.39
10/27/2020 5:15:00 AM 11.19 52.142 0.067 6.84 19.9 10.63
10/27/2020 5:30:00 AM 11.17 52.106 0.067 6.82 20.12 10.71
10/27/2020 5:45:00 AM 11.14 52.052 0.067 6.81 19.78 10.43
10/27/2020 6:00:00 AM 11.1 51.98 0.067 6.8 19.28 10.48
10/27/2020 6:15:00 AM 11.06 51.908 0.067 6.8 19.47 10.87
10/27/2020 6:30:00 AM 11.02 51.836 0.067 6.79 19.59 10.56
10/27/2020 6:45:00 AM 11 51.8 0.067 6.85 19.94 10.91
10/27/2020 7:00:00 AM 10.97 51.746 0.067 6.85 19.77 10.95
10/27/2020 7:15:00 AM 10.93 51.674 0.068 6.85 20.03 10.73
10/27/2020 7:30:00 AM 10.91 51.638 0.067 6.86 19.96 9.69
10/27/2020 7:45:00 AM 10.89 51.602 0.067 6.86 20.37 10.96
10/27/2020 8:00:00 AM 10.88 51.584 0.067 6.87 21.02 11.13
10/27/2020 8:15:00 AM 10.87 51.566 0.067 6.87 22.35 11.47
10/27/2020 8:30:00 AM 10.87 51.566 0.067 6.88 22.91 11.61
10/27/2020 8:45:00 AM 10.87 51.566 0.067 6.89 23.1 11.67
10/27/2020 9:00:00 AM 10.89 51.602 0.067 6.91 21.55 11.43
10/27/2020 9:15:00 AM 10.89 51.602 0.067 6.91 22.8 11.51
10/27/2020 9:30:00 AM 10.9 51.62 0.066 6.93 24.3 11.34
10/27/2020 9:45:00 AM 10.95 51.71 0.066 6.96 22.95 13.18
10/27/2020 10:00:00 AM 11.01 51.818 0.066 6.98 24.04 11.86
10/27/2020 10:15:00 AM 11.09 51.962 0.066 7.01 24.8 16.29
10/27/2020 10:30:00 AM 11.16 52.088 0.066 7.04 25.57 13.11
10/27/2020 10:45:00 AM 11.23 52.214 0.066 7.06 24.48 14.22
10/27/2020 11:00:00 AM 11.28 52.304 0.066 7.08 25.94 15.95
10/27/2020 11:15:00 AM 11.35 52.43 0.066 7.09 25.6 13.54
10/27/2020 11:30:00 AM 11.42 52.556 0.066 7.1 23.19 10.32
10/27/2020 11:45:00 AM 11.47 52.646 0.066 7.1 21.24 10.01
10/27/2020 12:00:00 PM 11.51 52.718 0.066 7.11 19.18 11.84
10/27/2020 12:15:00 PM 11.55 52.79 0.066 7.14 18.37 14.24
10/27/2020 12:30:00 PM 11.62 52.916 0.066 7.14 16.29 17.1
10/27/2020 12:45:00 PM 11.74 53.132 0.066 7.19 16.09 15.88
10/27/2020 1:00:00 PM 11.81 53.258 0.066 7.19 16.14 13.58
10/27/2020 1:15:00 PM 11.85 53.33 0.065 7.18 17.13 12.97
10/27/2020 1:30:00 PM 11.87 53.366 0.065 7.19 16.95 12.45
10/27/2020 1:45:00 PM 11.97 53.546 0.065 7.24 16.5 16.54
10/27/2020 2:00:00 PM 12.12 53.816 0.065 7.23 16.46 16.58
10/27/2020 2:15:00 PM 12.26 54.068 0.065 7.25 16.55 16.57
10/27/2020 2:30:00 PM 12.3 54.14 0.065 7.23 16.24 11.23
10/27/2020 2:45:00 PM 12.33 54.194 0.065 7.21 15.62 13.73
10/27/2020 3:00:00 PM 12.34 54.212 0.065 7.21 16.52 10.04
10/27/2020 3:15:00 PM 12.32 54.176 0.065 7.2 15.39 13.48
10/27/2020 3:30:00 PM 12.29 54.122 0.065 7.17 15.67 8.74
10/27/2020 3:45:00 PM 12.24 54.032 0.065 7.15 16.31 13.45
10/27/2020 4:00:00 PM 12.19 53.942 0.065 7.13 16.21 11.57
10/27/2020 4:15:00 PM 12.15 53.87 0.065 7.12 15.19 8.17
10/27/2020 4:30:00 PM 12.11 53.798 0.065 7.09 15.25 5.67
10/27/2020 4:45:00 PM 12.06 53.708 0.066 7.07 15.24 7.06
10/27/2020 5:00:00 PM 12.02 53.636 0.066 7.07 15.9 11.32
10/27/2020 5:15:00 PM 11.99 53.582 0.066 7.06 15.36 11.77
10/27/2020 5:30:00 PM 11.96 53.528 0.066 7.04 15.36 10.62
10/27/2020 5:45:00 PM 11.93 53.474 0.066 7.02 15.49 10.31
10/27/2020 6:00:00 PM 11.89 53.402 0.066 7.01 15.64 9.89
10/27/2020 6:15:00 PM 11.86 53.348 0.066 6.99 16.06 9.45
10/27/2020 6:30:00 PM 11.83 53.294 0.066 6.97 16.17 10.5
10/27/2020 6:45:00 PM 11.8 53.24 0.066 6.96 16.23 10.52
10/27/2020 7:00:00 PM 11.76 53.168 0.067 6.94 16.28 10.55
10/27/2020 7:15:00 PM 11.73 53.114 0.066 6.92 16.43 10.22
10/27/2020 7:30:00 PM 11.69 53.042 0.067 6.91 16.72 9.37
10/27/2020 7:45:00 PM 11.65 52.97 0.067 6.9 17.19 10.1
10/27/2020 8:00:00 PM 11.62 52.916 0.067 6.88 18.41 10.64
10/27/2020 8:15:00 PM 11.6 52.88 0.067 6.89 19.11 10.03
10/27/2020 8:30:00 PM 11.56 52.808 0.067 6.89 19.09 9.85
10/27/2020 8:45:00 PM 11.54 52.772 0.067 6.89 19.32 10.54
10/27/2020 9:00:00 PM 11.51 52.718 0.066 6.88 18.84 10.39
10/27/2020 9:15:00 PM 11.48 52.664 0.066 6.88 16.38 10.42
10/27/2020 9:30:00 PM 11.45 52.61 0.066 6.88 16.34 10.33
10/27/2020 9:45:00 PM 11.42 52.556 0.066 6.89 138.74 10.2
10/27/2020 10:00:00 PM 11.4 52.52 0.066 6.87 18.45 10.49
10/27/2020 10:15:00 PM 11.37 52.466 0.066 6.88 18.29 10.35
10/27/2020 10:30:00 PM 11.35 52.43 0.065 6.88 17.05 10.46
10/27/2020 10:45:00 PM 11.32 52.376 0.065 6.87 15.83 10.71
10/27/2020 11:00:00 PM 11.31 52.358 0.065 6.88 15.9 10.19
10/27/2020 11:15:00 PM 11.28 52.304 0.065 6.87 15.64 10.21
10/27/2020 11:30:00 PM 11.25 52.25 0.065 6.88 15.7 9.37
10/27/2020 11:45:00 PM 11.24 52.232 0.065 6.88 15.55 10.11
10/28/2020 12:00:00 AM 11.22 52.196 0.064 6.88 15.66 9.94
10/28/2020 12:15:00 AM 11.2 52.16 0.064 6.88 15.65 8.5
10/28/2020 12:30:00 AM 11.18 52.124 0.064 6.87 16.57 10.47
10/28/2020 12:45:00 AM 11.16 52.088 0.064 6.87 17.27 10.52
10/28/2020 1:00:00 AM 11.14 52.052 0.064 6.87 15.03 10.17
10/28/2020 1:15:00 AM 11.13 52.034 0.061 6.88 15.33 10.7
10/28/2020 1:30:00 AM 11.11 51.998 0.063 6.87 14.86 9.96
10/28/2020 1:45:00 AM 11.1 51.98 0.063 6.87 18.42 10.43
10/28/2020 2:00:00 AM 11.08 51.944 0.063 6.87 22.99 10.49
10/28/2020 2:15:00 AM 11.07 51.926 0.063 6.87 16.74 10.13
10/28/2020 2:30:00 AM 11.05 51.89 0.063 6.87 13.48 10.84
10/28/2020 2:45:00 AM 11.03 51.854 0.063 6.87 13.59 10.62
10/28/2020 3:00:00 AM 11 51.8 0.063 6.86 18.54 10.4
10/28/2020 3:15:00 AM 10.99 51.782 0.063 6.86 17.11 8.92
10/28/2020 3:30:00 AM 10.97 51.746 0.062 6.87 13.58 9.62
10/28/2020 3:45:00 AM 10.96 51.728 0.062 6.87 13.85 10.75
10/28/2020 4:00:00 AM 10.95 51.71 0.062 6.86 13.81 10.96
10/28/2020 4:15:00 AM 10.94 51.692 0.062 6.86 13.92 10.89
10/28/2020 4:30:00 AM 10.92 51.656 0.062 6.86 14.04 10.87
10/28/2020 4:45:00 AM 10.91 51.638 0.062 6.86 14.86 11.05
10/28/2020 5:00:00 AM 10.9 51.62 0.062 6.86 14.28 10.83
10/28/2020 5:15:00 AM 10.9 51.62 0.062 6.87 14.05 10.89
10/28/2020 5:30:00 AM 10.89 51.602 0.062 6.87 14.06 10.76
10/28/2020 5:45:00 AM 10.88 51.584 0.062 6.87 14.16 10.77
10/28/2020 6:00:00 AM 10.87 51.566 0.062 6.87 14.3 10.58
10/28/2020 6:15:00 AM 10.86 51.548 0.062 6.87 13.76 10.82
10/28/2020 6:30:00 AM 10.85 51.53 0.062 6.86 10.64 10.83
10/28/2020 6:45:00 AM 10.84 51.512 0.062 6.86 10.75 10.97
10/28/2020 7:00:00 AM 10.82 51.476 0.062 6.86 10.76 10.7
10/28/2020 7:15:00 AM 10.81 51.458 0.062 6.86 10.8 10.85
10/28/2020 7:30:00 AM 10.8 51.44 0.062 6.86 10.91 10.94
10/28/2020 7:45:00 AM 10.79 51.422 0.062 6.86 10.92 10.87
10/28/2020 8:00:00 AM 10.79 51.422 0.062 6.86 10.81 10.91
10/28/2020 8:15:00 AM 10.79 51.422 0.062 6.87 10.82 10.8
10/28/2020 8:30:00 AM 10.79 51.422 0.062 6.87 10.77 11.31
10/28/2020 8:45:00 AM 10.79 51.422 0.061 6.87 10.73 11.12
10/28/2020 9:00:00 AM 10.8 51.44 0.061 6.88 10.7 11.86
10/28/2020 9:15:00 AM 10.81 51.458 0.061 6.9 10.63 12
10/28/2020 9:30:00 AM 10.83 51.494 0.061 6.91 10.54 11.98
10/28/2020 9:45:00 AM 10.85 51.53 0.061 6.93 10.52 12.46
10/28/2020 10:00:00 AM 10.88 51.584 0.061 6.94 10.38 12.87
10/28/2020 10:15:00 AM 10.91 51.638 0.061 6.96 10.14 13.24
10/28/2020 10:30:00 AM 10.96 51.728 0.061 6.97 9.75 15.04
10/28/2020 10:45:00 AM 11.02 51.836 0.06 7 9.82 13.95
10/28/2020 11:00:00 AM 11.07 51.926 0.06 7.01 9.7 14.68
10/28/2020 11:15:00 AM 11.12 52.016 0.06 7.03 9.72 14.57
10/28/2020 11:30:00 AM 11.2 52.16 0.06 7.06 9.28 18.18
10/28/2020 11:45:00 AM 11.29 52.322 0.06 7.09 9.51 16.14
10/28/2020 12:00:00 PM 11.37 52.466 0.06 7.1 9.29 15.34
10/28/2020 12:15:00 PM 11.43 52.574 0.06 7.1 9.34 14.3
10/28/2020 12:30:00 PM 11.5 52.7 0.06 7.12 9.39 13.19
10/28/2020 12:45:00 PM 11.56 52.808 0.06 7.11 9.31 13.63
10/28/2020 1:00:00 PM 11.61 52.898 0.06 7.13 9.14 15.53
10/28/2020 1:15:00 PM 11.68 53.024 0.06 7.15 9.06 15.48
10/28/2020 1:30:00 PM 11.75 53.15 0.06 7.15 9.38 14.76
10/28/2020 1:45:00 PM 11.8 53.24 0.06 7.16 9.19 14.14
10/28/2020 2:00:00 PM 11.86 53.348 0.06 7.16 9.33 14.24
10/28/2020 2:15:00 PM 11.95 53.51 0.06 7.2 9.04 15.46
10/28/2020 2:30:00 PM 12.12 53.816 0.06 7.25 8.96 16.46
10/28/2020 2:45:00 PM 12.26 54.068 0.06 7.23 9.28 14.6
10/28/2020 3:00:00 PM 12.34 54.212 0.061 7.21 9.35 12.57
10/28/2020 3:15:00 PM 12.37 54.266 0.06 7.2 9.39 12.71
10/28/2020 3:30:00 PM 12.32 54.176 0.061 7.17 9.64 12.65
10/28/2020 3:45:00 PM 12.28 54.104 0.061 7.14 9.65 12.18
10/28/2020 4:00:00 PM 12.18 53.924 0.061 7.12 9.83 12.37
10/28/2020 4:15:00 PM 12.14 53.852 0.061 7.11 9.99 12.41
10/28/2020 4:30:00 PM 12.11 53.798 0.061 7.1 9.84 11.73
10/28/2020 4:45:00 PM 12.07 53.726 0.061 7.08 9.94 11.92
10/28/2020 5:00:00 PM 12.04 53.672 0.061 7.07 9.95 11.91
10/28/2020 5:15:00 PM 12.02 53.636 0.062 7.05 9.82 11.73
10/28/2020 5:30:00 PM 12 53.6 0.062 7.04 9.83 11.45
10/28/2020 5:45:00 PM 11.98 53.564 0.062 7.02 9.95 11.52
10/28/2020 6:00:00 PM 11.96 53.528 0.062 7.01 10.17 10.96
10/28/2020 6:15:00 PM 11.92 53.456 0.062 6.99 10.41 11.12
10/28/2020 6:30:00 PM 11.85 53.33 0.062 6.96 10.51 10.86
10/28/2020 6:45:00 PM 11.79 53.222 0.062 6.94 10.48 10.9
10/28/2020 7:00:00 PM 11.72 53.096 0.063 6.93 10.56 10.83
10/28/2020 7:15:00 PM 11.66 52.988 0.063 6.91 10.55 10.88
10/28/2020 7:30:00 PM 11.61 52.898 0.063 6.9 10.6 10.75
10/28/2020 7:45:00 PM 11.55 52.79 0.063 6.89 10.55 10.67
10/28/2020 8:00:00 PM 11.5 52.7 0.063 6.87 10.63 10.32
10/28/2020 8:15:00 PM 11.45 52.61 0.063 6.87 10.59 9.36
10/28/2020 8:30:00 PM 11.4 52.52 0.063 6.86 10.72 9.39
10/28/2020 8:45:00 PM 11.34 52.412 0.063 6.86 10.77 10.44
10/28/2020 9:00:00 PM 11.29 52.322 0.063 6.86 10.7 9.71
10/28/2020 9:15:00 PM 11.24 52.232 0.064 6.86 10.77 10.69
10/28/2020 9:30:00 PM 11.19 52.142 0.064 6.86 10.76 10.38
10/28/2020 9:45:00 PM 11.14 52.052 0.064 6.86 10.84 10.41
10/28/2020 10:00:00 PM 11.09 51.962 0.064 6.85 10.78 9.64
10/28/2020 10:15:00 PM 11.04 51.872 0.064 6.86 10.83 10.36
10/28/2020 10:30:00 PM 11 51.8 0.064 6.86 10.94 10.85
10/28/2020 10:45:00 PM 10.95 51.71 0.065 6.86 10.74 10.83
10/28/2020 11:00:00 PM 10.92 51.656 0.065 6.86 10.74 11
10/28/2020 11:15:00 PM 10.87 51.566 0.065 6.86 10.7 11.01
10/28/2020 11:30:00 PM 10.84 51.512 0.065 6.86 10.7 11
10/28/2020 11:45:00 PM 10.8 51.44 0.065 6.87 10.71 11.02
10/29/2020 12:00:00 AM 10.76 51.368 0.065 6.87 10.72 10.86
10/29/2020 12:15:00 AM 10.73 51.314 0.065 6.87 10.83 11.04
10/29/2020 12:30:00 AM 10.71 51.278 0.065 6.87 11.93 11.01
10/29/2020 12:45:00 AM 10.68 51.224 0.065 6.87 12.18 10.74
10/29/2020 1:00:00 AM 10.66 51.188 0.065 6.87 11.4 10.9
10/29/2020 1:15:00 AM 10.63 51.134 0.065 6.87 12.56 10.85
10/29/2020 1:30:00 AM 10.6 51.08 0.065 6.87 12.46 10.99
10/29/2020 1:45:00 AM 10.58 51.044 0.065 6.88 12.29 10.31
10/29/2020 2:00:00 AM 10.55 50.99 0.065 6.87 12.35 9.86
10/29/2020 2:15:00 AM 10.53 50.954 0.065 6.87 12.09 10.02
10/29/2020 2:30:00 AM 10.52 50.936 0.065 6.87 12.1 10.3
10/29/2020 2:45:00 AM 10.49 50.882 0.065 6.88 12.11 10.35
10/29/2020 3:00:00 AM 10.47 50.846 0.065 6.88 12.54 10.92
10/29/2020 3:15:00 AM 10.45 50.81 0.065 6.88 12.24 10.12
10/29/2020 3:30:00 AM 10.45 50.81 0.065 6.88 12.23 10.8
10/29/2020 3:45:00 AM 10.44 50.792 0.065 6.88 12.49 11.04
10/29/2020 4:00:00 AM 10.43 50.774 0.065 6.88 12.62 11.06
10/29/2020 4:15:00 AM 10.42 50.756 0.065 6.88 12.43 10.86
10/29/2020 4:30:00 AM 10.42 50.756 0.065 6.89 12.11 11.1
10/29/2020 4:45:00 AM 10.41 50.738 0.065 6.88 12.15 10.99
10/29/2020 5:00:00 AM 10.41 50.738 0.065 6.89 12.16 10.62
10/29/2020 5:15:00 AM 10.4 50.72 0.065 6.89 12.59 10.8
10/29/2020 5:30:00 AM 10.41 50.738 0.065 6.89 12.35 11.07
10/29/2020 5:45:00 AM 10.39 50.702 0.065 6.89 13.23 11.12
10/29/2020 6:00:00 AM 10.39 50.702 0.064 6.88 12.42 10.48
10/29/2020 6:15:00 AM 10.38 50.684 0.064 6.89 13.92 10.79
10/29/2020 6:30:00 AM 10.38 50.684 0.064 6.89 11.53 10.82
10/29/2020 6:45:00 AM 10.38 50.684 0.064 6.89 11.28 10.89
10/29/2020 7:00:00 AM 10.37 50.666 0.064 6.88 11.28 11.02
10/29/2020 7:15:00 AM 10.37 50.666 0.064 6.89 18.82 10.76
10/29/2020 7:30:00 AM 10.36 50.648 0.064 6.88 11.69 11.09
10/29/2020 7:45:00 AM 10.36 50.648 0.064 6.89 13.24 10.96
10/29/2020 8:00:00 AM 10.35 50.63 0.063 6.88 13.37 11.19
10/29/2020 8:15:00 AM 10.35 50.63 0.063 6.89 11.59 11.2
10/29/2020 8:30:00 AM 10.34 50.612 0.063 6.89 11.49 11.16
10/29/2020 8:45:00 AM 10.33 50.594 0.063 6.89 11.42 11.16
10/29/2020 9:00:00 AM 10.32 50.576 0.063 6.89 11.62 11.47
10/29/2020 9:15:00 AM 10.32 50.576 0.062 6.9 11.51 11.85
10/29/2020 9:30:00 AM 10.31 50.558 0.062 6.91 11.45 11.88
10/29/2020 9:45:00 AM 10.32 50.576 0.062 6.92 11.5 11.47
10/29/2020 10:00:00 AM 10.33 50.594 0.062 6.92 11.69 12.11
10/29/2020 10:15:00 AM 10.35 50.63 0.062 6.94 11.98 12.44
10/29/2020 10:30:00 AM 10.36 50.648 0.061 6.96 10.95 13.07
10/29/2020 10:45:00 AM 10.38 50.684 0.061 6.97 10.91 12.84
10/29/2020 11:00:00 AM 10.39 50.702 0.061 6.99 10.9 12.04
10/29/2020 11:15:00 AM 10.39 50.702 0.061 6.99 11.02 13.26
10/29/2020 11:30:00 AM 10.39 50.702 0.061 6.99 10.86 13.51
10/29/2020 11:45:00 AM 10.4 50.72 0.061 7 10.76 13.02
10/29/2020 12:00:00 PM 10.41 50.738 0.06 7.01 10.68 12.81
10/29/2020 12:15:00 PM 10.42 50.756 0.06 7.03 10.62 13.44
10/29/2020 12:30:00 PM 10.44 50.792 0.06 7.04 10.43 14.56
10/29/2020 12:45:00 PM 10.46 50.828 0.06 7.06 10.52 13.44
10/29/2020 1:00:00 PM 10.48 50.864 0.06 7.07 10.48 13.81
10/29/2020 1:15:00 PM 10.49 50.882 0.06 7.08 10.71 13.01
10/29/2020 1:30:00 PM 10.48 50.864 0.06 7.07 10.6 13.1
10/29/2020 1:45:00 PM 10.47 50.846 0.06 7.07 10.65 12.48
10/29/2020 2:00:00 PM 10.47 50.846 0.061 7.08 10.62 12.89
10/29/2020 2:15:00 PM 10.46 50.828 0.061 7.09 10.63 13.01
10/29/2020 2:30:00 PM 10.45 50.81 0.061 7.09 10.73 12.97
10/29/2020 2:45:00 PM 10.43 50.774 0.062 7.1 10.84 13.64
10/29/2020 3:00:00 PM 10.42 50.756 0.062 7.1 11.05 13.37
10/29/2020 3:15:00 PM 10.42 50.756 0.062 7.1 11.51 13.08
10/29/2020 3:30:00 PM 10.41 50.738 0.062 7.11 11.79 12.63
10/29/2020 3:45:00 PM 10.39 50.702 0.064 7.11 14.63 12.8
10/29/2020 4:00:00 PM 10.36 50.648 0.064 7.1 11.44 12.34
10/29/2020 4:15:00 PM 10.31 50.558 0.065 7.1 11.29 12.52
10/29/2020 4:30:00 PM 10.25 50.45 0.066 7.1 12.75 12.21
10/29/2020 4:45:00 PM 10.22 50.396 0.067 7.11 587.39 12.46
10/29/2020 5:00:00 PM 10.18 50.324 0.069 7.1 20.44 12.13
10/29/2020 5:15:00 PM 10.14 50.252 0.07 7.11 13.86 12.08
10/29/2020 5:30:00 PM 10.09 50.162 0.072 7.11 14.73 12.02
10/29/2020 5:45:00 PM 10.06 50.108 0.073 7.11 15.91 11.87
10/29/2020 6:00:00 PM 10.03 50.054 0.075 7.11 16.02 11.77
10/29/2020 6:15:00 PM 10 50 0.077 7.12 20.02 11.72
10/29/2020 6:30:00 PM 9.97 49.946 0.079 7.12 18.79 11.74
10/29/2020 6:45:00 PM 9.94 49.892 0.081 7.12 20.84 11.71
10/29/2020 7:00:00 PM 9.92 49.856 0.082 7.13 24.85 11.77
10/29/2020 7:15:00 PM 9.9 49.82 0.082 7.13 26.58 11.68
10/29/2020 7:30:00 PM 9.89 49.802 0.082 7.13 31.8 11.66
10/29/2020 7:45:00 PM 9.89 49.802 0.082 7.14 35.2 11.69
10/29/2020 8:00:00 PM 9.87 49.766 0.083 7.14 40.14 11.75
10/29/2020 8:15:00 PM 9.86 49.748 0.083 7.13 25.12 11.75
10/29/2020 8:30:00 PM 9.85 49.73 0.083 7.13 26.39 11.76
10/29/2020 8:45:00 PM 9.84 49.712 0.082 7.13 29.23 11.82
10/29/2020 9:00:00 PM 9.82 49.676 0.08 7.12 31.56 11.84
10/29/2020 9:15:00 PM 9.81 49.658 0.079 7.12 33.15 11.8
10/29/2020 9:30:00 PM 9.79 49.622 0.078 7.12 37.35 11.84
10/29/2020 9:45:00 PM 9.77 49.586 0.076 7.1 36.14 11.91
10/29/2020 10:00:00 PM 9.76 49.568 0.075 7.11 40.11 11.96
10/29/2020 10:15:00 PM 9.75 49.55 0.073 7.09 44.07 12
10/29/2020 10:30:00 PM 9.73 49.514 0.072 7.08 46.82 11.86
10/29/2020 10:45:00 PM 9.72 49.496 0.07 7.08 55.07 11.99
10/29/2020 11:00:00 PM 9.7 49.46 0.069 7.09 58.78 12.05
10/29/2020 11:15:00 PM 9.69 49.442 0.068 7.08 66.29 12.05
10/29/2020 11:30:00 PM 9.67 49.406 0.066 7.06 67.05 12.05
10/29/2020 11:45:00 PM 9.64 49.352 0.065 7.03 64.7 12.07
10/30/2020 12:00:00 AM 9.63 49.334 0.064 7 73.38 12.11
10/30/2020 12:15:00 AM 9.61 49.298 0.063 6.99 69.95 12.09
10/30/2020 12:30:00 AM 9.58 49.244 0.062 6.97 61.73 12.11
10/30/2020 12:45:00 AM 9.56 49.208 0.061 6.97 66.61 12.09
10/30/2020 1:00:00 AM 9.55 49.19 0.06 6.98 75.76 12.12
10/30/2020 1:15:00 AM 9.53 49.154 0.059 6.96 84.93 12.15
10/30/2020 1:30:00 AM 9.51 49.118 0.053 6.94 80.2 12.12
10/30/2020 1:45:00 AM 9.49 49.082 0.052 6.94 89.54 12.11
10/30/2020 2:00:00 AM 9.46 49.028 0.051 6.93 72.13 12.11
10/30/2020 2:15:00 AM 9.43 48.974 0.052 6.9 80.59 12.17
10/30/2020 2:30:00 AM 9.4 48.92 0.055 6.89 77.74 12.13
10/30/2020 2:45:00 AM 9.36 48.848 0.047 6.89 93.92 12.21
10/30/2020 3:00:00 AM 9.33 48.794 0.056 6.9 95.37 12.2
10/30/2020 3:15:00 AM 9.31 48.758 0.056 6.9 96.03 12.24
10/30/2020 3:30:00 AM 9.28 48.704 0.056 6.88 95.4 12.25
10/30/2020 3:45:00 AM 9.24 48.632 0.056 6.87 100.78 12.24
10/30/2020 4:00:00 AM 9.21 48.578 0.056 6.9 101.56 12.21
10/30/2020 4:15:00 AM 9.18 48.524 0.055 6.88 105.24 12.25
10/30/2020 4:30:00 AM 9.16 48.488 0.055 6.84 106.16 12.29
10/30/2020 4:45:00 AM 9.13 48.434 0.055 6.87 107.99 12.3
10/30/2020 5:00:00 AM 9.1 48.38 0.055 6.87 107.12 12.33
10/30/2020 5:15:00 AM 9.06 48.308 0.055 6.87 112.76 12.33
10/30/2020 5:30:00 AM 9.03 48.254 0.055 6.86 109.99 12.35
10/30/2020 5:45:00 AM 8.98 48.164 0.055 6.86 110.84 12.37
10/30/2020 6:00:00 AM 8.94 48.092 0.055 6.84 104.56 12.37
10/30/2020 6:15:00 AM 8.9 48.02 0.055 6.84 113.37 12.38
10/30/2020 6:30:00 AM 8.86 47.948 0.055 6.86 116.4 12.41
10/30/2020 6:45:00 AM 8.82 47.876 0.055 6.86 132.23 12.42
10/30/2020 7:00:00 AM 8.78 47.804 0.054 6.87 122.77 12.4
10/30/2020 7:15:00 AM 8.73 47.714 0.055 6.84 98.61 12.44
10/30/2020 7:30:00 AM 8.67 47.606 0.055 6.86 132.18 12.41
10/30/2020 7:45:00 AM 8.63 47.534 0.055 6.86 123.21 12.46
10/30/2020 8:00:00 AM 8.6 47.48 0.055 6.85 29.51 12.65
10/30/2020 8:15:00 AM 8.58 47.444 0.056 6.84 29.97 12.77
10/30/2020 8:30:00 AM 8.57 47.426 0.056 6.88 30.86 12.84
10/30/2020 8:45:00 AM 8.56 47.408 0.056 6.89 31 12.87
10/30/2020 9:00:00 AM 8.55 47.39 0.057 6.87 33.21 12.97
10/30/2020 9:15:00 AM 8.53 47.354 0.058 6.91 35.33 12.94
10/30/2020 9:30:00 AM 8.52 47.336 0.058 6.91 35.23 13.06
10/30/2020 9:45:00 AM 8.52 47.336 0.058 6.94 36.04 13.11
10/30/2020 10:00:00 AM 8.52 47.336 0.059 6.95 45.53 13.2
10/30/2020 10:15:00 AM 8.52 47.336 0.059 6.96 47.75 13.3
10/30/2020 10:30:00 AM 8.52 47.336 0.059 6.97 34.94 13.45
10/30/2020 10:45:00 AM 8.54 47.372 0.059 6.98 51.39 13.48
10/30/2020 11:00:00 AM 8.56 47.408 0.059 6.96 39.95 13.57
10/30/2020 11:15:00 AM 8.6 47.48 0.058 7 38.47 13.88
10/30/2020 11:30:00 AM 8.66 47.588 0.058 7 44.08 13.82
10/30/2020 11:45:00 AM 8.7 47.66 0.058 7.02 41.04 14.03
10/30/2020 12:00:00 PM 8.75 47.75 0.057 6.98 37.84 14.25
10/30/2020 12:15:00 PM 8.82 47.876 0.057 7.03 40.51 14.85
10/30/2020 12:30:00 PM 8.87 47.966 0.057 7.03 53.4 14.36
10/30/2020 12:45:00 PM 8.95 48.11 0.057 7.04 42.44 14.51
10/30/2020 1:00:00 PM 9.01 48.218 0.057 7.03 42.14 14.07
10/30/2020 1:15:00 PM 8.99 48.182 0.057 7.01 50.51 13.37
10/30/2020 1:30:00 PM 9.02 48.236 0.057 7 66.1 13.28
10/30/2020 1:45:00 PM 9.03 48.254 0.056 7 64.84 13.53
10/30/2020 2:00:00 PM 9.03 48.254 0.056 6.98 39.15 13.24
10/30/2020 2:15:00 PM 9 48.2 0.056 6.98 40.32 13.09
10/30/2020 2:30:00 PM 8.95 48.11 0.056 6.95 56.92 13.13
10/30/2020 2:45:00 PM 8.93 48.074 0.056 6.95 55.45 13.41
10/30/2020 3:00:00 PM 8.93 48.074 0.056 6.95 49.11 14.1
10/30/2020 3:15:00 PM 8.93 48.074 0.056 6.97 63.95 13.27
10/30/2020 3:30:00 PM 8.93 48.074 0.056 6.96 50.63 13.56
10/30/2020 3:45:00 PM 8.93 48.074 0.055 6.96 53.96 13.68
10/30/2020 4:00:00 PM 8.91 48.038 0.056 6.95 51.98 13.41
10/30/2020 4:15:00 PM 8.88 47.984 0.055 6.95 62.59 13.42
10/30/2020 4:30:00 PM 8.89 48.002 0.055 6.94 55.91 13.57
10/30/2020 4:45:00 PM 8.9 48.02 0.055 6.94 57.01 13.52
10/30/2020 5:00:00 PM 8.88 47.984 0.055 6.9 55.55 13.16
10/30/2020 5:15:00 PM 8.87 47.966 0.055 6.94 54.16 13.1
10/30/2020 5:30:00 PM 8.83 47.894 0.055 6.92 61.67 12.85
10/30/2020 5:45:00 PM 8.8 47.84 0.055 6.91 49.94 12.81
10/30/2020 6:00:00 PM 8.76 47.768 0.056 6.9 50.27 12.55
10/30/2020 6:15:00 PM 8.71 47.678 0.056 6.87 52.52 12.63
10/30/2020 6:30:00 PM 8.66 47.588 0.055 6.86 51.36 12.6
10/30/2020 6:45:00 PM 8.61 47.498 0.055 6.85 50.29 12.58
10/30/2020 7:00:00 PM 8.53 47.354 0.055 6.84 52.74 12.6
10/30/2020 7:15:00 PM 8.44 47.192 0.055 6.81 53.5 12.66
10/30/2020 7:30:00 PM 8.38 47.084 0.055 6.81 56.11 12.64
10/30/2020 7:45:00 PM 8.31 46.958 0.055 6.82 55.55 12.64
10/30/2020 8:00:00 PM 8.25 46.85 0.054 6.8 55.9 12.7
10/30/2020 8:15:00 PM 8.19 46.742 0.054 6.8 55.57 12.57
10/30/2020 8:30:00 PM 8.13 46.634 0.054 6.79 58.53 12.74
10/30/2020 8:45:00 PM 8.07 46.526 0.054 6.81 58.41 12.72
10/30/2020 9:00:00 PM 8.01 46.418 0.054 6.81 55.64 12.53
10/30/2020 9:15:00 PM 7.95 46.31 0.054 6.8 60.04 12.78
10/30/2020 9:30:00 PM 7.89 46.202 0.054 6.79 59.58 12.81
10/30/2020 9:45:00 PM 7.83 46.094 0.054 6.8 62.25 12.83
10/30/2020 10:00:00 PM 7.77 45.986 0.054 6.79 60.97 12.83
10/30/2020 10:15:00 PM 7.72 45.896 0.053 6.79 61.15 12.87
10/30/2020 10:30:00 PM 7.68 45.824 0.053 6.79 65.12 12.92
10/30/2020 10:45:00 PM 7.63 45.734 0.053 6.79 66.21 12.92
10/30/2020 11:00:00 PM 7.59 45.662 0.053 6.79 61.65 12.92
10/30/2020 11:15:00 PM 7.55 45.59 0.053 6.79 63.82 12.88
10/30/2020 11:30:00 PM 7.51 45.518 0.053 6.78 63.57 12.91
10/30/2020 11:45:00 PM 7.49 45.482 0.053 6.79 63.94 12.97
10/31/2020 12:00:00 AM 7.46 45.428 0.053 6.79 64.97 12.99
10/31/2020 12:15:00 AM 7.43 45.374 0.053 6.79 66.46 12.91
10/31/2020 12:30:00 AM 7.4 45.32 0.053 6.8 67.72 12.87
10/31/2020 12:45:00 AM 7.37 45.266 0.052 6.79 69.71 12.98
10/31/2020 1:00:00 AM 7.33 45.194 0.052 6.79 65.71 12.89
10/31/2020 1:15:00 AM 7.31 45.158 0.052 6.8 65.97 13.04
10/31/2020 1:30:00 AM 7.25 45.05 0.052 6.78 66.39 13.08
10/31/2020 1:45:00 AM 7.22 44.996 0.052 6.79 73.93 12.99
10/31/2020 2:00:00 AM 7.2 44.96 0.052 6.77 67.1 13.09
10/31/2020 2:15:00 AM 7.17 44.906 0.052 6.79 67.62 13.01
10/31/2020 2:30:00 AM 7.14 44.852 0.052 6.77 68.66 13.08
10/31/2020 2:45:00 AM 7.1 44.78 0.052 6.78 69.95 13.13
10/31/2020 3:00:00 AM 7.06 44.708 0.052 6.77 71.37 13.14
10/31/2020 3:15:00 AM 7.04 44.672 0.052 6.79 32.83 13.16
10/31/2020 3:30:00 AM 7.01 44.618 0.052 6.79 32.05 13.15
10/31/2020 3:45:00 AM 6.99 44.582 0.052 6.79 31.99 13.1
10/31/2020 4:00:00 AM 6.96 44.528 0.051 6.79 31.96 13.03
10/31/2020 4:15:00 AM 6.95 44.51 0.051 6.79 32.23 12.99
10/31/2020 4:30:00 AM 6.94 44.492 0.051 6.78 31.96 13.2
10/31/2020 4:45:00 AM 6.93 44.474 0.051 6.78 31.78 13.15
10/31/2020 5:00:00 AM 6.91 44.438 0.051 6.78 31.96 13.13
10/31/2020 5:15:00 AM 6.9 44.42 0.051 6.79 31.82 13.11
10/31/2020 5:30:00 AM 6.88 44.384 0.051 6.78 32.22 13.21
10/31/2020 5:45:00 AM 6.87 44.366 0.051 6.78 32.68 13.28
10/31/2020 6:00:00 AM 6.82 44.276 0.051 6.77 32.01 13.24
10/31/2020 6:15:00 AM 6.78 44.204 0.051 6.78 32.16 13.2
10/31/2020 6:30:00 AM 6.74 44.132 0.051 6.77 32.07 13.19
10/31/2020 6:45:00 AM 6.7 44.06 0.051 6.75 32.6 13.28
10/31/2020 7:00:00 AM 6.66 43.988 0.051 6.77 33.34 13.15
10/31/2020 7:15:00 AM 6.62 43.916 0.051 6.76 34.41 13.06
10/31/2020 7:30:00 AM 6.58 43.844 0.051 6.75 34.39 13.33
10/31/2020 7:45:00 AM 6.54 43.772 0.051 6.76 34.18 13.62
10/31/2020 8:00:00 AM 6.5 43.7 0.051 6.76 34.14 13.81
10/31/2020 8:15:00 AM 6.47 43.646 0.051 6.77 34.57 13.94
10/31/2020 8:30:00 AM 6.43 43.574 0.05 6.78 34.4 13.98
10/31/2020 8:45:00 AM 6.41 43.538 0.05 6.79 34.32 13.95
10/31/2020 9:00:00 AM 6.39 43.502 0.05 6.79 34.92 14.5
10/31/2020 9:15:00 AM 6.38 43.484 0.05 6.79 34.54 14.48
10/31/2020 9:30:00 AM 6.38 43.484 0.05 6.8 34.44 14.89
10/31/2020 9:45:00 AM 6.4 43.52 0.05 6.81 33.93 15.23
10/31/2020 10:00:00 AM 6.45 43.61 0.05 6.85 33.28 16.69
10/31/2020 10:15:00 AM 6.52 43.736 0.05 6.87 32.67 17.62
10/31/2020 10:30:00 AM 6.62 43.916 0.05 6.88 32.6 17.43
10/31/2020 10:45:00 AM 6.67 44.006 0.05 6.91 33.03 16.68
10/31/2020 11:00:00 AM 6.63 43.934 0.05 6.89 33.21 16.11
10/31/2020 11:15:00 AM 6.65 43.97 0.05 6.88 33.21 15.99
10/31/2020 11:30:00 AM 6.73 44.114 0.05 6.9 33.55 16.01
10/31/2020 11:45:00 AM 6.85 44.33 0.05 6.92 33.25 16.29
10/31/2020 12:00:00 PM 6.99 44.582 0.05 6.93 33.16 16.1
10/31/2020 12:15:00 PM 7.14 44.852 0.05 6.94 33.23 16.42
10/31/2020 12:30:00 PM 7.28 45.104 0.05 6.96 33.3 16.5
10/31/2020 12:45:00 PM 7.41 45.338 0.05 6.95 33.86 15.72
10/31/2020 1:00:00 PM 7.54 45.572 0.05 6.96 33.63 16.27
10/31/2020 1:15:00 PM 7.65 45.77 0.05 6.96 33.48 15.21
10/31/2020 1:30:00 PM 7.73 45.914 0.05 6.95 33.74 16.05
10/31/2020 1:45:00 PM 7.79 46.022 0.05 6.99 33.57 15.8
10/31/2020 2:00:00 PM 7.89 46.202 0.05 7.03 33.87 15.95
10/31/2020 2:15:00 PM 8.06 46.508 0.05 7.03 34.22 16.82
10/31/2020 2:30:00 PM 8.11 46.598 0.05 7 34.07 16.41
10/31/2020 2:45:00 PM 8.14 46.652 0.05 6.98 34.24 16.48
10/31/2020 3:00:00 PM 8.17 46.706 0.05 6.96 34.49 15.12
10/31/2020 3:15:00 PM 8.15 46.67 0.05 6.94 34.71 14.19
10/31/2020 3:30:00 PM 8.11 46.598 0.05 6.93 34.94 14.2
10/31/2020 3:45:00 PM 8.09 46.562 0.05 6.92 35.17 13.98
10/31/2020 4:00:00 PM 8.04 46.472 0.05 6.9 35.56 13.72
10/31/2020 4:15:00 PM 8 46.4 0.05 6.89 35.91 13.68
10/31/2020 4:30:00 PM 7.95 46.31 0.05 6.88 36.12 13.44
10/31/2020 4:45:00 PM 7.9 46.22 0.05 6.86 36.42 13.59
10/31/2020 5:00:00 PM 7.85 46.13 0.05 6.85 37.16 13.34
10/31/2020 5:15:00 PM 7.8 46.04 0.05 6.85 37.4 13.3
10/31/2020 5:30:00 PM 7.74 45.932 0.05 6.83 37.5 13.3
10/31/2020 5:45:00 PM 7.67 45.806 0.051 6.82 37.4 12.87
10/31/2020 6:00:00 PM 7.59 45.662 0.051 6.8 37.66 12.66
10/31/2020 6:15:00 PM 7.52 45.536 0.051 6.79 37.57 12.96
10/31/2020 6:30:00 PM 7.45 45.41 0.051 6.79 37.69 12.78
10/31/2020 6:45:00 PM 7.38 45.284 0.051 6.77 37.92 12.76
10/31/2020 7:00:00 PM 7.32 45.176 0.051 6.76 38.2 12.86
10/31/2020 7:15:00 PM 7.26 45.068 0.051 6.76 38.39 12.69
10/31/2020 7:30:00 PM 7.19 44.942 0.051 6.75 38.63 12.58
10/31/2020 7:45:00 PM 7.13 44.834 0.051 6.75 38.6 12.57
10/31/2020 8:00:00 PM 7.07 44.726 0.051 6.74 38.45 12.47
10/31/2020 8:15:00 PM 7.01 44.618 0.051 6.74 38.24 12.52
10/31/2020 8:30:00 PM 6.95 44.51 0.051 6.74 38.19 12.34
10/31/2020 8:45:00 PM 6.9 44.42 0.051 6.73 41.18 12.85
10/31/2020 9:00:00 PM 6.86 44.348 0.051 6.73 41.36 12.51
10/31/2020 9:15:00 PM 6.82 44.276 0.051 6.74 41.37 12.76
10/31/2020 9:30:00 PM 6.78 44.204 0.051 6.74 40.47 12.91
10/31/2020 9:45:00 PM 6.75 44.15 0.051 6.75 40.41 12.85
10/31/2020 10:00:00 PM 6.72 44.096 0.051 6.75 40.6 12.84
10/31/2020 10:15:00 PM 6.69 44.042 0.051 6.75 41.25 12.99
10/31/2020 10:30:00 PM 6.66 43.988 0.051 6.76 41.58 12.59
10/31/2020 10:45:00 PM 6.63 43.934 0.051 6.76 41.47 12.81
10/31/2020 11:00:00 PM 6.59 43.862 0.051 6.76 41.69 12.56
10/31/2020 11:15:00 PM 6.56 43.808 0.051 6.75 41.65 12.82
10/31/2020 11:30:00 PM 6.53 43.754 0.052 6.75 41.87 12.96
10/31/2020 11:45:00 PM 6.49 43.682 0.052 6.75 41.68 12.75
11/1/2020 12:00:00 AM 6.46 43.628 0.052 6.76 41.66 12.86
11/1/2020 12:15:00 AM 6.42 43.556 0.052 6.76 41.74 12.85
11/1/2020 12:30:00 AM 6.39 43.502 0.052 6.75 41.97 12.83
11/1/2020 12:45:00 AM 6.36 43.448 0.052 6.76 41.78 13.04
11/1/2020 1:00:00 AM 6.33 43.394 0.052 6.76 41.93 13
11/1/2020 1:15:00 AM 6.3 43.34 0.052 6.76 43.13 12.91
11/1/2020 1:30:00 AM 6.28 43.304 0.052 6.76 42.94 12.69
11/1/2020 1:45:00 AM 6.27 43.286 0.052 6.76 42.88 13.03
11/1/2020 2:00:00 AM 6.26 43.268 0.052 6.77 42.94 12.97
11/1/2020 2:15:00 AM 6.27 43.286 0.052 6.77 42.56 12.73
11/1/2020 2:30:00 AM 6.27 43.286 0.052 6.78 42.62 12.9
11/1/2020 2:45:00 AM 6.28 43.304 0.052 6.78 42.88 12.91
11/1/2020 3:00:00 AM 6.28 43.304 0.052 6.77 43.06 13.06
11/1/2020 3:15:00 AM 6.29 43.322 0.052 6.78 43.33 13.11
11/1/2020 3:30:00 AM 6.3 43.34 0.052 6.79 43.55 12.49
11/1/2020 3:45:00 AM 6.31 43.358 0.052 6.78 43.68 12.81
11/1/2020 4:00:00 AM 6.32 43.376 0.052 6.78 43.67 12.77
11/1/2020 4:15:00 AM 6.33 43.394 0.052 6.79 43.42 12.97
11/1/2020 4:30:00 AM 6.34 43.412 0.052 6.79 43.72 12.59
11/1/2020 4:45:00 AM 6.36 43.448 0.052 6.79 43.34 12.99
11/1/2020 5:00:00 AM 6.38 43.484 0.052 6.79 43.72 12.76
11/1/2020 5:15:00 AM 6.39 43.502 0.052 6.79 43.82 12.75
11/1/2020 5:30:00 AM 6.4 43.52 0.052 6.79 43.68 12.94
11/1/2020 5:45:00 AM 6.42 43.556 0.052 6.79 43.5 12.96
11/1/2020 6:00:00 AM 6.43 43.574 0.052 6.8 43.84 12.81
11/1/2020 6:15:00 AM 6.45 43.61 0.052 6.79 43.81 12.95
11/1/2020 6:30:00 AM 6.47 43.646 0.052 6.79 44 12.75
11/1/2020 6:45:00 AM 6.48 43.664 0.052 6.79 43.86 12.73
11/1/2020 7:00:00 AM 6.5 43.7 0.052 6.8 43.93 12.96
11/1/2020 7:15:00 AM 6.52 43.736 0.052 6.79 44.12 12.94
11/1/2020 7:30:00 AM 6.53 43.754 0.052 6.79 44.19 12.63
11/1/2020 7:45:00 AM 6.55 43.79 0.052 6.8 44.18 12.85
11/1/2020 8:00:00 AM 6.57 43.826 0.053 6.8 44.14 12.43
11/1/2020 8:15:00 AM 6.59 43.862 0.053 6.8 44.1 13.15
11/1/2020 8:30:00 AM 6.62 43.916 0.053 6.81 44.18 12.93
11/1/2020 8:45:00 AM 6.65 43.97 0.053 6.81 44.33 13.15
11/1/2020 9:00:00 AM 6.68 44.024 0.053 6.81 44.34 12.49
11/1/2020 9:15:00 AM 6.71 44.078 0.052 6.82 44.08 13.1
11/1/2020 9:30:00 AM 6.74 44.132 0.052 6.83 44.15 13.48
11/1/2020 9:45:00 AM 6.78 44.204 0.052 6.83 44.41 13.09
11/1/2020 10:00:00 AM 6.81 44.258 0.052 6.84 44.29 13.02
11/1/2020 10:15:00 AM 6.85 44.33 0.052 6.84 44.2 13.75
11/1/2020 10:30:00 AM 6.89 44.402 0.052 6.85 44.23 13.88
11/1/2020 10:45:00 AM 6.94 44.492 0.052 6.86 43.86 13.76
11/1/2020 11:00:00 AM 7 44.6 0.052 6.87 43.94 13.86
11/1/2020 11:15:00 AM 7.04 44.672 0.052 6.88 44 14.63
11/1/2020 11:30:00 AM 7.09 44.762 0.052 6.87 43.84 13.98
11/1/2020 11:45:00 AM 7.14 44.852 0.052 6.88 44.01 13.51
11/1/2020 12:00:00 PM 7.17 44.906 0.052 6.89 45.02 13.69
11/1/2020 12:15:00 PM 7.21 44.978 0.052 6.88 44.85 13.45
11/1/2020 12:30:00 PM 7.41 45.338 0.052 6.88 46.08 12.97
11/1/2020 12:45:00 PM 7.45 45.41 0.052 6.88 45.69 13.49
11/1/2020 1:00:00 PM 7.49 45.482 0.052 6.88 45.83 13.73
11/1/2020 1:15:00 PM 7.54 45.572 0.051 6.88 45.9 13.43
11/1/2020 1:30:00 PM 7.57 45.626 0.051 6.88 45.74 13.37
11/1/2020 1:45:00 PM 7.6 45.68 0.051 6.88 46.25 13.03
11/1/2020 2:00:00 PM 7.62 45.716 0.051 6.87 45.99 13.17
11/1/2020 2:15:00 PM 7.64 45.752 0.051 6.85 46.3 12.86
11/1/2020 2:30:00 PM 7.67 45.806 0.052 6.85 46.42 12.77
11/1/2020 2:45:00 PM 7.69 45.842 0.052 6.86 46.27 12.67
11/1/2020 3:00:00 PM 7.72 45.896 0.052 6.86 46 12.36
11/1/2020 3:15:00 PM 7.73 45.914 0.052 6.86 46.13 13.05
11/1/2020 3:30:00 PM 7.76 45.968 0.052 6.85 45.64 13.33
11/1/2020 3:45:00 PM 7.79 46.022 0.052 6.85 45.74 12.99
11/1/2020 4:00:00 PM 7.81 46.058 0.052 6.85 45.76 12.79
11/1/2020 4:15:00 PM 7.82 46.076 0.052 6.85 45.85 12.57
11/1/2020 4:30:00 PM 7.83 46.094 0.052 6.85 46.13 12.62
11/1/2020 4:45:00 PM 7.84 46.112 0.053 6.85 45.99 12.64
11/1/2020 5:00:00 PM 7.83 46.094 0.053 6.85 46.25 12.59
11/1/2020 5:15:00 PM 7.79 46.022 0.053 6.84 45.87 12.57
11/1/2020 5:30:00 PM 7.76 45.968 0.053 6.84 46.64 12.41
11/1/2020 5:45:00 PM 7.74 45.932 0.053 6.84 46.65 12.29
11/1/2020 6:00:00 PM 7.73 45.914 0.054 6.83 46.91 12.26
11/1/2020 6:15:00 PM 7.72 45.896 0.054 6.83 47.1 12.19
11/1/2020 6:30:00 PM 7.7 45.86 0.055 6.83 47.03 12.3
11/1/2020 6:45:00 PM 7.68 45.824 0.056 6.83 47.65 12
11/1/2020 7:00:00 PM 7.66 45.788 0.057 6.83 47.19 12.13
11/1/2020 7:15:00 PM 7.66 45.788 0.058 6.84 47.77 12.46
11/1/2020 7:30:00 PM 7.63 45.734 0.058 6.84 47.42 12.17
11/1/2020 7:45:00 PM 7.59 45.662 0.058 6.84 47.62 12.31
11/1/2020 8:00:00 PM 7.53 45.554 0.058 6.84 47.96 12.43
11/1/2020 8:15:00 PM 7.48 45.464 0.058 6.83 48.18 12.36
11/1/2020 8:30:00 PM 7.45 45.41 0.058 6.84 48.24 12.33
11/1/2020 8:45:00 PM 7.39 45.302 0.058 6.83 48.22 12.5
11/1/2020 9:00:00 PM 7.32 45.176 0.058 6.83 48.31 12.56
11/1/2020 9:15:00 PM 7.26 45.068 0.058 6.83 48.1 12.5
11/1/2020 9:30:00 PM 7.21 44.978 0.058 6.83 51.32 12.67
11/1/2020 9:45:00 PM 7.17 44.906 0.059 6.83 51.46 12.49
11/1/2020 10:00:00 PM 7.12 44.816 0.059 6.82 51.72 12.48
11/1/2020 10:15:00 PM 7.07 44.726 0.059 6.84 51.36 12.51
11/1/2020 10:30:00 PM 7.03 44.654 0.058 6.84 51.32 12.35
11/1/2020 10:45:00 PM 7 44.6 0.058 6.83 51.65 12.56
11/1/2020 11:00:00 PM 6.94 44.492 0.058 6.84 51.88 12.35
11/1/2020 11:15:00 PM 6.9 44.42 0.057 6.81 52.35 12.69
11/1/2020 11:30:00 PM 6.87 44.366 0.057 6.84 47.77 12.51
11/1/2020 11:45:00 PM 6.82 44.276 0.057 6.84 47.75 12.75
11/2/2020 12:00:00 AM 6.76 44.168 0.057 6.83 48.04 12.56
11/2/2020 12:15:00 AM 6.71 44.078 0.056 6.83 48.42 12.58
11/2/2020 12:30:00 AM 6.65 43.97 0.056 6.83 48.22 12.74
11/2/2020 12:45:00 AM 6.59 43.862 0.056 6.82 48.04 12.81
11/2/2020 1:00:00 AM 6.55 43.79 0.055 6.83 48.08 12.75
11/2/2020 1:15:00 AM 6.52 43.736 0.055 6.83 48.83 12.68
11/2/2020 1:30:00 AM 6.5 43.7 0.055 6.83 48.3 12.41
11/2/2020 1:45:00 AM 6.48 43.664 0.055 6.83 48.56 12.93
11/2/2020 2:00:00 AM 6.46 43.628 0.055 6.83 48.64 13.01
11/2/2020 2:15:00 AM 6.45 43.61 0.054 6.84 48.76 12.91
11/2/2020 2:30:00 AM 6.42 43.556 0.054 6.83 48.77 12.87
11/2/2020 2:45:00 AM 6.4 43.52 0.054 6.83 47.88 12.87
11/2/2020 3:00:00 AM 6.37 43.466 0.054 6.83 47.71 13.01
11/2/2020 3:15:00 AM 6.35 43.43 0.054 6.84 48.87 12.97
11/2/2020 3:30:00 AM 6.33 43.394 0.054 6.84 48.85 12.81
11/2/2020 3:45:00 AM 6.32 43.376 0.054 6.83 49 12.93
11/2/2020 4:00:00 AM 6.31 43.358 0.054 6.83 49.04 12.93
11/2/2020 4:15:00 AM 6.3 43.34 0.054 6.83 49.13 13
11/2/2020 4:30:00 AM 6.29 43.322 0.053 6.83 49.37 12.8
11/2/2020 4:45:00 AM 6.26 43.268 0.053 6.82 49.28 13.07
11/2/2020 5:00:00 AM 6.22 43.196 0.053 6.82 49.55 12.96
11/2/2020 5:15:00 AM 6.19 43.142 0.053 6.82 49.48 13.02
11/2/2020 5:30:00 AM 6.13 43.034 0.053 6.81 49.12 13.07
11/2/2020 5:45:00 AM 6.08 42.944 0.053 6.82 49.4 13.21
11/2/2020 6:00:00 AM 6.03 42.854 0.053 6.81 50.09 13.14
11/2/2020 6:15:00 AM 6 42.8 0.053 6.81 50.15 13.26
11/2/2020 6:30:00 AM 5.96 42.728 0.053 6.81 50.4 13.27
11/2/2020 6:45:00 AM 5.93 42.674 0.052 6.81 50.37 13.34
11/2/2020 7:00:00 AM 5.88 42.584 0.052 6.81 49.95 13.71
11/2/2020 7:15:00 AM 5.83 42.494 0.052 6.81 50.29 13.68
11/2/2020 7:30:00 AM 5.77 42.386 0.052 6.81 50.7 13.94
11/2/2020 7:45:00 AM 5.72 42.296 0.052 6.82 50.42 14.11
11/2/2020 8:00:00 AM 5.66 42.188 0.052 6.82 50.54 14.4
11/2/2020 8:15:00 AM 5.63 42.134 0.051 6.83 50.19 15.47
11/2/2020 8:30:00 AM 5.59 42.062 0.051 6.84 49.63 15.01
11/2/2020 8:45:00 AM 5.59 42.062 0.051 6.86 49.59 15
11/2/2020 9:00:00 AM 5.6 42.08 0.051 6.87 49.27 16.05
11/2/2020 9:15:00 AM 5.61 42.098 0.051 6.89 49.05 15.84
11/2/2020 9:30:00 AM 5.62 42.116 0.051 6.89 48.84 16.33
11/2/2020 9:45:00 AM 5.64 42.152 0.051 6.91 48.4 17.68
11/2/2020 10:00:00 AM 5.7 42.26 0.051 6.92 48.01 18.73
11/2/2020 10:15:00 AM 5.75 42.35 0.051 6.93 48.08 18.31
11/2/2020 10:30:00 AM 5.8 42.44 0.051 6.94 47.74 18.25
11/2/2020 10:45:00 AM 5.88 42.584 0.051 6.95 47.73 16.66
11/2/2020 11:00:00 AM 5.95 42.71 0.051 6.97 47.6 16.15
11/2/2020 11:15:00 AM 6.02 42.836 0.051 6.98 47.04 17.45
11/2/2020 11:30:00 AM 6.13 43.034 0.051 7.04 48.12 16.21
11/2/2020 11:45:00 AM 6.29 43.322 0.051 7.06 48.56 16.08
11/2/2020 12:00:00 PM 6.48 43.664 0.051 7.11 48.62 16.49
11/2/2020 12:15:00 PM 6.67 44.006 0.051 7.12 49.04 15.45
11/2/2020 12:30:00 PM 6.74 44.132 0.05 7.12 49.06 15.74
11/2/2020 12:45:00 PM 6.8 44.24 0.05 7.09 50.99 14.85
11/2/2020 1:00:00 PM 6.88 44.384 0.05 7.07 49.27 15.58
11/2/2020 1:15:00 PM 6.92 44.456 0.05 7.03 49.46 15.1
11/2/2020 1:30:00 PM 6.96 44.528 0.05 7 49.67 14.48
11/2/2020 1:45:00 PM 6.97 44.546 0.05 6.98 50.04 14.42
11/2/2020 2:00:00 PM 7.02 44.636 0.05 6.96 50.12 14.74
11/2/2020 2:15:00 PM 7.01 44.618 0.05 6.95 50.38 14.47
11/2/2020 2:30:00 PM 7 44.6 0.05 6.94 50.33 14.08
11/2/2020 2:45:00 PM 6.96 44.528 0.05 6.94 50.76 14.02
11/2/2020 3:00:00 PM 6.89 44.402 0.05 6.91 51.09 13.87
11/2/2020 3:15:00 PM 6.81 44.258 0.05 6.9 50.77 13.83
11/2/2020 3:30:00 PM 6.71 44.078 0.051 6.89 51.18 13.8
11/2/2020 3:45:00 PM 6.61 43.898 0.051 6.88 51.37 13.48
11/2/2020 4:00:00 PM 6.53 43.754 0.051 6.85 51.68 13.54
11/2/2020 4:15:00 PM 6.42 43.556 0.051 6.84 52.76 13.72
11/2/2020 4:30:00 PM 6.31 43.358 0.051 6.82 52.54 13.51
11/2/2020 4:45:00 PM 6.21 43.178 0.051 6.8 52.62 13.45
11/2/2020 5:00:00 PM 6.14 43.052 0.051 6.8 53.01 13.15
11/2/2020 5:15:00 PM 6.07 42.926 0.051 6.79 53.19 12.9
11/2/2020 5:30:00 PM 6.02 42.836 0.051 6.79 53.2 13.02
11/2/2020 5:45:00 PM 5.94 42.692 0.051 6.78 53.41 13.08
11/2/2020 6:00:00 PM 5.88 42.584 0.051 6.78 54.17 13.03
11/2/2020 6:15:00 PM 5.83 42.494 0.051 6.78 54.81 13.1
11/2/2020 6:30:00 PM 5.79 42.422 0.052 6.78 55.2 13.1
11/2/2020 6:45:00 PM 5.75 42.35 0.051 6.77 55.37 12.78
11/2/2020 7:00:00 PM 5.73 42.314 0.051 6.77 54.7 12.94
11/2/2020 7:15:00 PM 5.71 42.278 0.052 6.78 55.25 12.72
11/2/2020 7:30:00 PM 5.69 42.242 0.051 6.78 55.13 12.91
11/2/2020 7:45:00 PM 5.68 42.224 0.051 6.78 55.64 12.99
11/2/2020 8:00:00 PM 5.68 42.224 0.051 6.78 55.55 12.64
11/2/2020 8:15:00 PM 5.68 42.224 0.051 6.79 55.23 13.14
11/2/2020 8:30:00 PM 5.66 42.188 0.051 6.79 55.3 12.96
11/2/2020 8:45:00 PM 5.66 42.188 0.051 6.79 55.39 12.72
11/2/2020 9:00:00 PM 5.65 42.17 0.051 6.79 55.46 13.21
11/2/2020 9:15:00 PM 5.65 42.17 0.051 6.78 55.4 13.04
11/2/2020 9:30:00 PM 5.66 42.188 0.051 6.79 55.72 13.07
11/2/2020 9:45:00 PM 5.66 42.188 0.051 6.79 55.77 13.05
11/2/2020 10:00:00 PM 5.66 42.188 0.051 6.79 55.61 12.65
11/2/2020 10:15:00 PM 5.62 42.116 0.051 6.79 55.9 12.89
11/2/2020 10:30:00 PM 5.6 42.08 0.051 6.78 55.7 12.72
11/2/2020 10:45:00 PM 5.58 42.044 0.051 6.78 56.11 12.97
11/2/2020 11:00:00 PM 5.56 42.008 0.051 6.78 56.5 13.13
11/2/2020 11:15:00 PM 5.54 41.972 0.051 6.78 56.82 12.9
11/2/2020 11:30:00 PM 5.51 41.918 0.051 6.78 56.64 12.82
11/2/2020 11:45:00 PM 5.5 41.9 0.051 6.78 56.38 12.83
11/3/2020 12:00:00 AM 5.48 41.864 0.051 6.78 56.73 13.15
11/3/2020 12:15:00 AM 5.47 41.846 0.051 6.78 56.44 13.01
11/3/2020 12:30:00 AM 5.47 41.846 0.051 6.77 56.4 13.19
11/3/2020 12:45:00 AM 5.45 41.81 0.051 6.78 57.04 12.97
11/3/2020 1:00:00 AM 5.43 41.774 0.051 6.78 56.4 12.91
11/3/2020 1:15:00 AM 5.41 41.738 0.051 6.77 56.63 12.94
11/3/2020 1:30:00 AM 5.39 41.702 0.051 6.77 56.84 13.15
11/3/2020 1:45:00 AM 5.38 41.684 0.051 6.78 56.52 13.13
11/3/2020 2:00:00 AM 5.38 41.684 0.051 6.78 56.85 13.12
11/3/2020 2:15:00 AM 5.38 41.684 0.051 6.78 56.84 13.09
11/3/2020 2:30:00 AM 5.38 41.684 0.051 6.78 57.03 13.08
11/3/2020 2:45:00 AM 5.38 41.684 0.051 6.79 56.79 13.16
11/3/2020 3:00:00 AM 5.38 41.684 0.051 6.79 57.54 13.15
11/3/2020 3:15:00 AM 5.38 41.684 0.051 6.78 57.46 13.09
11/3/2020 3:30:00 AM 5.38 41.684 0.051 6.78 57.67 13.11
11/3/2020 3:45:00 AM 5.39 41.702 0.051 6.79 57.68 13.26
11/3/2020 4:00:00 AM 5.38 41.684 0.051 6.79 57.59 13.2
11/3/2020 4:15:00 AM 5.38 41.684 0.051 6.78 57.17 13.08
11/3/2020 4:30:00 AM 5.36 41.648 0.051 6.78 57.5 12.8
11/3/2020 4:45:00 AM 5.35 41.63 0.051 6.79 57.69 12.9
11/3/2020 5:00:00 AM 5.34 41.612 0.051 6.79 57.75 12.96
11/3/2020 5:15:00 AM 5.33 41.594 0.051 6.78 57.36 13.2
11/3/2020 5:30:00 AM 5.32 41.576 0.051 6.78 57.47 13.19
11/3/2020 5:45:00 AM 5.31 41.558 0.051 6.78 57.75 12.98
11/3/2020 6:00:00 AM 5.29 41.522 0.051 6.78 57.88 13.23
11/3/2020 6:15:00 AM 5.28 41.504 0.051 6.78 57.83 13.13
11/3/2020 6:30:00 AM 5.27 41.486 0.051 6.78 57.82 13.28
11/3/2020 6:45:00 AM 5.27 41.486 0.052 6.78 57.71 13.45
11/3/2020 7:00:00 AM 5.27 41.486 0.052 6.79 57.6 13.93
11/3/2020 7:15:00 AM 5.28 41.504 0.052 6.8 57.47 13.81
11/3/2020 7:30:00 AM 5.29 41.522 0.051 6.81 57.08 14.21
11/3/2020 7:45:00 AM 5.31 41.558 0.051 6.82 58.29 14.83
11/3/2020 8:00:00 AM 5.34 41.612 0.051 6.83 58.5 15.35
11/3/2020 8:15:00 AM 5.39 41.702 0.051 6.84 57.48 16.72
11/3/2020 8:30:00 AM 5.46 41.828 0.051 6.86 56.72 16.04
11/3/2020 8:45:00 AM 5.52 41.936 0.051 6.87 56.8 17.41
11/3/2020 9:00:00 AM 5.6 42.08 0.051 6.89 56.51 18.04
11/3/2020 9:15:00 AM 5.68 42.224 0.051 6.91 56 19.12
11/3/2020 9:30:00 AM 5.78 42.404 0.051 6.93 55.59 18.71
11/3/2020 9:45:00 AM 5.89 42.602 0.051 6.93 55.75 18.09
11/3/2020 10:00:00 AM 5.99 42.782 0.051 6.95 55.89 19.25
11/3/2020 10:15:00 AM 6.08 42.944 0.051 6.95 55.57 19.85
11/3/2020 10:30:00 AM 6.17 43.106 0.051 6.96 55.7 18.71
11/3/2020 10:45:00 AM 6.23 43.214 0.051 6.95 55.62 17.45
11/3/2020 11:00:00 AM 6.33 43.394 0.051 6.96 55.67 16.08
11/3/2020 11:15:00 AM 6.42 43.556 0.051 6.96 56.33 15.46
11/3/2020 11:30:00 AM 6.57 43.826 0.051 6.99 55.28 18.86
11/3/2020 11:45:00 AM 6.76 44.168 0.051 7.02 55.68 18.61
11/3/2020 12:00:00 PM 6.98 44.564 0.051 7.09 55.25 18.84
11/3/2020 12:15:00 PM 7.25 45.05 0.051 7.15 55.49 17.8
11/3/2020 12:30:00 PM 7.48 45.464 0.051 7.16 55.94 17.61
11/3/2020 12:45:00 PM 7.66 45.788 0.051 7.12 55.25 16.43
11/3/2020 1:00:00 PM 7.82 46.076 0.051 7.09 56.05 16.75
11/3/2020 1:15:00 PM 8.01 46.418 0.051 7.06 55.77 17.07
11/3/2020 1:30:00 PM 8.13 46.634 0.051 7.06 55.84 17.46
11/3/2020 1:45:00 PM 8.18 46.724 0.051 7.03 56.36 16.04
11/3/2020 2:00:00 PM 8.13 46.634 0.051 7.02 56.26 16.31
11/3/2020 2:15:00 PM 8.12 46.616 0.051 7.01 56.39 16.2
11/3/2020 2:30:00 PM 8.13 46.634 0.051 6.98 55.7 16.09
11/3/2020 2:45:00 PM 8.18 46.724 0.051 6.98 56.11 14.98
11/3/2020 3:00:00 PM 8.19 46.742 0.051 6.97 56.27 13.88
11/3/2020 3:15:00 PM 8.2 46.76 0.051 6.95 57 13.71
11/3/2020 3:30:00 PM 8.19 46.742 0.051 6.95 57.12 14.08
11/3/2020 3:45:00 PM 8.18 46.724 0.051 6.94 57.17 14.35
11/3/2020 4:00:00 PM 8.17 46.706 0.052 6.94 56.64 13.44
11/3/2020 4:15:00 PM 8.13 46.634 0.052 6.93 57.91 13.45
11/3/2020 4:30:00 PM 8.11 46.598 0.052 6.91 57.99 13.13
11/3/2020 4:45:00 PM 8.07 46.526 0.052 6.9 58.38 12.68
11/3/2020 5:00:00 PM 8.01 46.418 0.052 6.87 58.6 12.66
11/3/2020 5:15:00 PM 7.94 46.292 0.052 6.86 59.35 12.44
11/3/2020 5:30:00 PM 7.84 46.112 0.052 6.85 59.23 12.28
11/3/2020 5:45:00 PM 7.76 45.968 0.052 6.82 59.82 12.18
11/3/2020 6:00:00 PM 7.67 45.806 0.052 6.82 59.78 12.45
11/3/2020 6:15:00 PM 7.58 45.644 0.052 6.8 60.9 12.32
11/3/2020 6:30:00 PM 7.5 45.5 0.052 6.78 61.65 12.2
11/3/2020 6:45:00 PM 7.43 45.374 0.052 6.77 61.57 12.01
11/3/2020 7:00:00 PM 7.35 45.23 0.052 6.76 62 12.14
11/3/2020 7:15:00 PM 7.28 45.104 0.052 6.74 61.88 12.31
11/3/2020 7:30:00 PM 7.21 44.978 0.052 6.74 61.91 12.35
11/3/2020 7:45:00 PM 7.13 44.834 0.052 6.72 62.48 12.29
11/3/2020 8:00:00 PM 7.06 44.708 0.052 6.72 62.3 12.26
11/3/2020 8:15:00 PM 6.99 44.582 0.052 6.73 62.86 12.54
11/3/2020 8:30:00 PM 6.92 44.456 0.052 6.73 61.96 12.23
11/3/2020 8:45:00 PM 6.86 44.348 0.053 6.73 62.43 12.43
11/3/2020 9:00:00 PM 6.81 44.258 0.053 6.73 62.53 12.46
11/3/2020 9:15:00 PM 6.76 44.168 0.053 6.73 61.96 12.36
11/3/2020 9:30:00 PM 6.71 44.078 0.053 6.73 62.38 12.23
11/3/2020 9:45:00 PM 6.66 43.988 0.052 6.73 62.78 12.42
11/3/2020 10:00:00 PM 6.62 43.916 0.052 6.73 62.76 12.68
11/3/2020 10:15:00 PM 6.58 43.844 0.053 6.73 62.42 12.35
11/3/2020 10:30:00 PM 6.54 43.772 0.053 6.75 62.94 12.52
11/3/2020 10:45:00 PM 6.51 43.718 0.053 6.74 63.09 12.69
11/3/2020 11:00:00 PM 6.48 43.664 0.053 6.75 63.05 12.59
11/3/2020 11:15:00 PM 6.44 43.592 0.053 6.75 62.71 12.73
11/3/2020 11:30:00 PM 6.4 43.52 0.053 6.75 62.98 12.61
11/3/2020 11:45:00 PM 6.37 43.466 0.053 6.75 62.92 12.75
11/4/2020 12:00:00 AM 6.33 43.394 0.053 6.75 63.33 12.9
11/4/2020 12:15:00 AM 6.3 43.34 0.053 6.76 62.88 12.6
11/4/2020 12:30:00 AM 6.26 43.268 0.053 6.75 63.3 12.54
11/4/2020 12:45:00 AM 6.23 43.214 0.053 6.76 63.42 12.91
11/4/2020 1:00:00 AM 6.19 43.142 0.053 6.76 63.13 12.84
11/4/2020 1:15:00 AM 6.15 43.07 0.053 6.76 63.25 12.21
11/4/2020 1:30:00 AM 6.11 42.998 0.053 6.76 63.4 12.98
11/4/2020 1:45:00 AM 6.08 42.944 0.053 6.76 63.48 12.48
11/4/2020 2:00:00 AM 6.04 42.872 0.053 6.76 63.33 12.89
11/4/2020 2:15:00 AM 6.01 42.818 0.053 6.76 63.28 12.79
11/4/2020 2:30:00 AM 5.97 42.746 0.053 6.76 63.45 12.77
11/4/2020 2:45:00 AM 5.94 42.692 0.053 6.76 63.44 12.87
11/4/2020 3:00:00 AM 5.91 42.638 0.053 6.76 63.41 13.06
11/4/2020 3:15:00 AM 5.88 42.584 0.053 6.76 63.02 13.02
11/4/2020 3:30:00 AM 5.85 42.53 0.053 6.76 63.72 12.84
11/4/2020 3:45:00 AM 5.81 42.458 0.053 6.76 63.85 12.98
11/4/2020 4:00:00 AM 5.78 42.404 0.053 6.76 63.29 12.95
11/4/2020 4:15:00 AM 5.74 42.332 0.053 6.76 63.11 12.97
11/4/2020 4:30:00 AM 5.7 42.26 0.053 6.76 63.62 12.85
11/4/2020 4:45:00 AM 5.67 42.206 0.053 6.76 63.3 13.01
11/4/2020 5:00:00 AM 5.65 42.17 0.053 6.77 63.47 13.24
11/4/2020 5:15:00 AM 5.61 42.098 0.053 6.77 63.55 13.01
11/4/2020 5:30:00 AM 5.58 42.044 0.053 6.76 63.8 13.03
11/4/2020 5:45:00 AM 5.54 41.972 0.053 6.76 63.59 13.22
11/4/2020 6:00:00 AM 5.51 41.918 0.053 6.76 63.49 13.16
11/4/2020 6:15:00 AM 5.49 41.882 0.053 6.77 66.89 13.26
11/4/2020 6:30:00 AM 5.46 41.828 0.053 6.77 64.16 13.17
11/4/2020 6:45:00 AM 5.43 41.774 0.053 6.77 63.82 13.6
11/4/2020 7:00:00 AM 5.4 41.72 0.053 6.76 63.75 13.77
11/4/2020 7:15:00 AM 5.38 41.684 0.053 6.77 64.07 14.23
11/4/2020 7:30:00 AM 5.37 41.666 0.053 6.79 64.53 14.11
11/4/2020 7:45:00 AM 5.36 41.648 0.053 6.79 63.99 14.6
11/4/2020 8:00:00 AM 5.36 41.648 0.053 6.8 63.41 14.97
11/4/2020 8:15:00 AM 5.37 41.666 0.053 6.82 63.87 14.98
11/4/2020 8:30:00 AM 5.38 41.684 0.052 6.83 63.84 15.4
11/4/2020 8:45:00 AM 5.42 41.756 0.052 6.84 63.48 15.77
11/4/2020 9:00:00 AM 5.46 41.828 0.052 6.86 63 15.7
11/4/2020 9:15:00 AM 5.52 41.936 0.052 6.87 62.32 15.94
11/4/2020 9:30:00 AM 5.6 42.08 0.052 6.89 61.79 16.83
11/4/2020 9:45:00 AM 5.7 42.26 0.052 6.91 61.2 18.39
11/4/2020 10:00:00 AM 5.83 42.494 0.052 6.94 61.01 18.66
11/4/2020 10:15:00 AM 5.94 42.692 0.052 6.96 61.28 18.39
11/4/2020 10:30:00 AM 6.06 42.908 0.052 6.97 61.67 17.89
11/4/2020 10:45:00 AM 6.44 43.592 0.049 7.3 4.79 0
11/4/2020 11:00:00 AM 6.5 43.7 0.049 6.9 2.75 0
11/4/2020 11:15:00 AM 6.71 44.078 0.049 6.76 2.57 0
11/4/2020 11:30:00 AM 6.93 44.474 0.049 6.73 2.68 0
11/4/2020 11:45:00 AM 7.17 44.906 0.049 6.73 2.62 0
11/4/2020 12:00:00 PM 7.43 45.374 0.049 6.74 2.55 0
11/4/2020 12:15:00 PM 7.69 45.842 0.049 6.73 2.56 0
11/4/2020 12:30:00 PM 7.92 46.256 0.049 6.72 2.51 0
11/4/2020 12:45:00 PM 8.13 46.634 0.049 6.7 2.49 0
11/4/2020 1:00:00 PM 8.34 47.012 0.049 6.71 2.65 0
11/4/2020 1:15:00 PM 8.51 47.318 0.049 6.74 2.58 0
11/4/2020 1:30:00 PM 8.66 47.588 0.049 6.76 2.55 0
11/4/2020 1:45:00 PM 8.77 47.786 0.049 6.8 2.55 0
11/4/2020 2:00:00 PM 8.88 47.984 0.049 6.83 2.56 0
11/4/2020 2:15:00 PM 8.96 48.128 0.049 6.84 2.53 0
11/4/2020 2:30:00 PM 9 48.2 0.049 6.86 2.57 0
11/4/2020 2:45:00 PM 9.01 48.218 0.049 6.84 2.65 0
11/4/2020 3:00:00 PM 9 48.2 0.049 6.88 2.65 0
11/4/2020 3:15:00 PM 8.97 48.146 0.049 6.87 2.64 0
11/4/2020 3:30:00 PM 8.93 48.074 0.049 6.85 2.63 0
11/4/2020 3:45:00 PM 8.88 47.984 0.049 6.86 2.72 0
11/4/2020 4:00:00 PM 8.81 47.858 0.049 6.85 2.49 0
11/4/2020 4:15:00 PM 8.75 47.75 0.049 6.83 2.6 0
11/4/2020 4:30:00 PM 8.7 47.66 0.049 6.82 2.77 0
11/4/2020 4:45:00 PM 8.65 47.57 0.05 6.78 2.65 0
11/4/2020 5:00:00 PM 8.59 47.462 0.05 6.77 2.74 0
11/4/2020 5:15:00 PM 8.5 47.3 0.05 6.77 2.75 0
11/4/2020 5:30:00 PM 8.4 47.12 0.05 6.75 2.71 0
11/4/2020 5:45:00 PM 8.31 46.958 0.05 6.71 2.57 0
11/4/2020 6:00:00 PM 8.2 46.76 0.05 6.71 2.56 0
11/4/2020 6:15:00 PM 8.11 46.598 0.05 6.69 2.61 0
11/4/2020 6:30:00 PM 8.02 46.436 0.05 6.68 2.56 0
11/4/2020 6:45:00 PM 7.94 46.292 0.05 6.67 2.67 0
11/4/2020 7:00:00 PM 7.86 46.148 0.05 6.66 2.73 0
11/4/2020 7:15:00 PM 7.78 46.004 0.05 6.65 2.78 0
11/4/2020 7:30:00 PM 7.7 45.86 0.05 6.64 2.82 0
11/4/2020 7:45:00 PM 7.61 45.698 0.05 6.63 2.77 0
11/4/2020 8:00:00 PM 7.54 45.572 0.05 6.62 2.58 0
11/4/2020 8:15:00 PM 7.46 45.428 0.05 6.61 2.64 0
11/4/2020 8:30:00 PM 7.4 45.32 0.05 6.6 2.72 0
11/4/2020 8:45:00 PM 7.33 45.194 0.05 6.6 2.68 0
11/4/2020 9:00:00 PM 7.27 45.086 0.05 6.6 2.66 0
11/4/2020 9:15:00 PM 7.22 44.996 0.05 6.57 2.91 0
11/4/2020 9:30:00 PM 7.18 44.924 0.05 6.59 2.62 0
11/4/2020 9:45:00 PM 7.14 44.852 0.05 6.59 2.61 0
11/4/2020 10:00:00 PM 7.11 44.798 0.05 6.6 2.79 0
11/4/2020 10:15:00 PM 7.07 44.726 0.05 6.6 2.72 0
11/4/2020 10:30:00 PM 7.04 44.672 0.05 6.61 2.71 0
11/4/2020 10:45:00 PM 7.01 44.618 0.05 6.62 2.63 0
11/4/2020 11:00:00 PM 6.99 44.582 0.05 6.62 2.64 0
11/4/2020 11:15:00 PM 6.97 44.546 0.05 6.62 2.62 0
11/4/2020 11:30:00 PM 6.94 44.492 0.05 6.63 2.71 0
11/4/2020 11:45:00 PM 6.92 44.456 0.05 6.63 2.85 0
11/5/2020 12:00:00 AM 6.89 44.402 0.05 6.62 2.58 0
11/5/2020 12:15:00 AM 6.87 44.366 0.05 6.64 2.67 0
11/5/2020 12:30:00 AM 6.84 44.312 0.05 6.65 2.55 0
11/5/2020 12:45:00 AM 6.82 44.276 0.05 6.65 2.65 0
11/5/2020 1:00:00 AM 6.8 44.24 0.05 6.66 2.61 0
11/5/2020 1:15:00 AM 6.78 44.204 0.051 6.65 2.62 0
11/5/2020 1:30:00 AM 6.76 44.168 0.05 6.66 2.7 0
11/5/2020 1:45:00 AM 6.74 44.132 0.05 6.66 2.61 0
11/5/2020 2:00:00 AM 6.72 44.096 0.051 6.66 2.69 0
11/5/2020 2:15:00 AM 6.7 44.06 0.05 6.66 2.56 0
11/5/2020 2:30:00 AM 6.67 44.006 0.051 6.65 2.59 0
11/5/2020 2:45:00 AM 6.65 43.97 0.05 6.68 2.55 0
11/5/2020 3:00:00 AM 6.63 43.934 0.05 6.68 2.66 0
11/5/2020 3:15:00 AM 6.6 43.88 0.051 6.66 2.55 0
11/5/2020 3:30:00 AM 6.58 43.844 0.051 6.66 2.7 0
11/5/2020 3:45:00 AM 6.56 43.808 0.051 6.67 2.77 0
11/5/2020 4:00:00 AM 6.54 43.772 0.051 6.68 2.68 0
11/5/2020 4:15:00 AM 6.51 43.718 0.051 6.67 2.61 0
11/5/2020 4:30:00 AM 6.49 43.682 0.051 6.67 2.8 0
11/5/2020 4:45:00 AM 6.46 43.628 0.05 6.69 2.49 0
11/5/2020 5:00:00 AM 6.44 43.592 0.051 6.67 2.49 0
11/5/2020 5:15:00 AM 6.42 43.556 0.051 6.67 2.57 0
11/5/2020 5:30:00 AM 6.39 43.502 0.051 6.7 2.84 0
11/5/2020 5:45:00 AM 6.36 43.448 0.051 6.67 2.6 0
11/5/2020 6:00:00 AM 6.34 43.412 0.051 6.67 2.64 0
11/5/2020 6:15:00 AM 6.31 43.358 0.051 6.67 2.5 0
11/5/2020 6:30:00 AM 6.29 43.322 0.051 6.67 2.58 0
11/5/2020 6:45:00 AM 6.26 43.268 0.051 6.7 2.59 0
11/5/2020 7:00:00 AM 6.24 43.232 0.051 6.7 2.6 0
11/5/2020 7:15:00 AM 6.23 43.214 0.051 6.69 2.6 0
11/5/2020 7:30:00 AM 6.24 43.232 0.051 6.69 2.8 0
11/5/2020 7:45:00 AM 6.25 43.25 0.05 6.7 2.74 0
11/5/2020 8:00:00 AM 6.26 43.268 0.051 6.72 2.55 0
11/5/2020 8:15:00 AM 6.27 43.286 0.051 6.73 2.5 0
11/5/2020 8:30:00 AM 6.3 43.34 0.05 6.76 2.6 0
11/5/2020 8:45:00 AM 6.35 43.43 0.051 6.77 2.6 0
11/5/2020 9:00:00 AM 6.41 43.538 0.051 6.79 2.55 0
11/5/2020 9:15:00 AM 6.48 43.664 0.05 6.8 2.59 0
11/5/2020 9:30:00 AM 6.58 43.844 0.051 6.82 2.61 0
11/5/2020 9:45:00 AM 6.7 44.06 0.05 6.83 2.64 0
11/5/2020 10:00:00 AM 6.83 44.294 0.05 6.85 2.69 0
11/5/2020 10:15:00 AM 6.94 44.492 0.05 6.86 2.6 0
11/5/2020 10:30:00 AM 7.08 44.744 0.05 6.86 2.56 0
11/5/2020 10:45:00 AM 7.25 45.05 0.05 6.87 2.52 0
11/5/2020 11:00:00 AM 7.45 45.41 0.05 6.9 2.47 0
11/5/2020 11:15:00 AM 7.64 45.752 0.05 6.91 2.48 0
11/5/2020 11:30:00 AM 7.87 46.166 0.05 6.9 2.43 0
11/5/2020 11:45:00 AM 8.1 46.58 0.05 6.9 2.45 0
11/5/2020 12:00:00 PM 8.36 47.048 0.05 6.92 2.42 0
11/5/2020 12:15:00 PM 8.62 47.516 0.05 6.93 2.44 0
11/5/2020 12:30:00 PM 8.84 47.912 0.05 6.94 2.55 0
11/5/2020 12:45:00 PM 9.04 48.272 0.05 6.95 2.63 0
11/5/2020 1:00:00 PM 9.22 48.596 0.05 6.95 2.58 0
11/5/2020 1:15:00 PM 9.36 48.848 0.05 6.96 2.53 0
11/5/2020 1:30:00 PM 9.43 48.974 0.05 6.95 2.45 0
11/5/2020 1:45:00 PM 9.46 49.028 0.05 6.96 2.41 0
11/5/2020 2:00:00 PM 9.54 49.172 0.05 6.95 2.46 0
11/5/2020 2:15:00 PM 9.64 49.352 0.05 6.96 2.48 0
11/5/2020 2:30:00 PM 9.72 49.496 0.05 6.95 2.46 0
11/5/2020 2:45:00 PM 9.74 49.532 0.05 6.96 2.38 0
11/5/2020 3:00:00 PM 9.73 49.514 0.05 6.95 2.53 0
11/5/2020 3:15:00 PM 9.72 49.496 0.05 6.96 2.43 0
11/5/2020 3:30:00 PM 9.7 49.46 0.05 6.95 2.57 0
11/5/2020 3:45:00 PM 9.66 49.388 0.05 6.94 2.73 0
11/5/2020 4:00:00 PM 9.61 49.298 0.05 6.93 2.47 0
11/5/2020 4:15:00 PM 9.58 49.244 0.051 6.91 2.53 0
11/5/2020 4:30:00 PM 9.53 49.154 0.051 6.89 2.43 0
11/5/2020 4:45:00 PM 9.47 49.046 0.051 6.88 2.66 0
11/5/2020 5:00:00 PM 9.39 48.902 0.051 6.86 2.61 0
11/5/2020 5:15:00 PM 9.3 48.74 0.051 6.85 2.71 0
11/5/2020 5:30:00 PM 9.21 48.578 0.051 6.83 2.7 0
11/5/2020 5:45:00 PM 9.11 48.398 0.051 6.82 2.64 0
11/5/2020 6:00:00 PM 9.02 48.236 0.051 6.8 2.63 0
11/5/2020 6:15:00 PM 8.92 48.056 0.051 6.8 2.66 0
11/5/2020 6:30:00 PM 8.83 47.894 0.051 6.79 2.62 0
11/5/2020 6:45:00 PM 8.74 47.732 0.051 6.77 2.6 0
11/5/2020 7:00:00 PM 8.64 47.552 0.051 6.79 2.58 0
11/5/2020 7:15:00 PM 8.55 47.39 0.051 6.77 2.57 0
11/5/2020 7:30:00 PM 8.46 47.228 0.051 6.76 2.46 0
11/5/2020 7:45:00 PM 8.38 47.084 0.051 6.76 2.58 0
11/5/2020 8:00:00 PM 8.3 46.94 0.051 6.77 2.52 0
11/5/2020 8:15:00 PM 8.23 46.814 0.051 6.77 2.57 0
11/5/2020 8:30:00 PM 8.17 46.706 0.052 6.77 2.57 0
11/5/2020 8:45:00 PM 8.11 46.598 0.051 6.75 2.69 0
11/5/2020 9:00:00 PM 8.05 46.49 0.051 6.77 2.59 0
11/5/2020 9:15:00 PM 8 46.4 0.052 6.76 2.55 0
11/5/2020 9:30:00 PM 7.95 46.31 0.051 6.76 2.59 0
11/5/2020 9:45:00 PM 7.91 46.238 0.051 6.76 2.55 0
11/5/2020 10:00:00 PM 7.87 46.166 0.051 6.75 2.51 0
11/5/2020 10:15:00 PM 7.84 46.112 0.051 6.75 2.57 0
11/5/2020 10:30:00 PM 7.81 46.058 0.052 6.76 2.51 0
11/5/2020 10:45:00 PM 7.78 46.004 0.052 6.75 2.55 0
11/5/2020 11:00:00 PM 7.76 45.968 0.051 6.75 2.62 0
11/5/2020 11:15:00 PM 7.75 45.95 0.052 6.76 2.53 0
11/5/2020 11:30:00 PM 7.74 45.932 0.051 6.76 2.63 0
11/5/2020 11:45:00 PM 7.72 45.896 0.051 6.75 2.49 0
11/6/2020 12:00:00 AM 7.71 45.878 0.051 6.75 2.46 0
11/6/2020 12:15:00 AM 7.7 45.86 0.051 6.75 2.55 0
11/6/2020 12:30:00 AM 7.69 45.842 0.051 6.74 2.52 0
11/6/2020 12:45:00 AM 7.7 45.86 0.052 6.74 2.55 0
11/6/2020 1:00:00 AM 7.69 45.842 0.051 6.74 2.55 0
11/6/2020 1:15:00 AM 7.69 45.842 0.051 6.74 2.57 0
11/6/2020 1:30:00 AM 7.69 45.842 0.051 6.75 2.54 0
11/6/2020 1:45:00 AM 7.69 45.842 0.051 6.75 2.64 0
11/6/2020 2:00:00 AM 7.68 45.824 0.051 6.74 2.59 0
11/6/2020 2:15:00 AM 7.68 45.824 0.052 6.74 2.46 0
11/6/2020 2:30:00 AM 7.68 45.824 0.052 6.75 2.56 0
11/6/2020 2:45:00 AM 7.67 45.806 0.052 6.73 2.5 0
11/6/2020 3:00:00 AM 7.66 45.788 0.051 6.74 2.59 0
11/6/2020 3:15:00 AM 7.65 45.77 0.052 6.74 2.53 0
11/6/2020 3:30:00 AM 7.65 45.77 0.051 6.75 2.61 0
11/6/2020 3:45:00 AM 7.65 45.77 0.052 6.75 2.52 0
11/6/2020 4:00:00 AM 7.66 45.788 0.051 6.75 2.63 0
11/6/2020 4:15:00 AM 7.66 45.788 0.052 6.75 2.69 0
11/6/2020 4:30:00 AM 7.65 45.77 0.051 6.74 2.57 0
11/6/2020 4:45:00 AM 7.64 45.752 0.051 6.74 2.51 0
11/6/2020 5:00:00 AM 7.61 45.698 0.052 6.73 2.43 0
11/6/2020 5:15:00 AM 7.59 45.662 0.051 6.74 2.54 0
11/6/2020 5:30:00 AM 7.57 45.626 0.051 6.75 2.58 0
11/6/2020 5:45:00 AM 7.54 45.572 0.052 6.74 2.45 0
11/6/2020 6:00:00 AM 7.51 45.518 0.052 6.74 2.57 0
11/6/2020 6:15:00 AM 7.47 45.446 0.051 6.74 2.79 0
11/6/2020 6:30:00 AM 7.43 45.374 0.052 6.75 2.43 0
11/6/2020 6:45:00 AM 7.4 45.32 0.052 6.75 2.43 0
11/6/2020 7:00:00 AM 7.36 45.248 0.052 6.76 2.66 0
11/6/2020 7:15:00 AM 7.33 45.194 0.052 6.76 2.91 0
11/6/2020 7:30:00 AM 7.31 45.158 0.051 6.77 2.57 0
11/6/2020 7:45:00 AM 7.31 45.158 0.051 6.78 2.53 0
11/6/2020 8:00:00 AM 7.31 45.158 0.051 6.8 2.56 0
11/6/2020 8:15:00 AM 7.3 45.14 0.051 6.8 2.53 0
11/6/2020 8:30:00 AM 7.32 45.176 0.051 6.82 2.57 0
11/6/2020 8:45:00 AM 7.36 45.248 0.051 6.83 2.54 0
11/6/2020 9:00:00 AM 7.4 45.32 0.051 6.84 2.65 0
11/6/2020 9:15:00 AM 7.46 45.428 0.051 6.84 2.53 0
11/6/2020 9:30:00 AM 7.54 45.572 0.051 6.85 2.59 0
11/6/2020 9:45:00 AM 7.64 45.752 0.051 6.87 2.6 0
11/6/2020 10:00:00 AM 7.75 45.95 0.051 6.88 2.54 0
11/6/2020 10:15:00 AM 7.86 46.148 0.051 6.88 2.56 0
11/6/2020 10:30:00 AM 7.96 46.328 0.051 6.89 2.56 0
11/6/2020 10:45:00 AM 8.11 46.598 0.051 6.9 2.54 0
11/6/2020 11:00:00 AM 8.3 46.94 0.051 6.92 2.58 0
11/6/2020 11:15:00 AM 8.48 47.264 0.051 6.92 2.48 0
11/6/2020 11:30:00 AM 8.7 47.66 0.051 6.93 2.58 0
11/6/2020 11:45:00 AM 8.93 48.074 0.051 6.94 2.46 0
11/6/2020 12:00:00 PM 9.18 48.524 0.051 6.95 2.47 0
11/6/2020 12:15:00 PM 9.45 49.01 0.051 6.95 2.45 0
11/6/2020 12:30:00 PM 9.67 49.406 0.051 6.95 2.4 0
11/6/2020 12:45:00 PM 9.88 49.784 0.051 6.96 2.49 0
11/6/2020 1:00:00 PM 10.07 50.126 0.051 6.97 2.45 0
11/6/2020 1:15:00 PM 10.24 50.432 0.051 6.96 2.44 0
11/6/2020 1:30:00 PM 10.37 50.666 0.051 6.97 2.36 0
11/6/2020 1:45:00 PM 10.48 50.864 0.051 6.97 2.32 0
11/6/2020 2:00:00 PM 10.58 51.044 0.051 6.97 2.47 0
11/6/2020 2:15:00 PM 10.65 51.17 0.051 6.97 2.5 0
11/6/2020 2:30:00 PM 10.69 51.242 0.051 6.97 2.48 0
11/6/2020 2:45:00 PM 10.7 51.26 0.051 6.98 2.4 0
11/6/2020 3:00:00 PM 10.7 51.26 0.051 6.97 2.44 0
11/6/2020 3:15:00 PM 10.68 51.224 0.051 6.97 2.45 0
11/6/2020 3:30:00 PM 10.65 51.17 0.051 6.97 2.51 0
11/6/2020 3:45:00 PM 10.6 51.08 0.051 6.96 2.54 0
11/6/2020 4:00:00 PM 10.54 50.972 0.051 6.95 2.64 0
11/6/2020 4:15:00 PM 10.49 50.882 0.051 6.94 2.49 0
11/6/2020 4:30:00 PM 10.44 50.792 0.051 6.93 2.55 0
11/6/2020 4:45:00 PM 10.39 50.702 0.052 6.89 2.57 0
11/6/2020 5:00:00 PM 10.34 50.612 0.052 6.88 2.57 0
11/6/2020 5:15:00 PM 10.27 50.486 0.052 6.86 2.6 0
11/6/2020 5:30:00 PM 10.2 50.36 0.052 6.84 2.66 0
11/6/2020 5:45:00 PM 10.12 50.216 0.052 6.83 2.48 0
11/6/2020 6:00:00 PM 10.02 50.036 0.052 6.81 2.56 0
11/6/2020 6:15:00 PM 9.93 49.874 0.052 6.81 2.58 0
11/6/2020 6:30:00 PM 9.84 49.712 0.052 6.81 2.47 0
11/6/2020 6:45:00 PM 9.75 49.55 0.052 6.79 2.46 0
11/6/2020 7:00:00 PM 9.66 49.388 0.052 6.79 2.62 0
11/6/2020 7:15:00 PM 9.57 49.226 0.052 6.79 2.56 0
11/6/2020 7:30:00 PM 9.49 49.082 0.052 6.79 2.63 0
11/6/2020 7:45:00 PM 9.4 48.92 0.052 6.77 2.51 0
11/6/2020 8:00:00 PM 9.3 48.74 0.052 6.78 2.53 0
11/6/2020 8:15:00 PM 9.21 48.578 0.052 6.78 2.55 0
11/6/2020 8:30:00 PM 9.12 48.416 0.052 6.78 2.52 0
11/6/2020 8:45:00 PM 9.04 48.272 0.052 6.76 2.63 0
11/6/2020 9:00:00 PM 8.96 48.128 0.052 6.76 2.47 0
11/6/2020 9:15:00 PM 8.88 47.984 0.052 6.77 2.54 0
11/6/2020 9:30:00 PM 8.8 47.84 0.052 6.77 2.55 0
11/6/2020 9:45:00 PM 8.73 47.714 0.052 6.76 2.64 0
11/6/2020 10:00:00 PM 8.66 47.588 0.052 6.76 2.64 0
11/6/2020 10:15:00 PM 8.6 47.48 0.052 6.76 2.57 0
11/6/2020 10:30:00 PM 8.54 47.372 0.052 6.76 2.54 0
11/6/2020 10:45:00 PM 8.48 47.264 0.052 6.77 2.53 0
11/6/2020 11:00:00 PM 8.42 47.156 0.052 6.76 2.61 0
11/6/2020 11:15:00 PM 8.37 47.066 0.052 6.76 2.56 0
11/6/2020 11:30:00 PM 8.32 46.976 0.052 6.76 2.61 0
11/6/2020 11:45:00 PM 8.28 46.904 0.052 6.76 2.6 0
11/7/2020 12:00:00 AM 8.23 46.814 0.052 6.75 2.5 0
11/7/2020 12:15:00 AM 8.19 46.742 0.052 6.75 2.48 0
11/7/2020 12:30:00 AM 8.15 46.67 0.052 6.75 2.57 0
11/7/2020 12:45:00 AM 8.11 46.598 0.052 6.75 2.57 0
11/7/2020 1:00:00 AM 8.07 46.526 0.052 6.74 2.66 0
11/7/2020 1:15:00 AM 8.05 46.49 0.052 6.75 2.53 0
11/7/2020 1:30:00 AM 8.01 46.418 0.052 6.74 2.5 0
11/7/2020 1:45:00 AM 7.97 46.346 0.052 6.75 2.54 0
11/7/2020 2:00:00 AM 7.95 46.31 0.052 6.75 2.48 0
11/7/2020 2:15:00 AM 7.92 46.256 0.053 6.76 2.61 0
11/7/2020 2:30:00 AM 7.88 46.184 0.053 6.75 2.61 0
11/7/2020 2:45:00 AM 7.86 46.148 0.053 6.76 2.54 0
11/7/2020 3:00:00 AM 7.82 46.076 0.053 6.74 2.48 0
11/7/2020 3:15:00 AM 7.79 46.022 0.052 6.75 2.48 0
11/7/2020 3:30:00 AM 7.75 45.95 0.052 6.75 2.55 0
11/7/2020 3:45:00 AM 7.73 45.914 0.053 6.75 2.49 0
11/7/2020 4:00:00 AM 7.69 45.842 0.053 6.75 2.52 0
11/7/2020 4:15:00 AM 7.66 45.788 0.053 6.75 2.47 0
11/7/2020 4:30:00 AM 7.63 45.734 0.053 6.74 2.5 0
11/7/2020 4:45:00 AM 7.6 45.68 0.055 6.79 1.7 0
11/7/2020 5:00:00 AM 7.56 45.608 0.052 6.75 2.55 0
11/7/2020 5:15:00 AM 7.53 45.554 0.053 6.74 2.62 0
11/7/2020 5:30:00 AM 7.5 45.5 0.053 6.74 2.57 0
11/7/2020 5:45:00 AM 7.46 45.428 0.053 6.75 2.56 0
11/7/2020 6:00:00 AM 7.43 45.374 0.052 6.73 2.62 0
11/7/2020 6:15:00 AM 7.39 45.302 0.053 6.74 2.52 0
11/7/2020 6:30:00 AM 7.36 45.248 0.053 6.73 2.52 0
11/7/2020 6:45:00 AM 7.34 45.212 0.052 6.73 2.49 0
11/7/2020 7:00:00 AM 7.31 45.158 0.052 6.73 2.68 0
11/7/2020 7:15:00 AM 7.29 45.122 0.053 6.72 2.74 0
11/7/2020 7:30:00 AM 7.28 45.104 0.052 6.73 2.68 0
11/7/2020 7:45:00 AM 7.28 45.104 0.052 6.74 2.48 0
11/7/2020 8:00:00 AM 7.28 45.104 0.052 6.74 2.68 0
11/7/2020 8:15:00 AM 7.28 45.104 0.052 6.75 2.63 0
11/7/2020 8:30:00 AM 7.3 45.14 0.052 6.76 2.6 0
11/7/2020 8:45:00 AM 7.33 45.194 0.052 6.78 2.5 0
11/7/2020 9:00:00 AM 7.37 45.266 0.052 6.79 2.58 0
11/7/2020 9:15:00 AM 7.43 45.374 0.052 6.81 2.44 0
11/7/2020 9:30:00 AM 7.51 45.518 0.052 6.83 2.64 0
11/7/2020 9:45:00 AM 7.61 45.698 0.052 6.85 2.54 0
11/7/2020 10:00:00 AM 7.72 45.896 0.052 6.87 2.56 0
11/7/2020 10:15:00 AM 7.84 46.112 0.052 6.88 2.41 0
11/7/2020 10:30:00 AM 7.97 46.346 0.052 6.89 2.66 0
11/7/2020 10:45:00 AM 8.13 46.634 0.052 6.9 2.52 0
11/7/2020 11:00:00 AM 8.31 46.958 0.052 6.91 2.47 0
11/7/2020 11:15:00 AM 8.5 47.3 0.052 6.93 2.41 0
11/7/2020 11:30:00 AM 8.71 47.678 0.052 6.94 2.45 0
11/7/2020 11:45:00 AM 8.95 48.11 0.052 6.94 2.6 0
11/7/2020 12:00:00 PM 9.19 48.542 0.052 6.96 2.45 0
11/7/2020 12:15:00 PM 9.45 49.01 0.052 6.98 2.48 0
11/7/2020 12:30:00 PM 9.69 49.442 0.052 6.99 2.49 0
11/7/2020 12:45:00 PM 9.92 49.856 0.052 6.98 2.4 0
11/7/2020 1:00:00 PM 10.12 50.216 0.052 6.99 2.45 0
11/7/2020 1:15:00 PM 10.3 50.54 0.052 7 2.47 0
11/7/2020 1:30:00 PM 10.46 50.828 0.052 7 2.47 0
11/7/2020 1:45:00 PM 10.54 50.972 0.052 7.01 2.74 0
11/7/2020 2:00:00 PM 10.66 51.188 0.052 7.01 2.51 0
11/7/2020 2:15:00 PM 10.71 51.278 0.052 7.01 2.48 0
11/7/2020 2:30:00 PM 10.76 51.368 0.052 7 2.42 0
11/7/2020 2:45:00 PM 10.78 51.404 0.052 7.01 2.44 0
11/7/2020 3:00:00 PM 10.8 51.44 0.052 7 2.51 0
11/7/2020 3:15:00 PM 10.81 51.458 0.052 6.99 2.53 0
11/7/2020 3:30:00 PM 10.8 51.44 0.052 7 2.86 0
11/7/2020 3:45:00 PM 10.78 51.404 0.052 7 2.5 0
11/7/2020 4:00:00 PM 10.75 51.35 0.052 6.98 2.48 0
11/7/2020 4:15:00 PM 10.7 51.26 0.052 6.96 2.67 0
11/7/2020 4:30:00 PM 10.66 51.188 0.052 6.95 2.55 0
11/7/2020 4:45:00 PM 10.63 51.134 0.053 6.93 2.5 0
11/7/2020 5:00:00 PM 10.59 51.062 0.053 6.91 2.47 0
11/7/2020 5:15:00 PM 10.54 50.972 0.053 6.9 2.44 0
11/7/2020 5:30:00 PM 10.49 50.882 0.053 6.87 2.51 0
11/7/2020 5:45:00 PM 10.42 50.756 0.053 6.85 2.6 0
11/7/2020 6:00:00 PM 10.34 50.612 0.053 6.84 2.52 0
11/7/2020 6:15:00 PM 10.24 50.432 0.053 6.83 2.56 0
11/7/2020 6:30:00 PM 10.14 50.252 0.053 6.83 2.63 0
11/7/2020 6:45:00 PM 10.06 50.108 0.053 6.82 2.62 0
11/7/2020 7:00:00 PM 9.97 49.946 0.053 6.81 2.65 0
11/7/2020 7:15:00 PM 9.88 49.784 0.053 6.79 2.53 0
11/7/2020 7:30:00 PM 9.78 49.604 0.053 6.79 2.61 0
11/7/2020 7:45:00 PM 9.69 49.442 0.053 6.8 2.53 0
11/7/2020 8:00:00 PM 9.6 49.28 0.053 6.79 2.51 0
11/7/2020 8:15:00 PM 9.5 49.1 0.053 6.79 2.54 0
11/7/2020 8:30:00 PM 9.41 48.938 0.053 6.79 2.49 0
11/7/2020 8:45:00 PM 9.32 48.776 0.053 6.78 2.49 0
11/7/2020 9:00:00 PM 9.24 48.632 0.053 6.77 2.53 0
11/7/2020 9:15:00 PM 9.15 48.47 0.053 6.78 2.49 0
11/7/2020 9:30:00 PM 9.07 48.326 0.054 6.77 2.5 0
11/7/2020 9:45:00 PM 8.98 48.164 0.053 6.77 2.62 0
11/7/2020 10:00:00 PM 8.9 48.02 0.053 6.78 2.54 0
11/7/2020 10:15:00 PM 8.82 47.876 0.053 6.78 2.53 0
11/7/2020 10:30:00 PM 8.75 47.75 0.053 6.78 2.51 0
11/7/2020 10:45:00 PM 8.68 47.624 0.053 6.77 2.58 0
11/7/2020 11:00:00 PM 8.62 47.516 0.053 6.77 2.59 0
11/7/2020 11:15:00 PM 8.55 47.39 0.053 6.77 2.56 0
11/7/2020 11:30:00 PM 8.5 47.3 0.053 6.76 2.61 0
11/7/2020 11:45:00 PM 8.44 47.192 0.053 6.76 2.7 0
11/8/2020 12:00:00 AM 8.38 47.084 0.053 6.76 2.61 0
11/8/2020 12:15:00 AM 8.33 46.994 0.053 6.75 2.5 0
11/8/2020 12:30:00 AM 8.28 46.904 0.053 6.75 2.6 0
11/8/2020 12:45:00 AM 8.23 46.814 0.053 6.75 2.59 0
11/8/2020 1:00:00 AM 8.19 46.742 0.053 6.75 2.52 0
11/8/2020 1:15:00 AM 8.14 46.652 0.053 6.76 2.45 0
11/8/2020 1:30:00 AM 8.1 46.58 0.053 6.75 2.59 0
11/8/2020 1:45:00 AM 8.05 46.49 0.053 6.76 2.69 0
11/8/2020 2:00:00 AM 8.01 46.418 0.053 6.76 2.56 0
11/8/2020 2:15:00 AM 7.97 46.346 0.053 6.76 2.63 0
11/8/2020 2:30:00 AM 7.93 46.274 0.053 6.76 2.57 0
11/8/2020 2:45:00 AM 7.9 46.22 0.053 6.77 2.54 0
11/8/2020 3:00:00 AM 7.86 46.148 0.053 6.76 2.55 0
11/8/2020 3:15:00 AM 7.82 46.076 0.053 6.75 2.62 0
11/8/2020 3:30:00 AM 7.78 46.004 0.053 6.75 2.62 0
11/8/2020 3:45:00 AM 7.74 45.932 0.053 6.76 2.57 0
11/8/2020 4:00:00 AM 7.7 45.86 0.053 6.76 2.58 0
11/8/2020 4:15:00 AM 7.65 45.77 0.053 6.75 2.54 0
11/8/2020 4:30:00 AM 7.62 45.716 0.053 6.76 2.42 0
11/8/2020 4:45:00 AM 7.57 45.626 0.053 6.77 2.5 0
11/8/2020 5:00:00 AM 7.52 45.536 0.053 6.75 2.58 0
11/8/2020 5:15:00 AM 7.49 45.482 0.053 6.76 2.6 0
11/8/2020 5:30:00 AM 7.45 45.41 0.054 6.75 2.68 0
11/8/2020 5:45:00 AM 7.41 45.338 0.054 6.75 2.52 0
11/8/2020 6:00:00 AM 7.36 45.248 0.054 6.75 2.54 0
11/8/2020 6:15:00 AM 7.32 45.176 0.054 6.74 2.51 0
11/8/2020 6:30:00 AM 7.28 45.104 0.054 6.74 2.46 0
11/8/2020 6:45:00 AM 7.24 45.032 0.054 6.73 2.71 0
11/8/2020 7:00:00 AM 7.21 44.978 0.054 6.73 2.53 0
11/8/2020 7:15:00 AM 7.17 44.906 0.054 6.74 2.51 0
11/8/2020 7:30:00 AM 7.15 44.87 0.054 6.74 2.51 0
11/8/2020 7:45:00 AM 7.14 44.852 0.054 6.75 2.5 0
11/8/2020 8:00:00 AM 7.13 44.834 0.053 6.75 2.5 0
11/8/2020 8:15:00 AM 7.14 44.852 0.054 6.76 2.55 0
11/8/2020 8:30:00 AM 7.15 44.87 0.053 6.76 2.79 0
11/8/2020 8:45:00 AM 7.18 44.924 0.053 6.78 2.58 0
11/8/2020 9:00:00 AM 7.22 44.996 0.054 6.79 2.54 0
11/8/2020 9:15:00 AM 7.28 45.104 0.053 6.81 2.47 0
11/8/2020 9:30:00 AM 7.37 45.266 0.053 6.83 2.48 0
11/8/2020 9:45:00 AM 7.47 45.446 0.053 6.83 2.5 0
11/8/2020 10:00:00 AM 7.58 45.644 0.053 6.86 2.6 0
11/8/2020 10:15:00 AM 7.7 45.86 0.053 6.88 2.67 0
11/8/2020 10:30:00 AM 7.82 46.076 0.053 6.9 2.59 0
11/8/2020 10:45:00 AM 7.98 46.364 0.053 6.9 2.67 0
11/8/2020 11:00:00 AM 8.15 46.67 0.053 6.92 2.47 0
11/8/2020 11:15:00 AM 8.32 46.976 0.053 6.92 2.57 0
11/8/2020 11:30:00 AM 8.54 47.372 0.053 6.94 2.5 0
11/8/2020 11:45:00 AM 8.78 47.804 0.053 6.94 2.56 0
11/8/2020 12:00:00 PM 9.03 48.254 0.053 6.95 2.55 0
11/8/2020 12:15:00 PM 9.32 48.776 0.053 6.96 2.56 0
11/8/2020 12:30:00 PM 9.55 49.19 0.053 6.98 2.52 0
11/8/2020 12:45:00 PM 9.77 49.586 0.053 6.99 2.51 0
11/8/2020 1:00:00 PM 9.95 49.91 0.053 6.98 2.6 0
11/8/2020 1:15:00 PM 10.13 50.234 0.053 6.98 2.47 0
11/8/2020 1:30:00 PM 10.28 50.504 0.053 7.01 2.47 0
11/8/2020 1:45:00 PM 10.37 50.666 0.053 7 2.41 0
11/8/2020 2:00:00 PM 10.46 50.828 0.053 7.01 2.53 0
11/8/2020 2:15:00 PM 10.51 50.918 0.053 7 2.46 0
11/8/2020 2:30:00 PM 10.55 50.99 0.053 7 2.49 0
11/8/2020 2:45:00 PM 10.56 51.008 0.053 6.99 2.48 0
11/8/2020 3:00:00 PM 10.56 51.008 0.053 6.99 2.48 0
11/8/2020 3:15:00 PM 10.54 50.972 0.053 7 2.37 0
11/8/2020 3:30:00 PM 10.52 50.936 0.053 6.99 2.43 0
11/8/2020 3:45:00 PM 10.47 50.846 0.053 6.99 2.46 0
11/8/2020 4:00:00 PM 10.42 50.756 0.053 6.97 2.42 0
11/8/2020 4:15:00 PM 10.38 50.684 0.053 6.95 2.51 0
11/8/2020 4:30:00 PM 10.35 50.63 0.054 6.93 2.38 0
11/8/2020 4:45:00 PM 10.32 50.576 0.054 6.92 2.48 0
11/8/2020 5:00:00 PM 10.3 50.54 0.054 6.89 2.52 0
11/8/2020 5:15:00 PM 10.26 50.468 0.054 6.86 2.36 0
11/8/2020 5:30:00 PM 10.21 50.378 0.054 6.85 2.45 0
11/8/2020 5:45:00 PM 10.15 50.27 0.054 6.84 2.45 0
11/8/2020 6:00:00 PM 10.07 50.126 0.054 6.82 2.63 0
11/8/2020 6:15:00 PM 9.98 49.964 0.054 6.82 2.53 0
11/8/2020 6:30:00 PM 9.89 49.802 0.054 6.82 2.52 0
11/8/2020 6:45:00 PM 9.8 49.64 0.054 6.81 2.48 0
11/8/2020 7:00:00 PM 9.71 49.478 0.054 6.81 2.53 0
11/8/2020 7:15:00 PM 9.62 49.316 0.054 6.79 2.53 0
11/8/2020 7:30:00 PM 9.54 49.172 0.054 6.79 2.59 0
11/8/2020 7:45:00 PM 9.45 49.01 0.054 6.79 2.6 0
11/8/2020 8:00:00 PM 9.35 48.83 0.054 6.8 2.56 0
11/8/2020 8:15:00 PM 9.26 48.668 0.054 6.77 2.58 0
11/8/2020 8:30:00 PM 9.16 48.488 0.054 6.79 2.58 0
11/8/2020 8:45:00 PM 9.07 48.326 0.054 6.78 2.47 0
11/8/2020 9:00:00 PM 8.98 48.164 0.054 6.78 2.44 0
11/8/2020 9:15:00 PM 8.89 48.002 0.054 6.78 2.56 0
11/8/2020 9:30:00 PM 8.81 47.858 0.054 6.78 2.52 0
11/8/2020 9:45:00 PM 8.73 47.714 0.054 6.78 2.51 0
11/8/2020 10:00:00 PM 8.64 47.552 0.054 6.78 2.47 0
11/8/2020 10:15:00 PM 8.57 47.426 0.054 6.77 2.59 0
11/8/2020 10:30:00 PM 8.5 47.3 0.054 6.76 2.58 0
11/8/2020 10:45:00 PM 8.43 47.174 0.054 6.76 2.53 0
11/8/2020 11:00:00 PM 8.37 47.066 0.054 6.76 2.51 0
11/8/2020 11:15:00 PM 8.31 46.958 0.054 6.76 2.47 0
11/8/2020 11:30:00 PM 8.25 46.85 0.054 6.76 2.62 0
11/8/2020 11:45:00 PM 8.2 46.76 0.054 6.76 2.58 0
11/9/2020 12:00:00 AM 8.15 46.67 0.054 6.75 2.64 0
11/9/2020 12:15:00 AM 8.1 46.58 0.054 6.76 2.51 0
11/9/2020 12:30:00 AM 8.05 46.49 0.054 6.77 2.57 0
11/9/2020 12:45:00 AM 8.01 46.418 0.054 6.76 2.55 0
11/9/2020 1:00:00 AM 7.96 46.328 0.054 6.76 2.58 0
11/9/2020 1:15:00 AM 7.91 46.238 0.054 6.77 2.59 0
11/9/2020 1:30:00 AM 7.88 46.184 0.054 6.77 2.54 0
11/9/2020 1:45:00 AM 7.85 46.13 0.054 6.75 2.58 0
11/9/2020 2:00:00 AM 7.8 46.04 0.054 6.76 2.68 0
11/9/2020 2:15:00 AM 7.77 45.986 0.054 6.76 2.6 0
11/9/2020 2:30:00 AM 7.72 45.896 0.054 6.75 2.64 0
11/9/2020 2:45:00 AM 7.69 45.842 0.054 6.76 2.48 0
11/9/2020 3:00:00 AM 7.65 45.77 0.054 6.75 2.49 0
11/9/2020 3:15:00 AM 7.62 45.716 0.054 6.75 2.46 0
11/9/2020 3:30:00 AM 7.59 45.662 0.054 6.75 2.57 0
11/9/2020 3:45:00 AM 7.55 45.59 0.055 6.75 2.48 0
11/9/2020 4:00:00 AM 7.52 45.536 0.054 6.76 2.53 0
11/9/2020 4:15:00 AM 7.48 45.464 0.054 6.76 2.57 0
11/9/2020 4:30:00 AM 7.45 45.41 0.054 6.75 2.52 0
11/9/2020 4:45:00 AM 7.42 45.356 0.054 6.75 2.48 0
11/9/2020 5:00:00 AM 7.39 45.302 0.054 6.75 2.53 0
11/9/2020 5:15:00 AM 7.36 45.248 0.055 6.74 2.55 0
11/9/2020 5:30:00 AM 7.32 45.176 0.054 6.74 2.53 0
11/9/2020 5:45:00 AM 7.29 45.122 0.054 6.73 2.51 0
11/9/2020 6:00:00 AM 7.26 45.068 0.054 6.73 2.56 0
11/9/2020 6:15:00 AM 7.23 45.014 0.054 6.73 2.5 0
11/9/2020 6:30:00 AM 7.19 44.942 0.054 6.73 2.51 0
11/9/2020 6:45:00 AM 7.16 44.888 0.055 6.73 2.52 0
11/9/2020 7:00:00 AM 7.13 44.834 0.055 6.72 2.63 0
11/9/2020 7:15:00 AM 7.11 44.798 0.054 6.74 2.5 0
11/9/2020 7:30:00 AM 7.1 44.78 0.054 6.74 2.58 0
11/9/2020 7:45:00 AM 7.09 44.762 0.054 6.75 2.5 0
11/9/2020 8:00:00 AM 7.09 44.762 0.054 6.76 2.57 0
11/9/2020 8:15:00 AM 7.09 44.762 0.054 6.78 2.51 0
11/9/2020 8:30:00 AM 7.11 44.798 0.054 6.8 2.55 0
11/9/2020 8:45:00 AM 7.14 44.852 0.054 6.8 2.5 0
11/9/2020 9:00:00 AM 7.17 44.906 0.054 6.83 2.6 0
11/9/2020 9:15:00 AM 7.23 45.014 0.054 6.85 2.49 0
11/9/2020 9:30:00 AM 7.31 45.158 0.054 6.87 2.48 0
11/9/2020 9:45:00 AM 7.41 45.338 0.054 6.87 2.48 0
11/9/2020 10:00:00 AM 7.53 45.554 0.053 6.89 2.5 0
11/9/2020 10:15:00 AM 7.65 45.77 0.053 6.91 2.43 0
11/9/2020 10:30:00 AM 7.78 46.004 0.053 6.91 2.54 0
11/9/2020 10:45:00 AM 7.94 46.292 0.054 6.92 2.51 0
11/9/2020 11:00:00 AM 8.13 46.634 0.053 6.92 2.49 0
11/9/2020 11:15:00 AM 8.32 46.976 0.053 6.94 2.37 0
11/9/2020 11:30:00 AM 8.54 47.372 0.053 6.95 2.49 0
11/9/2020 11:45:00 AM 8.77 47.786 0.053 6.97 2.26 0
11/9/2020 12:00:00 PM 9.04 48.272 0.053 6.98 2.41 0
11/9/2020 12:15:00 PM 9.33 48.794 0.053 6.99 2.4 0
11/9/2020 12:30:00 PM 9.58 49.244 0.053 6.99 2.49 0
11/9/2020 12:45:00 PM 9.83 49.694 0.053 7.01 2.43 0
11/9/2020 1:00:00 PM 10.06 50.108 0.054 7.02 2.52 0
11/9/2020 1:15:00 PM 10.25 50.45 0.053 7.02 2.37 0
11/9/2020 1:30:00 PM 10.42 50.756 0.053 7.02 2.45 0
11/9/2020 1:45:00 PM 10.53 50.954 0.053 7.02 2.42 0
11/9/2020 2:00:00 PM 10.62 51.116 0.053 7.03 2.44 0
11/9/2020 2:15:00 PM 10.69 51.242 0.053 7.02 2.37 0
11/9/2020 2:30:00 PM 10.73 51.314 0.053 7.03 2.44 0
11/9/2020 2:45:00 PM 10.75 51.35 0.053 7.03 2.41 0
11/9/2020 3:00:00 PM 10.77 51.386 0.053 7.03 2.45 0
11/9/2020 3:15:00 PM 10.76 51.368 0.053 7.02 2.38 0
11/9/2020 3:30:00 PM 10.73 51.314 0.053 7.02 2.45 0
11/9/2020 3:45:00 PM 10.69 51.242 0.054 7.01 2.45 0
11/9/2020 4:00:00 PM 10.63 51.134 0.054 7 2.54 0
11/9/2020 4:15:00 PM 10.58 51.044 0.054 6.96 2.44 0
11/9/2020 4:30:00 PM 10.55 50.99 0.054 6.95 2.45 0
11/9/2020 4:45:00 PM 10.53 50.954 0.054 6.93 2.48 0
11/9/2020 5:00:00 PM 10.5 50.9 0.054 6.92 2.57 0
11/9/2020 5:15:00 PM 10.47 50.846 0.054 6.9 2.56 0
11/9/2020 5:30:00 PM 10.43 50.774 0.054 6.88 2.48 0
11/9/2020 5:45:00 PM 10.39 50.702 0.054 6.87 2.54 0
11/9/2020 6:00:00 PM 10.34 50.612 0.055 6.85 2.59 0
11/9/2020 6:15:00 PM 10.28 50.504 0.054 6.85 2.44 0
11/9/2020 6:30:00 PM 10.21 50.378 0.054 6.84 2.44 0
11/9/2020 6:45:00 PM 10.15 50.27 0.055 6.81 2.41 0
11/9/2020 7:00:00 PM 10.07 50.126 0.055 6.82 2.61 0
11/9/2020 7:15:00 PM 9.99 49.982 0.055 6.82 2.47 0
11/9/2020 7:30:00 PM 9.92 49.856 0.055 6.8 2.43 0
11/9/2020 7:45:00 PM 9.85 49.73 0.055 6.81 2.4 0
11/9/2020 8:00:00 PM 9.77 49.586 0.055 6.8 2.5 0
11/9/2020 8:15:00 PM 9.7 49.46 0.055 6.8 2.54 0
11/9/2020 8:30:00 PM 9.62 49.316 0.055 6.8 2.46 0
11/9/2020 8:45:00 PM 9.54 49.172 0.055 6.81 2.43 0
11/9/2020 9:00:00 PM 9.46 49.028 0.055 6.8 2.52 0
11/9/2020 9:15:00 PM 9.39 48.902 0.054 6.79 2.6 0
11/9/2020 9:30:00 PM 9.31 48.758 0.055 6.8 2.48 0
11/9/2020 9:45:00 PM 9.24 48.632 0.055 6.79 2.53 0
11/9/2020 10:00:00 PM 9.17 48.506 0.055 6.78 2.53 0
11/9/2020 10:15:00 PM 9.11 48.398 0.055 6.78 2.48 0
11/9/2020 10:30:00 PM 9.04 48.272 0.055 6.78 2.5 0
11/9/2020 10:45:00 PM 8.97 48.146 0.055 6.78 2.5 0
11/9/2020 11:00:00 PM 8.91 48.038 0.055 6.78 2.5 0
11/9/2020 11:15:00 PM 8.86 47.948 0.055 6.77 2.52 0
11/9/2020 11:30:00 PM 8.81 47.858 0.054 6.78 2.45 0
11/9/2020 11:45:00 PM 8.76 47.768 0.055 6.77 2.48 0
11/10/2020 12:00:00 AM 8.72 47.696 0.055 6.77 2.54 0
11/10/2020 12:15:00 AM 8.67 47.606 0.055 6.77 2.54 0
11/10/2020 12:30:00 AM 8.63 47.534 0.055 6.77 2.49 0
11/10/2020 12:45:00 AM 8.59 47.462 0.055 6.77 2.57 0
11/10/2020 1:00:00 AM 8.56 47.408 0.055 6.78 2.5 0
11/10/2020 1:15:00 AM 8.53 47.354 0.055 6.77 2.54 0
11/10/2020 1:30:00 AM 8.49 47.282 0.055 6.79 2.61 0
11/10/2020 1:45:00 AM 8.46 47.228 0.055 6.77 2.42 0
11/10/2020 2:00:00 AM 8.42 47.156 0.055 6.77 2.42 0
11/10/2020 2:15:00 AM 8.39 47.102 0.055 6.77 2.5 0
11/10/2020 2:30:00 AM 8.37 47.066 0.055 6.76 2.43 0
11/10/2020 2:45:00 AM 8.33 46.994 0.055 6.78 2.48 0
11/10/2020 3:00:00 AM 8.31 46.958 0.055 6.79 2.52 0
11/10/2020 3:15:00 AM 8.28 46.904 0.055 6.77 2.52 0
11/10/2020 3:30:00 AM 8.26 46.868 0.055 6.76 2.55 0
11/10/2020 3:45:00 AM 8.23 46.814 0.055 6.77 2.52 0
11/10/2020 4:00:00 AM 8.21 46.778 0.055 6.77 2.51 0
11/10/2020 4:15:00 AM 8.19 46.742 0.055 6.76 2.41 0
11/10/2020 4:30:00 AM 8.17 46.706 0.055 6.77 2.49 0
11/10/2020 4:45:00 AM 8.16 46.688 0.055 6.77 2.45 0
11/10/2020 5:00:00 AM 8.16 46.688 0.055 6.76 2.45 0
11/10/2020 5:15:00 AM 8.15 46.67 0.055 6.76 2.47 0
11/10/2020 5:30:00 AM 8.15 46.67 0.055 6.76 2.49 0
11/10/2020 5:45:00 AM 8.14 46.652 0.055 6.76 2.6 0
11/10/2020 6:00:00 AM 8.13 46.634 0.055 6.77 2.49 0
11/10/2020 6:15:00 AM 8.13 46.634 0.055 6.77 2.55 0
11/10/2020 6:30:00 AM 8.12 46.616 0.055 6.78 2.52 0
11/10/2020 6:45:00 AM 8.12 46.616 0.055 6.76 2.72 0
11/10/2020 7:00:00 AM 8.11 46.598 0.055 6.78 2.62 0
11/10/2020 7:15:00 AM 8.12 46.616 0.055 6.78 2.59 0
11/10/2020 7:30:00 AM 8.13 46.634 0.055 6.79 2.62 0
11/10/2020 7:45:00 AM 8.14 46.652 0.058 6.85 1.66 0
11/10/2020 8:00:00 AM 8.16 46.688 0.055 6.82 2.61 0
11/10/2020 8:15:00 AM 8.17 46.706 0.055 6.84 2.72 0
11/10/2020 8:30:00 AM 8.19 46.742 0.055 6.86 2.73 0
11/10/2020 8:45:00 AM 8.22 46.796 0.055 6.87 2.63 0
11/10/2020 9:00:00 AM 8.27 46.886 0.055 6.88 2.61 0
11/10/2020 9:15:00 AM 8.34 47.012 0.055 6.88 2.53 0
11/10/2020 9:30:00 AM 8.43 47.174 0.054 6.91 2.59 0
11/10/2020 9:45:00 AM 8.55 47.39 0.054 6.91 2.54 0
11/10/2020 10:00:00 AM 8.7 47.66 0.054 6.92 2.53 0
11/10/2020 10:15:00 AM 8.85 47.93 0.057 6.98 1.69 0
11/10/2020 10:30:00 AM 9 48.2 0.054 6.96 2.67 0
11/10/2020 10:45:00 AM 9.17 48.506 0.054 6.96 2.56 0
11/10/2020 11:00:00 AM 9.36 48.848 0.054 6.98 2.75 0
11/10/2020 11:15:00 AM 9.57 49.226 0.054 6.99 2.6 0
11/10/2020 11:30:00 AM 9.81 49.658 0.054 7 2.64 0
11/10/2020 11:45:00 AM 10.05 50.09 0.054 7.01 2.65 0
11/10/2020 12:00:00 PM 10.34 50.612 0.054 7.02 2.61 0
11/10/2020 12:15:00 PM 10.59 51.062 0.054 7.03 2.6 0
11/10/2020 12:30:00 PM 10.85 51.53 0.054 7.04 2.61 0
11/10/2020 12:45:00 PM 11.07 51.926 0.054 7.05 2.56 0
11/10/2020 1:00:00 PM 11.27 52.286 0.054 7.05 2.69 0
11/10/2020 1:15:00 PM 11.45 52.61 0.054 7.04 2.5 0
11/10/2020 1:30:00 PM 11.59 52.862 0.054 7.04 2.52 0
11/10/2020 1:45:00 PM 11.67 53.006 0.054 7.06 2.45 0
11/10/2020 2:00:00 PM 11.76 53.168 0.054 7.06 2.59 0
11/10/2020 2:15:00 PM 11.8 53.24 0.055 7.06 2.52 0
11/10/2020 2:30:00 PM 11.83 53.294 0.055 7.06 2.46 0
11/10/2020 2:45:00 PM 11.84 53.312 0.056 7.06 2.53 0
11/10/2020 3:00:00 PM 11.84 53.312 0.056 7.06 2.44 0
11/10/2020 3:15:00 PM 11.81 53.258 0.056 7.07 2.37 0
11/10/2020 3:30:00 PM 11.78 53.204 0.056 7.06 2.48 0
11/10/2020 3:45:00 PM 11.72 53.096 0.056 7.04 2.42 0
11/10/2020 4:00:00 PM 11.65 52.97 0.056 7.02 2.55 0
11/10/2020 4:15:00 PM 11.59 52.862 0.056 7 2.53 0
11/10/2020 4:30:00 PM 11.55 52.79 0.055 6.97 2.55 0
11/10/2020 4:45:00 PM 11.52 52.736 0.056 6.95 2.66 0
11/10/2020 5:00:00 PM 11.5 52.7 0.055 6.92 2.45 0
11/10/2020 5:15:00 PM 11.47 52.646 0.056 6.91 2.39 0
11/10/2020 5:30:00 PM 11.45 52.61 0.056 6.88 2.45 0
11/10/2020 5:45:00 PM 11.41 52.538 0.056 6.85 2.56 0
11/10/2020 6:00:00 PM 11.38 52.484 0.055 6.86 2.66 0
11/10/2020 6:15:00 PM 11.35 52.43 0.056 6.84 2.51 0
11/10/2020 6:30:00 PM 11.31 52.358 0.055 6.83 2.68 0
11/10/2020 6:45:00 PM 11.29 52.322 0.056 6.83 2.64 0
11/10/2020 7:00:00 PM 11.25 52.25 0.056 6.82 2.65 0
11/10/2020 7:15:00 PM 11.22 52.196 0.055 6.82 2.59 0
11/10/2020 7:30:00 PM 11.19 52.142 0.056 6.81 2.62 0
11/10/2020 7:45:00 PM 11.15 52.07 0.055 6.81 2.49 0
11/10/2020 8:00:00 PM 11.11 51.998 0.055 6.81 2.45 0
11/10/2020 8:15:00 PM 11.06 51.908 0.056 6.8 2.46 0
11/10/2020 8:30:00 PM 11 51.8 0.055 6.79 2.55 0
11/10/2020 8:45:00 PM 10.94 51.692 0.056 6.79 2.6 0
11/10/2020 9:00:00 PM 10.86 51.548 0.055 6.8 2.62 0
11/10/2020 9:15:00 PM 10.8 51.44 0.055 6.79 2.57 0
11/10/2020 9:30:00 PM 10.73 51.314 0.055 6.8 2.61 0
11/10/2020 9:45:00 PM 10.66 51.188 0.056 6.79 2.64 0
11/10/2020 10:00:00 PM 10.61 51.098 0.056 6.78 2.6 0
11/10/2020 10:15:00 PM 10.55 50.99 0.056 6.77 2.53 0
11/10/2020 10:30:00 PM 10.49 50.882 0.055 6.78 2.53 0
11/10/2020 10:45:00 PM 10.43 50.774 0.056 6.78 2.51 0
11/10/2020 11:00:00 PM 10.36 50.648 0.055 6.78 2.61 0
11/10/2020 11:15:00 PM 10.3 50.54 0.056 6.77 2.54 0
11/10/2020 11:30:00 PM 10.24 50.432 0.055 6.77 2.59 0
11/10/2020 11:45:00 PM 10.19 50.342 0.055 6.76 2.5 0
11/11/2020 12:00:00 AM 10.17 50.306 0.056 6.76 2.51 0
11/11/2020 12:15:00 AM 10.16 50.288 0.056 6.77 2.62 0
11/11/2020 12:30:00 AM 10.15 50.27 0.055 6.77 2.72 0
11/11/2020 12:45:00 AM 10.15 50.27 0.056 6.78 2.59 0
11/11/2020 1:00:00 AM 10.16 50.288 0.055 6.77 2.54 0
11/11/2020 1:15:00 AM 10.16 50.288 0.055 6.76 2.55 0
11/11/2020 1:30:00 AM 10.16 50.288 0.056 6.77 3.9 0
11/11/2020 1:45:00 AM 10.17 50.306 0.055 6.76 2.52 0
11/11/2020 2:00:00 AM 10.17 50.306 0.056 6.76 2.53 0
11/11/2020 2:15:00 AM 10.14 50.252 0.055 6.77 2.48 0
11/11/2020 2:30:00 AM 10.11 50.198 0.056 6.76 2.49 0
11/11/2020 2:45:00 AM 10.08 50.144 0.055 6.77 2.36 0
11/11/2020 3:00:00 AM 10.04 50.072 0.055 6.77 2.55 0
11/11/2020 3:15:00 AM 10.01 50.018 0.055 6.76 2.52 0
11/11/2020 3:30:00 AM 9.99 49.982 0.056 6.76 2.47 0
11/11/2020 3:45:00 AM 10 50 0.056 6.76 2.59 0
11/11/2020 4:00:00 AM 10.04 50.072 0.056 6.77 2.51 0
11/11/2020 4:15:00 AM 10.08 50.144 0.056 6.76 2.49 0
11/11/2020 4:30:00 AM 10.11 50.198 0.056 6.77 2.55 0
11/11/2020 4:45:00 AM 10.14 50.252 0.056 6.77 2.58 0
11/11/2020 5:00:00 AM 10.17 50.306 0.056 6.76 2.59 0
11/11/2020 5:15:00 AM 10.21 50.378 0.056 6.77 2.59 0
11/11/2020 5:30:00 AM 10.25 50.45 0.056 6.78 2.67 0
11/11/2020 5:45:00 AM 10.3 50.54 0.055 6.79 2.56 0
11/11/2020 6:00:00 AM 10.34 50.612 0.056 6.79 2.54 0
11/11/2020 6:15:00 AM 10.38 50.684 0.056 6.79 2.64 0
11/11/2020 6:30:00 AM 10.43 50.774 0.056 6.8 2.51 0
11/11/2020 6:45:00 AM 10.5 50.9 0.056 6.8 2.6 0
11/11/2020 7:00:00 AM 10.55 50.99 0.056 6.8 2.41 0
11/11/2020 7:15:00 AM 10.59 51.062 0.056 6.81 2.49 0
11/11/2020 7:30:00 AM 10.63 51.134 0.056 6.81 2.61 0
11/11/2020 7:45:00 AM 10.67 51.206 0.056 6.82 2.51 0
11/11/2020 8:00:00 AM 10.7 51.26 0.056 6.83 2.53 0
11/11/2020 8:15:00 AM 10.75 51.35 0.055 6.85 2.34 0
11/11/2020 8:30:00 AM 10.8 51.44 0.055 6.86 2.44 0
11/11/2020 8:45:00 AM 10.84 51.512 0.055 6.87 2.44 0
11/11/2020 9:00:00 AM 10.88 51.584 0.055 6.88 2.5 0
11/11/2020 9:15:00 AM 10.92 51.656 0.055 6.89 2.39 0
11/11/2020 9:30:00 AM 10.96 51.728 0.055 6.86 2.46 0
11/11/2020 9:45:00 AM 11 51.8 0.055 6.88 2.54 0
11/11/2020 10:00:00 AM 11.04 51.872 0.055 6.88 2.5 0
11/11/2020 10:15:00 AM 11.08 51.944 0.055 6.87 2.46 0
11/11/2020 10:30:00 AM 11.14 52.052 0.055 6.87 2.46 0
11/11/2020 10:45:00 AM 11.2 52.16 0.055 6.88 2.52 0
11/11/2020 11:00:00 AM 11.26 52.268 0.054 6.9 2.5 0
11/11/2020 11:15:00 AM 11.31 52.358 0.054 6.91 2.46 0
11/11/2020 11:30:00 AM 11.36 52.448 0.054 6.91 2.47 0
11/11/2020 11:45:00 AM 11.41 52.538 0.054 6.91 2.6 0
11/11/2020 12:00:00 PM 11.47 52.646 0.054 6.9 2.66 0
11/11/2020 12:15:00 PM 11.52 52.736 0.054 6.9 2.64 0
11/11/2020 12:30:00 PM 11.58 52.844 0.054 6.92 2.46 0
11/11/2020 12:45:00 PM 11.62 52.916 0.054 6.92 2.61 0
11/11/2020 1:00:00 PM 11.65 52.97 0.054 6.92 2.56 0
11/11/2020 1:15:00 PM 11.69 53.042 0.054 6.92 2.61 0
11/11/2020 1:30:00 PM 11.73 53.114 0.054 6.93 2.59 0
11/11/2020 1:45:00 PM 11.79 53.222 0.053 6.92 2.62 0
11/11/2020 2:00:00 PM 11.83 53.294 0.054 6.94 2.54 0
11/11/2020 2:15:00 PM 11.9 53.42 0.053 6.94 2.69 0
11/11/2020 2:30:00 PM 11.96 53.528 0.053 6.94 2.68 0
11/11/2020 2:45:00 PM 12 53.6 0.053 6.92 2.66 0
11/11/2020 3:00:00 PM 12.02 53.636 0.053 6.91 2.74 0
11/11/2020 3:15:00 PM 12.03 53.654 0.053 6.9 2.78 0
11/11/2020 3:30:00 PM 12.04 53.672 0.053 6.89 2.69 0
11/11/2020 3:45:00 PM 12.06 53.708 0.053 6.89 2.69 0
11/11/2020 4:00:00 PM 12.09 53.762 0.053 6.89 2.72 0
11/11/2020 4:15:00 PM 12.11 53.798 0.053 6.88 2.66 0
11/11/2020 4:30:00 PM 12.11 53.798 0.054 6.86 2.79 0
11/11/2020 4:45:00 PM 12.12 53.816 0.054 6.86 2.79 0
11/11/2020 5:00:00 PM 12.12 53.816 0.054 6.85 2.92 0
11/11/2020 5:15:00 PM 12.13 53.834 0.054 6.84 2.71 0
11/11/2020 5:30:00 PM 12.13 53.834 0.055 6.84 2.7 0
11/11/2020 5:45:00 PM 12.12 53.816 0.055 6.83 2.81 0
11/11/2020 6:00:00 PM 12.11 53.798 0.055 6.82 2.7 0
11/11/2020 6:15:00 PM 12.09 53.762 0.055 6.83 2.72 0
11/11/2020 6:30:00 PM 12.09 53.762 0.056 6.83 2.75 0
11/11/2020 6:45:00 PM 12.08 53.744 0.057 6.85 2.91 0
11/11/2020 7:00:00 PM 12.07 53.726 0.061 6.88 3.21 0
11/11/2020 7:15:00 PM 12.05 53.69 0.064 6.9 3.28 0
11/11/2020 7:30:00 PM 12.04 53.672 0.066 6.91 3.28 0
11/11/2020 7:45:00 PM 12.04 53.672 0.068 6.91 3.43 0
11/11/2020 8:00:00 PM 12.03 53.654 0.069 6.93 3.6 0
11/11/2020 8:15:00 PM 12.02 53.636 0.071 6.93 3.57 0
11/11/2020 8:30:00 PM 12.02 53.636 0.071 6.93 3.95 0
11/11/2020 8:45:00 PM 12.01 53.618 0.071 6.93 3.93 0
11/11/2020 9:00:00 PM 12 53.6 0.072 6.92 4.07 0
11/11/2020 9:15:00 PM 11.98 53.564 0.071 6.91 4.15 0
11/11/2020 9:30:00 PM 11.97 53.546 0.07 6.91 4.41 0
11/11/2020 9:45:00 PM 11.97 53.546 0.069 6.9 4.44 0
11/11/2020 10:00:00 PM 11.97 53.546 0.069 6.92 7.51 0
11/11/2020 10:15:00 PM 11.96 53.528 0.064 6.9 8.91 0
11/11/2020 10:30:00 PM 11.94 53.492 0.056 6.88 9.8 0
11/11/2020 10:45:00 PM 11.95 53.51 0.052 6.86 10.59 0
11/11/2020 11:00:00 PM 11.96 53.528 0.05 6.83 11.7 0
11/11/2020 11:15:00 PM 11.99 53.582 0.048 6.84 13.36 0
11/11/2020 11:30:00 PM 11.99 53.582 0.047 6.79 11.78 0
11/11/2020 11:45:00 PM 11.99 53.582 0.046 6.78 12.52 0
11/12/2020 12:00:00 AM 11.97 53.546 0.045 6.75 11.87 0
11/12/2020 12:15:00 AM 11.97 53.546 0.044 6.75 11.32 0
11/12/2020 12:30:00 AM 11.96 53.528 0.044 6.78 12.02 0
11/12/2020 12:45:00 AM 11.94 53.492 0.043 6.78 12.2 0
11/12/2020 1:00:00 AM 11.92 53.456 0.043 6.81 13.22 0
11/12/2020 1:15:00 AM 11.9 53.42 0.043 6.83 11.99 0
11/12/2020 1:30:00 AM 11.88 53.384 0.043 6.82 11.18 0
11/12/2020 1:45:00 AM 11.86 53.348 0.043 6.81 11.53 0
11/12/2020 2:00:00 AM 11.84 53.312 0.042 6.81 10.12 0
11/12/2020 2:15:00 AM 11.81 53.258 0.042 6.81 10.09 0
11/12/2020 2:30:00 AM 11.78 53.204 0.042 6.79 10.11 0
11/12/2020 2:45:00 AM 11.76 53.168 0.042 6.77 9.08 0
11/12/2020 3:00:00 AM 11.74 53.132 0.042 6.77 9.3 0
11/12/2020 3:15:00 AM 11.71 53.078 0.042 6.78 8.52 0
11/12/2020 3:30:00 AM 11.68 53.024 0.041 6.75 7.99 0
11/12/2020 3:45:00 AM 11.66 52.988 0.041 6.75 8.34 0
11/12/2020 4:00:00 AM 11.63 52.934 0.041 6.72 7.47 0
11/12/2020 4:15:00 AM 11.6 52.88 0.041 6.72 7.01 0
11/12/2020 4:30:00 AM 11.56 52.808 0.041 6.71 8.16 0
11/12/2020 4:45:00 AM 11.53 52.754 0.041 6.72 6.88 0
11/12/2020 5:00:00 AM 11.49 52.682 0.041 6.69 6.78 0
11/12/2020 5:15:00 AM 11.45 52.61 0.041 6.7 6.77 0
11/12/2020 5:30:00 AM 11.41 52.538 0.041 6.72 6.4 0
11/12/2020 5:45:00 AM 11.37 52.466 0.04 6.71 6.11 0
11/12/2020 6:00:00 AM 11.32 52.376 0.04 6.73 5.98 0
11/12/2020 6:15:00 AM 11.27 52.286 0.04 6.72 6.54 0
11/12/2020 6:30:00 AM 11.22 52.196 0.04 6.69 5.93 0
11/12/2020 6:45:00 AM 11.17 52.106 0.04 6.71 7.44 0
11/12/2020 7:00:00 AM 11.11 51.998 0.04 6.69 6.2 0
11/12/2020 7:15:00 AM 11.07 51.926 0.04 6.7 5.69 0
11/12/2020 7:30:00 AM 11.01 51.818 0.04 6.7 5.69 0
11/12/2020 7:45:00 AM 10.97 51.746 0.04 6.69 5.78 0
11/12/2020 8:00:00 AM 10.93 51.674 0.04 6.72 5.63 0
11/12/2020 8:15:00 AM 10.89 51.602 0.04 6.71 5.23 0
11/12/2020 8:30:00 AM 10.85 51.53 0.04 6.72 5.21 0
11/12/2020 8:45:00 AM 10.81 51.458 0.04 6.73 5.27 0
11/12/2020 9:00:00 AM 10.77 51.386 0.04 6.74 5.15 0
11/12/2020 9:15:00 AM 10.73 51.314 0.04 6.74 4.9 0
11/12/2020 9:30:00 AM 10.69 51.242 0.04 6.73 4.98 0
11/12/2020 9:45:00 AM 10.66 51.188 0.04 6.76 4.93 0
11/12/2020 10:00:00 AM 10.63 51.134 0.04 6.74 4.56 0
11/12/2020 10:15:00 AM 10.62 51.116 0.04 6.76 4.57 0
11/12/2020 10:30:00 AM 10.6 51.08 0.04 6.77 4.72 0
11/12/2020 10:45:00 AM 10.59 51.062 0.04 6.77 4.89 0
11/12/2020 11:00:00 AM 10.57 51.026 0.04 6.79 4.59 0
11/12/2020 11:15:00 AM 10.55 50.99 0.039 6.78 4.4 0
11/12/2020 11:30:00 AM 10.54 50.972 0.039 6.8 4.58 0
11/12/2020 11:45:00 AM 10.54 50.972 0.039 6.79 4.24 0
11/12/2020 12:00:00 PM 10.52 50.936 0.039 6.79 4.88 0
11/12/2020 12:15:00 PM 10.49 50.882 0.039 6.79 4.63 0
11/12/2020 12:30:00 PM 10.48 50.864 0.039 6.79 4.17 0
11/12/2020 12:45:00 PM 10.45 50.81 0.039 6.77 4.42 0
11/12/2020 1:00:00 PM 10.45 50.81 0.039 6.8 4.43 0
11/12/2020 1:15:00 PM 10.45 50.81 0.039 6.8 4.25 0
11/12/2020 1:30:00 PM 10.45 50.81 0.039 6.79 4.35 0
11/12/2020 1:45:00 PM 10.42 50.756 0.039 6.81 4.27 0
11/12/2020 2:00:00 PM 10.39 50.702 0.039 6.8 4.57 0
11/12/2020 2:15:00 PM 10.36 50.648 0.039 6.79 4.16 0
11/12/2020 2:30:00 PM 10.33 50.594 0.039 6.77 4.15 0
11/12/2020 2:45:00 PM 10.3 50.54 0.039 6.78 4.06 0
11/12/2020 3:00:00 PM 10.27 50.486 0.039 6.79 4.18 0
11/12/2020 3:15:00 PM 10.24 50.432 0.039 6.77 3.9 0
11/12/2020 3:30:00 PM 10.2 50.36 0.039 6.77 3.92 0
11/12/2020 3:45:00 PM 10.16 50.288 0.039 6.77 3.97 0
11/12/2020 4:00:00 PM 10.12 50.216 0.039 6.74 3.99 0
11/12/2020 4:15:00 PM 10.07 50.126 0.039 6.75 3.85 0
11/12/2020 4:30:00 PM 10.02 50.036 0.039 6.74 3.9 0
11/12/2020 4:45:00 PM 9.97 49.946 0.039 6.74 3.93 0
11/12/2020 5:00:00 PM 9.91 49.838 0.039 6.72 3.89 0
11/12/2020 5:15:00 PM 9.85 49.73 0.039 6.72 3.96 0
11/12/2020 5:30:00 PM 9.8 49.64 0.04 6.7 3.97 0
11/12/2020 5:45:00 PM 9.74 49.532 0.039 6.69 4.08 0
11/12/2020 6:00:00 PM 9.67 49.406 0.039 6.68 4.01 0
11/12/2020 6:15:00 PM 9.61 49.298 0.039 6.67 4 0
11/12/2020 6:30:00 PM 9.55 49.19 0.039 6.67 3.94 0
11/12/2020 6:45:00 PM 9.49 49.082 0.039 6.66 3.79 0
11/12/2020 7:00:00 PM 9.42 48.956 0.039 6.66 3.95 0
11/12/2020 7:15:00 PM 9.36 48.848 0.039 6.66 3.82 0
11/12/2020 7:30:00 PM 9.3 48.74 0.04 6.66 3.73 0
11/12/2020 7:45:00 PM 9.23 48.614 0.04 6.65 3.71 0
11/12/2020 8:00:00 PM 9.17 48.506 0.039 6.66 3.84 0
11/12/2020 8:15:00 PM 9.1 48.38 0.04 6.65 3.75 0
11/12/2020 8:30:00 PM 9.04 48.272 0.04 6.66 3.78 0
11/12/2020 8:45:00 PM 8.98 48.164 0.039 6.65 3.7 0
11/12/2020 9:00:00 PM 8.93 48.074 0.039 6.65 3.57 0
11/12/2020 9:15:00 PM 8.86 47.948 0.039 6.65 3.75 0
11/12/2020 9:30:00 PM 8.81 47.858 0.04 6.65 3.52 0
11/12/2020 9:45:00 PM 8.74 47.732 0.039 6.64 3.67 0
11/12/2020 10:00:00 PM 8.67 47.606 0.04 6.64 3.7 0
11/12/2020 10:15:00 PM 8.61 47.498 0.04 6.64 3.54 0
11/12/2020 10:30:00 PM 8.54 47.372 0.04 6.64 3.78 0
11/12/2020 10:45:00 PM 8.48 47.264 0.04 6.63 3.48 0
11/12/2020 11:00:00 PM 8.41 47.138 0.039 6.62 3.47 0
11/12/2020 11:15:00 PM 8.35 47.03 0.04 6.62 3.47 0
11/12/2020 11:30:00 PM 8.28 46.904 0.04 6.62 3.79 0
11/12/2020 11:45:00 PM 8.22 46.796 0.04 6.62 3.52 0
11/13/2020 12:00:00 AM 8.15 46.67 0.04 6.6 3.53 0
11/13/2020 12:15:00 AM 8.08 46.544 0.04 6.6 3.65 0
11/13/2020 12:30:00 AM 8.02 46.436 0.042 6.63 2.68 0
11/13/2020 12:45:00 AM 7.96 46.328 0.04 6.58 3.44 0
11/13/2020 1:00:00 AM 7.9 46.22 0.04 6.56 3.72 0
11/13/2020 1:15:00 AM 7.84 46.112 0.039 6.55 3.58 0
11/13/2020 1:30:00 AM 7.79 46.022 0.039 6.55 3.5 0
11/13/2020 1:45:00 AM 7.73 45.914 0.04 6.54 3.46 0
11/13/2020 2:00:00 AM 7.68 45.824 0.04 6.55 3.45 0
11/13/2020 2:15:00 AM 7.62 45.716 0.04 6.55 3.5 0
11/13/2020 2:30:00 AM 7.58 45.644 0.04 6.53 3.42 0
11/13/2020 2:45:00 AM 7.57 45.626 0.04 6.53 3.4 0
11/13/2020 3:00:00 AM 7.55 45.59 0.04 6.54 3.35 0
11/13/2020 3:15:00 AM 7.53 45.554 0.04 6.54 3.26 0
11/13/2020 3:30:00 AM 7.52 45.536 0.039 6.55 3.43 0
11/13/2020 3:45:00 AM 7.5 45.5 0.04 6.55 3.57 0
11/13/2020 4:00:00 AM 7.48 45.464 0.04 6.56 3.32 0
11/13/2020 4:15:00 AM 7.47 45.446 0.04 6.55 3.27 0
11/13/2020 4:30:00 AM 7.45 45.41 0.04 6.56 3.26 0
11/13/2020 4:45:00 AM 7.44 45.392 0.04 6.56 3.28 0
11/13/2020 5:00:00 AM 7.43 45.374 0.04 6.57 3.3 0
11/13/2020 5:15:00 AM 7.42 45.356 0.04 6.56 3.27 0
11/13/2020 5:30:00 AM 7.41 45.338 0.04 6.57 3.38 0
11/13/2020 5:45:00 AM 7.4 45.32 0.04 6.58 3.3 0
11/13/2020 6:00:00 AM 7.39 45.302 0.04 6.57 3.42 0
11/13/2020 6:15:00 AM 7.38 45.284 0.04 6.6 3.23 0
11/13/2020 6:30:00 AM 7.37 45.266 0.04 6.58 3.41 0
11/13/2020 6:45:00 AM 7.36 45.248 0.04 6.6 3.34 0
11/13/2020 7:00:00 AM 7.35 45.23 0.04 6.59 3.38 0
11/13/2020 7:15:00 AM 7.35 45.23 0.04 6.59 3.19 0
11/13/2020 7:30:00 AM 7.35 45.23 0.04 6.6 9.78 0
11/13/2020 7:45:00 AM 7.34 45.212 0.04 6.62 3.29 0
11/13/2020 8:00:00 AM 7.35 45.23 0.04 6.63 3.21 0
11/13/2020 8:15:00 AM 7.35 45.23 0.04 6.64 3.23 0
11/13/2020 8:30:00 AM 7.36 45.248 0.04 6.63 3.1 0
11/13/2020 8:45:00 AM 7.38 45.284 0.04 6.65 3.27 0
11/13/2020 9:00:00 AM 7.4 45.32 0.04 6.66 3.38 0
11/13/2020 9:15:00 AM 7.44 45.392 0.04 6.67 3.14 0
11/13/2020 9:30:00 AM 7.48 45.464 0.04 6.69 3.3 0
11/13/2020 9:45:00 AM 7.52 45.536 0.04 6.71 3.02 0
11/13/2020 10:00:00 AM 7.56 45.608 0.039 6.71 3.15 0
11/13/2020 10:15:00 AM 7.61 45.698 0.04 6.73 3.13 0